<?xml version="1.0" encoding="UTF-8" standalone="no" ?>
<gpx xmlns="http://www.topografix.com/GPX/1/1" xmlns:xsi="http://www.w3.org/2001/XMLSchema-instance" xsi:schemaLocation="http://www.topografix.com/GPX/1/1 http://www.topografix.com/GPX/1/1/gpx.xsd" version="1.1" creator="VisuGPX - https://www.visugpx.com">
  <metadata>
    <name>Pointe de Rognier de Prodin</name>
    <desc><![CDATA[belle itinéraire rocailleux...!]]></desc>
  </metadata>
  <trk>
    <name><![CDATA[2020-09-07 15-20-57]]></name>
    <trkseg>
      <trkpt lat="45.44438" lon="6.16957">
        <ele>1349.83</ele>
        <time>2020-09-07T06:46:51Z</time>
      </trkpt>
      <trkpt lat="45.44438" lon="6.16957">
        <ele>1350.79</ele>
        <time>2020-09-07T06:46:53Z</time>
      </trkpt>
      <trkpt lat="45.44439" lon="6.16958">
        <ele>1352.23</ele>
        <time>2020-09-07T06:47:34Z</time>
      </trkpt>
      <trkpt lat="45.4444" lon="6.16958">
        <ele>1350.79</ele>
        <time>2020-09-07T06:47:46Z</time>
      </trkpt>
      <trkpt lat="45.44441" lon="6.16957">
        <ele>1350.79</ele>
        <time>2020-09-07T06:48:04Z</time>
      </trkpt>
      <trkpt lat="45.44441" lon="6.16958">
        <ele>1350.79</ele>
        <time>2020-09-07T06:48:21Z</time>
      </trkpt>
      <trkpt lat="45.4444" lon="6.16958">
        <ele>1350.79</ele>
        <time>2020-09-07T06:48:38Z</time>
      </trkpt>
      <trkpt lat="45.44443" lon="6.16957">
        <ele>1350.79</ele>
        <time>2020-09-07T06:48:56Z</time>
      </trkpt>
      <trkpt lat="45.44448" lon="6.16965">
        <ele>1350.79</ele>
        <time>2020-09-07T06:49:13Z</time>
      </trkpt>
      <trkpt lat="45.4445" lon="6.16974">
        <ele>1349.83</ele>
        <time>2020-09-07T06:49:21Z</time>
      </trkpt>
      <trkpt lat="45.44454" lon="6.16988">
        <ele>1351.27</ele>
        <time>2020-09-07T06:49:34Z</time>
      </trkpt>
      <trkpt lat="45.44454" lon="6.17006">
        <ele>1352.71</ele>
        <time>2020-09-07T06:49:48Z</time>
      </trkpt>
      <trkpt lat="45.44453" lon="6.17012">
        <ele>1353.67</ele>
        <time>2020-09-07T06:50:06Z</time>
      </trkpt>
      <trkpt lat="45.44453" lon="6.17019">
        <ele>1353.67</ele>
        <time>2020-09-07T06:50:12Z</time>
      </trkpt>
      <trkpt lat="45.44457" lon="6.1704">
        <ele>1355.12</ele>
        <time>2020-09-07T06:50:29Z</time>
      </trkpt>
      <trkpt lat="45.44461" lon="6.17061">
        <ele>1357.52</ele>
        <time>2020-09-07T06:50:49Z</time>
      </trkpt>
      <trkpt lat="45.44465" lon="6.1708">
        <ele>1358.96</ele>
        <time>2020-09-07T06:51:08Z</time>
      </trkpt>
      <trkpt lat="45.44467" lon="6.17106">
        <ele>1360.4</ele>
        <time>2020-09-07T06:51:30Z</time>
      </trkpt>
      <trkpt lat="45.44471" lon="6.17129">
        <ele>1362.33</ele>
        <time>2020-09-07T06:51:51Z</time>
      </trkpt>
      <trkpt lat="45.44473" lon="6.17157">
        <ele>1364.73</ele>
        <time>2020-09-07T06:52:16Z</time>
      </trkpt>
      <trkpt lat="45.44466" lon="6.17185">
        <ele>1366.17</ele>
        <time>2020-09-07T06:52:37Z</time>
      </trkpt>
      <trkpt lat="45.44456" lon="6.17204">
        <ele>1368.09</ele>
        <time>2020-09-07T06:52:54Z</time>
      </trkpt>
      <trkpt lat="45.44444" lon="6.17218">
        <ele>1370.02</ele>
        <time>2020-09-07T06:53:13Z</time>
      </trkpt>
      <trkpt lat="45.44435" lon="6.1725">
        <ele>1370.98</ele>
        <time>2020-09-07T06:53:37Z</time>
      </trkpt>
      <trkpt lat="45.44436" lon="6.17263">
        <ele>1373.38</ele>
        <time>2020-09-07T06:53:46Z</time>
      </trkpt>
      <trkpt lat="45.44441" lon="6.17286">
        <ele>1374.82</ele>
        <time>2020-09-07T06:54:07Z</time>
      </trkpt>
      <trkpt lat="45.44449" lon="6.17319">
        <ele>1377.23</ele>
        <time>2020-09-07T06:54:34Z</time>
      </trkpt>
      <trkpt lat="45.44457" lon="6.1735">
        <ele>1379.63</ele>
        <time>2020-09-07T06:54:59Z</time>
      </trkpt>
      <trkpt lat="45.44465" lon="6.17382">
        <ele>1381.55</ele>
        <time>2020-09-07T06:55:24Z</time>
      </trkpt>
      <trkpt lat="45.44469" lon="6.17409">
        <ele>1384.44</ele>
        <time>2020-09-07T06:55:49Z</time>
      </trkpt>
      <trkpt lat="45.44469" lon="6.17425">
        <ele>1387.8</ele>
        <time>2020-09-07T06:56:03Z</time>
      </trkpt>
      <trkpt lat="45.44464" lon="6.17447">
        <ele>1390.68</ele>
        <time>2020-09-07T06:56:24Z</time>
      </trkpt>
      <trkpt lat="45.44461" lon="6.17467">
        <ele>1393.57</ele>
        <time>2020-09-07T06:56:44Z</time>
      </trkpt>
      <trkpt lat="45.44455" lon="6.17485">
        <ele>1396.45</ele>
        <time>2020-09-07T06:57:05Z</time>
      </trkpt>
      <trkpt lat="45.44447" lon="6.17505">
        <ele>1399.82</ele>
        <time>2020-09-07T06:57:26Z</time>
      </trkpt>
      <trkpt lat="45.44441" lon="6.17523">
        <ele>1402.22</ele>
        <time>2020-09-07T06:57:46Z</time>
      </trkpt>
      <trkpt lat="45.44437" lon="6.17547">
        <ele>1405.58</ele>
        <time>2020-09-07T06:58:08Z</time>
      </trkpt>
      <trkpt lat="45.44432" lon="6.17565">
        <ele>1408.47</ele>
        <time>2020-09-07T06:58:27Z</time>
      </trkpt>
      <trkpt lat="45.44426" lon="6.17584">
        <ele>1411.35</ele>
        <time>2020-09-07T06:58:47Z</time>
      </trkpt>
      <trkpt lat="45.44428" lon="6.17605">
        <ele>1414.24</ele>
        <time>2020-09-07T06:59:08Z</time>
      </trkpt>
      <trkpt lat="45.4444" lon="6.17625">
        <ele>1417.12</ele>
        <time>2020-09-07T06:59:31Z</time>
      </trkpt>
      <trkpt lat="45.4445" lon="6.17639">
        <ele>1420</ele>
        <time>2020-09-07T06:59:50Z</time>
      </trkpt>
      <trkpt lat="45.44457" lon="6.17658">
        <ele>1423.37</ele>
        <time>2020-09-07T07:00:11Z</time>
      </trkpt>
      <trkpt lat="45.44459" lon="6.17678">
        <ele>1425.77</ele>
        <time>2020-09-07T07:00:29Z</time>
      </trkpt>
      <trkpt lat="45.44455" lon="6.17695">
        <ele>1428.18</ele>
        <time>2020-09-07T07:00:47Z</time>
      </trkpt>
      <trkpt lat="45.44443" lon="6.1769">
        <ele>1431.54</ele>
        <time>2020-09-07T07:01:05Z</time>
      </trkpt>
      <trkpt lat="45.44433" lon="6.17677">
        <ele>1434.91</ele>
        <time>2020-09-07T07:01:23Z</time>
      </trkpt>
      <trkpt lat="45.4442" lon="6.17669">
        <ele>1438.27</ele>
        <time>2020-09-07T07:01:41Z</time>
      </trkpt>
      <trkpt lat="45.44407" lon="6.17668">
        <ele>1441.15</ele>
        <time>2020-09-07T07:02:00Z</time>
      </trkpt>
      <trkpt lat="45.44391" lon="6.17664">
        <ele>1444.04</ele>
        <time>2020-09-07T07:02:20Z</time>
      </trkpt>
      <trkpt lat="45.44378" lon="6.17664">
        <ele>1447.4</ele>
        <time>2020-09-07T07:02:41Z</time>
      </trkpt>
      <trkpt lat="45.44364" lon="6.17656">
        <ele>1449.81</ele>
        <time>2020-09-07T07:03:01Z</time>
      </trkpt>
      <trkpt lat="45.44351" lon="6.1765">
        <ele>1453.17</ele>
        <time>2020-09-07T07:03:22Z</time>
      </trkpt>
      <trkpt lat="45.44337" lon="6.17649">
        <ele>1456.05</ele>
        <time>2020-09-07T07:03:42Z</time>
      </trkpt>
      <trkpt lat="45.44323" lon="6.17638">
        <ele>1459.42</ele>
        <time>2020-09-07T07:04:04Z</time>
      </trkpt>
      <trkpt lat="45.44316" lon="6.17626">
        <ele>1462.3</ele>
        <time>2020-09-07T07:04:24Z</time>
      </trkpt>
      <trkpt lat="45.44304" lon="6.17616">
        <ele>1465.67</ele>
        <time>2020-09-07T07:04:46Z</time>
      </trkpt>
      <trkpt lat="45.44289" lon="6.17608">
        <ele>1468.55</ele>
        <time>2020-09-07T07:05:08Z</time>
      </trkpt>
      <trkpt lat="45.4428" lon="6.17591">
        <ele>1471.44</ele>
        <time>2020-09-07T07:05:29Z</time>
      </trkpt>
      <trkpt lat="45.44275" lon="6.17575">
        <ele>1474.8</ele>
        <time>2020-09-07T07:05:48Z</time>
      </trkpt>
      <trkpt lat="45.44265" lon="6.17569">
        <ele>1477.2</ele>
        <time>2020-09-07T07:06:03Z</time>
      </trkpt>
      <trkpt lat="45.44263" lon="6.17567">
        <ele>1476.24</ele>
        <time>2020-09-07T07:06:15Z</time>
      </trkpt>
      <trkpt lat="45.44267" lon="6.17564">
        <ele>1477.68</ele>
        <time>2020-09-07T07:06:18Z</time>
      </trkpt>
      <trkpt lat="45.44266" lon="6.17564">
        <ele>1478.16</ele>
        <time>2020-09-07T07:06:20Z</time>
      </trkpt>
      <trkpt lat="45.44263" lon="6.17568">
        <ele>1478.65</ele>
        <time>2020-09-07T07:06:35Z</time>
      </trkpt>
      <trkpt lat="45.44262" lon="6.17573">
        <ele>1478.65</ele>
        <time>2020-09-07T07:06:53Z</time>
      </trkpt>
      <trkpt lat="45.4426" lon="6.17578">
        <ele>1479.13</ele>
        <time>2020-09-07T07:07:11Z</time>
      </trkpt>
      <trkpt lat="45.44259" lon="6.17581">
        <ele>1482.01</ele>
        <time>2020-09-07T07:07:15Z</time>
      </trkpt>
      <trkpt lat="45.44257" lon="6.17588">
        <ele>1481.53</ele>
        <time>2020-09-07T07:07:34Z</time>
      </trkpt>
      <trkpt lat="45.44256" lon="6.17599">
        <ele>1482.01</ele>
        <time>2020-09-07T07:08:01Z</time>
      </trkpt>
      <trkpt lat="45.44253" lon="6.17615">
        <ele>1485.37</ele>
        <time>2020-09-07T07:08:18Z</time>
      </trkpt>
      <trkpt lat="45.4425" lon="6.1763">
        <ele>1488.26</ele>
        <time>2020-09-07T07:08:35Z</time>
      </trkpt>
      <trkpt lat="45.44243" lon="6.17649">
        <ele>1491.14</ele>
        <time>2020-09-07T07:08:58Z</time>
      </trkpt>
      <trkpt lat="45.44236" lon="6.17667">
        <ele>1494.51</ele>
        <time>2020-09-07T07:09:16Z</time>
      </trkpt>
      <trkpt lat="45.4423" lon="6.17683">
        <ele>1497.39</ele>
        <time>2020-09-07T07:09:33Z</time>
      </trkpt>
      <trkpt lat="45.44224" lon="6.177">
        <ele>1499.79</ele>
        <time>2020-09-07T07:09:50Z</time>
      </trkpt>
      <trkpt lat="45.44218" lon="6.17715">
        <ele>1502.2</ele>
        <time>2020-09-07T07:10:07Z</time>
      </trkpt>
      <trkpt lat="45.44212" lon="6.17731">
        <ele>1505.08</ele>
        <time>2020-09-07T07:10:26Z</time>
      </trkpt>
      <trkpt lat="45.4421" lon="6.17752">
        <ele>1507.48</ele>
        <time>2020-09-07T07:10:46Z</time>
      </trkpt>
      <trkpt lat="45.44209" lon="6.17774">
        <ele>1507.97</ele>
        <time>2020-09-07T07:11:01Z</time>
      </trkpt>
      <trkpt lat="45.44198" lon="6.17794">
        <ele>1508.93</ele>
        <time>2020-09-07T07:11:19Z</time>
      </trkpt>
      <trkpt lat="45.44185" lon="6.17806">
        <ele>1510.37</ele>
        <time>2020-09-07T07:11:37Z</time>
      </trkpt>
      <trkpt lat="45.44172" lon="6.17818">
        <ele>1511.81</ele>
        <time>2020-09-07T07:11:53Z</time>
      </trkpt>
      <trkpt lat="45.44165" lon="6.17826">
        <ele>1513.25</ele>
        <time>2020-09-07T07:12:04Z</time>
      </trkpt>
      <trkpt lat="45.44157" lon="6.17843">
        <ele>1514.69</ele>
        <time>2020-09-07T07:12:20Z</time>
      </trkpt>
      <trkpt lat="45.44148" lon="6.17866">
        <ele>1515.66</ele>
        <time>2020-09-07T07:12:38Z</time>
      </trkpt>
      <trkpt lat="45.44139" lon="6.17886">
        <ele>1516.62</ele>
        <time>2020-09-07T07:12:55Z</time>
      </trkpt>
      <trkpt lat="45.44131" lon="6.17901">
        <ele>1516.62</ele>
        <time>2020-09-07T07:13:08Z</time>
      </trkpt>
      <trkpt lat="45.44131" lon="6.17903">
        <ele>1517.1</ele>
        <time>2020-09-07T07:13:10Z</time>
      </trkpt>
      <trkpt lat="45.44122" lon="6.17924">
        <ele>1518.06</ele>
        <time>2020-09-07T07:13:26Z</time>
      </trkpt>
      <trkpt lat="45.44123" lon="6.17949">
        <ele>1519.98</ele>
        <time>2020-09-07T07:13:45Z</time>
      </trkpt>
      <trkpt lat="45.44123" lon="6.17963">
        <ele>1520.94</ele>
        <time>2020-09-07T07:13:54Z</time>
      </trkpt>
      <trkpt lat="45.44124" lon="6.17986">
        <ele>1522.39</ele>
        <time>2020-09-07T07:14:10Z</time>
      </trkpt>
      <trkpt lat="45.44128" lon="6.18004">
        <ele>1524.79</ele>
        <time>2020-09-07T07:14:28Z</time>
      </trkpt>
      <trkpt lat="45.44132" lon="6.18029">
        <ele>1527.67</ele>
        <time>2020-09-07T07:14:50Z</time>
      </trkpt>
      <trkpt lat="45.44137" lon="6.18048">
        <ele>1530.08</ele>
        <time>2020-09-07T07:15:07Z</time>
      </trkpt>
      <trkpt lat="45.4414" lon="6.1807">
        <ele>1533.44</ele>
        <time>2020-09-07T07:15:29Z</time>
      </trkpt>
      <trkpt lat="45.44144" lon="6.18088">
        <ele>1536.32</ele>
        <time>2020-09-07T07:15:47Z</time>
      </trkpt>
      <trkpt lat="45.44144" lon="6.18113">
        <ele>1539.21</ele>
        <time>2020-09-07T07:16:09Z</time>
      </trkpt>
      <trkpt lat="45.44143" lon="6.18135">
        <ele>1542.57</ele>
        <time>2020-09-07T07:16:30Z</time>
      </trkpt>
      <trkpt lat="45.44141" lon="6.18156">
        <ele>1545.46</ele>
        <time>2020-09-07T07:16:50Z</time>
      </trkpt>
      <trkpt lat="45.44139" lon="6.18176">
        <ele>1548.34</ele>
        <time>2020-09-07T07:17:10Z</time>
      </trkpt>
      <trkpt lat="45.44138" lon="6.18197">
        <ele>1551.22</ele>
        <time>2020-09-07T07:17:31Z</time>
      </trkpt>
      <trkpt lat="45.44136" lon="6.18217">
        <ele>1554.11</ele>
        <time>2020-09-07T07:17:49Z</time>
      </trkpt>
      <trkpt lat="45.4413" lon="6.18239">
        <ele>1556.99</ele>
        <time>2020-09-07T07:18:10Z</time>
      </trkpt>
      <trkpt lat="45.44122" lon="6.18258">
        <ele>1559.4</ele>
        <time>2020-09-07T07:18:28Z</time>
      </trkpt>
      <trkpt lat="45.44117" lon="6.18274">
        <ele>1562.28</ele>
        <time>2020-09-07T07:18:44Z</time>
      </trkpt>
      <trkpt lat="45.44112" lon="6.18297">
        <ele>1564.68</ele>
        <time>2020-09-07T07:19:05Z</time>
      </trkpt>
      <trkpt lat="45.44105" lon="6.18314">
        <ele>1567.09</ele>
        <time>2020-09-07T07:19:20Z</time>
      </trkpt>
      <trkpt lat="45.44103" lon="6.18317">
        <ele>1567.57</ele>
        <time>2020-09-07T07:19:23Z</time>
      </trkpt>
      <trkpt lat="45.44097" lon="6.18334">
        <ele>1568.53</ele>
        <time>2020-09-07T07:19:38Z</time>
      </trkpt>
      <trkpt lat="45.44089" lon="6.18351">
        <ele>1570.45</ele>
        <time>2020-09-07T07:19:54Z</time>
      </trkpt>
      <trkpt lat="45.44083" lon="6.18365">
        <ele>1572.37</ele>
        <time>2020-09-07T07:20:08Z</time>
      </trkpt>
      <trkpt lat="45.44076" lon="6.18385">
        <ele>1574.3</ele>
        <time>2020-09-07T07:20:27Z</time>
      </trkpt>
      <trkpt lat="45.44071" lon="6.18407">
        <ele>1576.22</ele>
        <time>2020-09-07T07:20:46Z</time>
      </trkpt>
      <trkpt lat="45.44067" lon="6.18428">
        <ele>1579.1</ele>
        <time>2020-09-07T07:21:07Z</time>
      </trkpt>
      <trkpt lat="45.44061" lon="6.18446">
        <ele>1581.99</ele>
        <time>2020-09-07T07:21:25Z</time>
      </trkpt>
      <trkpt lat="45.44053" lon="6.18462">
        <ele>1583.91</ele>
        <time>2020-09-07T07:21:43Z</time>
      </trkpt>
      <trkpt lat="45.44043" lon="6.18478">
        <ele>1585.83</ele>
        <time>2020-09-07T07:22:00Z</time>
      </trkpt>
      <trkpt lat="45.44031" lon="6.18493">
        <ele>1588.24</ele>
        <time>2020-09-07T07:22:17Z</time>
      </trkpt>
      <trkpt lat="45.4402" lon="6.18503">
        <ele>1589.68</ele>
        <time>2020-09-07T07:22:33Z</time>
      </trkpt>
      <trkpt lat="45.44009" lon="6.1851">
        <ele>1590.64</ele>
        <time>2020-09-07T07:22:51Z</time>
      </trkpt>
      <trkpt lat="45.44008" lon="6.1851">
        <ele>1588.24</ele>
        <time>2020-09-07T07:22:57Z</time>
      </trkpt>
      <trkpt lat="45.44004" lon="6.18513">
        <ele>1590.64</ele>
        <time>2020-09-07T07:23:03Z</time>
      </trkpt>
      <trkpt lat="45.44003" lon="6.18514">
        <ele>1591.6</ele>
        <time>2020-09-07T07:23:13Z</time>
      </trkpt>
      <trkpt lat="45.44002" lon="6.18514">
        <ele>1592.56</ele>
        <time>2020-09-07T07:23:34Z</time>
      </trkpt>
      <trkpt lat="45.44002" lon="6.18514">
        <ele>1591.12</ele>
        <time>2020-09-07T07:24:04Z</time>
      </trkpt>
      <trkpt lat="45.43994" lon="6.1852">
        <ele>1591.12</ele>
        <time>2020-09-07T07:24:35Z</time>
      </trkpt>
      <trkpt lat="45.43983" lon="6.18527">
        <ele>1591.12</ele>
        <time>2020-09-07T07:24:51Z</time>
      </trkpt>
      <trkpt lat="45.43973" lon="6.1853">
        <ele>1591.6</ele>
        <time>2020-09-07T07:25:08Z</time>
      </trkpt>
      <trkpt lat="45.43962" lon="6.18536">
        <ele>1592.08</ele>
        <time>2020-09-07T07:25:22Z</time>
      </trkpt>
      <trkpt lat="45.4395" lon="6.1854">
        <ele>1592.56</ele>
        <time>2020-09-07T07:25:38Z</time>
      </trkpt>
      <trkpt lat="45.43943" lon="6.18543">
        <ele>1593.04</ele>
        <time>2020-09-07T07:25:46Z</time>
      </trkpt>
      <trkpt lat="45.43929" lon="6.18552">
        <ele>1593.52</ele>
        <time>2020-09-07T07:26:02Z</time>
      </trkpt>
      <trkpt lat="45.43908" lon="6.18562">
        <ele>1594.48</ele>
        <time>2020-09-07T07:26:21Z</time>
      </trkpt>
      <trkpt lat="45.43901" lon="6.18565">
        <ele>1594.48</ele>
        <time>2020-09-07T07:26:28Z</time>
      </trkpt>
      <trkpt lat="45.43885" lon="6.18572">
        <ele>1594.48</ele>
        <time>2020-09-07T07:26:45Z</time>
      </trkpt>
      <trkpt lat="45.43867" lon="6.1858">
        <ele>1594</ele>
        <time>2020-09-07T07:27:00Z</time>
      </trkpt>
      <trkpt lat="45.43852" lon="6.18589">
        <ele>1593.52</ele>
        <time>2020-09-07T07:27:17Z</time>
      </trkpt>
      <trkpt lat="45.43836" lon="6.18593">
        <ele>1593.52</ele>
        <time>2020-09-07T07:27:35Z</time>
      </trkpt>
      <trkpt lat="45.43816" lon="6.18591">
        <ele>1594.96</ele>
        <time>2020-09-07T07:27:56Z</time>
      </trkpt>
      <trkpt lat="45.43814" lon="6.18589">
        <ele>1594.96</ele>
        <time>2020-09-07T07:27:58Z</time>
      </trkpt>
      <trkpt lat="45.43799" lon="6.18588">
        <ele>1595.45</ele>
        <time>2020-09-07T07:28:12Z</time>
      </trkpt>
      <trkpt lat="45.43794" lon="6.18593">
        <ele>1595.93</ele>
        <time>2020-09-07T07:28:17Z</time>
      </trkpt>
      <trkpt lat="45.43793" lon="6.18594">
        <ele>1595.93</ele>
        <time>2020-09-07T07:28:18Z</time>
      </trkpt>
      <trkpt lat="45.43782" lon="6.18612">
        <ele>1596.41</ele>
        <time>2020-09-07T07:28:34Z</time>
      </trkpt>
      <trkpt lat="45.43765" lon="6.1863">
        <ele>1596.41</ele>
        <time>2020-09-07T07:28:55Z</time>
      </trkpt>
      <trkpt lat="45.43748" lon="6.18633">
        <ele>1596.89</ele>
        <time>2020-09-07T07:29:14Z</time>
      </trkpt>
      <trkpt lat="45.4373" lon="6.1863">
        <ele>1597.85</ele>
        <time>2020-09-07T07:29:31Z</time>
      </trkpt>
      <trkpt lat="45.43703" lon="6.18621">
        <ele>1599.29</ele>
        <time>2020-09-07T07:29:59Z</time>
      </trkpt>
      <trkpt lat="45.43687" lon="6.18615">
        <ele>1599.77</ele>
        <time>2020-09-07T07:30:13Z</time>
      </trkpt>
      <trkpt lat="45.4367" lon="6.18617">
        <ele>1599.77</ele>
        <time>2020-09-07T07:30:31Z</time>
      </trkpt>
      <trkpt lat="45.43658" lon="6.18615">
        <ele>1599.77</ele>
        <time>2020-09-07T07:30:41Z</time>
      </trkpt>
      <trkpt lat="45.43649" lon="6.18616">
        <ele>1599.77</ele>
        <time>2020-09-07T07:30:49Z</time>
      </trkpt>
      <trkpt lat="45.43634" lon="6.18612">
        <ele>1599.77</ele>
        <time>2020-09-07T07:31:02Z</time>
      </trkpt>
      <trkpt lat="45.43628" lon="6.18611">
        <ele>1598.81</ele>
        <time>2020-09-07T07:31:08Z</time>
      </trkpt>
      <trkpt lat="45.43627" lon="6.1861">
        <ele>1599.29</ele>
        <time>2020-09-07T07:31:09Z</time>
      </trkpt>
      <trkpt lat="45.43623" lon="6.18607">
        <ele>1596.89</ele>
        <time>2020-09-07T07:31:26Z</time>
      </trkpt>
      <trkpt lat="45.4361" lon="6.18603">
        <ele>1595.45</ele>
        <time>2020-09-07T07:31:38Z</time>
      </trkpt>
      <trkpt lat="45.43604" lon="6.186">
        <ele>1596.89</ele>
        <time>2020-09-07T07:31:53Z</time>
      </trkpt>
      <trkpt lat="45.436" lon="6.18599">
        <ele>1595.93</ele>
        <time>2020-09-07T07:32:06Z</time>
      </trkpt>
      <trkpt lat="45.436" lon="6.18598">
        <ele>1595.93</ele>
        <time>2020-09-07T07:32:22Z</time>
      </trkpt>
      <trkpt lat="45.43599" lon="6.18602">
        <ele>1595.45</ele>
        <time>2020-09-07T07:32:34Z</time>
      </trkpt>
      <trkpt lat="45.43596" lon="6.18602">
        <ele>1595.45</ele>
        <time>2020-09-07T07:32:37Z</time>
      </trkpt>
      <trkpt lat="45.43587" lon="6.18603">
        <ele>1595.93</ele>
        <time>2020-09-07T07:32:45Z</time>
      </trkpt>
      <trkpt lat="45.43586" lon="6.18603">
        <ele>1595.45</ele>
        <time>2020-09-07T07:32:46Z</time>
      </trkpt>
      <trkpt lat="45.43585" lon="6.18604">
        <ele>1595.45</ele>
        <time>2020-09-07T07:32:47Z</time>
      </trkpt>
      <trkpt lat="45.43584" lon="6.18604">
        <ele>1595.45</ele>
        <time>2020-09-07T07:32:48Z</time>
      </trkpt>
      <trkpt lat="45.43583" lon="6.18605">
        <ele>1595.45</ele>
        <time>2020-09-07T07:32:49Z</time>
      </trkpt>
      <trkpt lat="45.43575" lon="6.18609">
        <ele>1594.96</ele>
        <time>2020-09-07T07:32:57Z</time>
      </trkpt>
      <trkpt lat="45.43563" lon="6.18623">
        <ele>1594.96</ele>
        <time>2020-09-07T07:33:13Z</time>
      </trkpt>
      <trkpt lat="45.4356" lon="6.18637">
        <ele>1596.41</ele>
        <time>2020-09-07T07:33:24Z</time>
      </trkpt>
      <trkpt lat="45.43563" lon="6.1866">
        <ele>1598.81</ele>
        <time>2020-09-07T07:33:42Z</time>
      </trkpt>
      <trkpt lat="45.43566" lon="6.1868">
        <ele>1601.21</ele>
        <time>2020-09-07T07:33:58Z</time>
      </trkpt>
      <trkpt lat="45.43567" lon="6.18687">
        <ele>1602.17</ele>
        <time>2020-09-07T07:34:03Z</time>
      </trkpt>
      <trkpt lat="45.4357" lon="6.18705">
        <ele>1604.1</ele>
        <time>2020-09-07T07:34:19Z</time>
      </trkpt>
      <trkpt lat="45.43573" lon="6.18722">
        <ele>1604.58</ele>
        <time>2020-09-07T07:34:32Z</time>
      </trkpt>
      <trkpt lat="45.43573" lon="6.18751">
        <ele>1606.02</ele>
        <time>2020-09-07T07:34:49Z</time>
      </trkpt>
      <trkpt lat="45.43564" lon="6.18781">
        <ele>1606.02</ele>
        <time>2020-09-07T07:35:08Z</time>
      </trkpt>
      <trkpt lat="45.43553" lon="6.18812">
        <ele>1603.14</ele>
        <time>2020-09-07T07:35:30Z</time>
      </trkpt>
      <trkpt lat="45.43543" lon="6.18828">
        <ele>1600.25</ele>
        <time>2020-09-07T07:35:44Z</time>
      </trkpt>
      <trkpt lat="45.43542" lon="6.18829">
        <ele>1600.25</ele>
        <time>2020-09-07T07:35:45Z</time>
      </trkpt>
      <trkpt lat="45.43532" lon="6.18843">
        <ele>1597.37</ele>
        <time>2020-09-07T07:35:59Z</time>
      </trkpt>
      <trkpt lat="45.43519" lon="6.18859">
        <ele>1594.48</ele>
        <time>2020-09-07T07:36:14Z</time>
      </trkpt>
      <trkpt lat="45.43518" lon="6.1886">
        <ele>1594.48</ele>
        <time>2020-09-07T07:36:15Z</time>
      </trkpt>
      <trkpt lat="45.43513" lon="6.18874">
        <ele>1592.08</ele>
        <time>2020-09-07T07:36:26Z</time>
      </trkpt>
      <trkpt lat="45.43513" lon="6.18875">
        <ele>1592.08</ele>
        <time>2020-09-07T07:36:27Z</time>
      </trkpt>
      <trkpt lat="45.43511" lon="6.18887">
        <ele>1589.68</ele>
        <time>2020-09-07T07:36:36Z</time>
      </trkpt>
      <trkpt lat="45.43512" lon="6.18909">
        <ele>1586.79</ele>
        <time>2020-09-07T07:36:51Z</time>
      </trkpt>
      <trkpt lat="45.43509" lon="6.18931">
        <ele>1583.43</ele>
        <time>2020-09-07T07:37:06Z</time>
      </trkpt>
      <trkpt lat="45.43505" lon="6.18948">
        <ele>1581.03</ele>
        <time>2020-09-07T07:37:18Z</time>
      </trkpt>
      <trkpt lat="45.43505" lon="6.1895">
        <ele>1581.03</ele>
        <time>2020-09-07T07:37:19Z</time>
      </trkpt>
      <trkpt lat="45.43502" lon="6.18972">
        <ele>1577.66</ele>
        <time>2020-09-07T07:37:34Z</time>
      </trkpt>
      <trkpt lat="45.43501" lon="6.19">
        <ele>1574.3</ele>
        <time>2020-09-07T07:37:50Z</time>
      </trkpt>
      <trkpt lat="45.43509" lon="6.19029">
        <ele>1572.37</ele>
        <time>2020-09-07T07:38:10Z</time>
      </trkpt>
      <trkpt lat="45.43517" lon="6.19049">
        <ele>1572.85</ele>
        <time>2020-09-07T07:38:26Z</time>
      </trkpt>
      <trkpt lat="45.43517" lon="6.1905">
        <ele>1572.85</ele>
        <time>2020-09-07T07:38:27Z</time>
      </trkpt>
      <trkpt lat="45.43512" lon="6.19075">
        <ele>1573.82</ele>
        <time>2020-09-07T07:38:43Z</time>
      </trkpt>
      <trkpt lat="45.43504" lon="6.19094">
        <ele>1575.26</ele>
        <time>2020-09-07T07:39:00Z</time>
      </trkpt>
      <trkpt lat="45.43494" lon="6.19104">
        <ele>1577.18</ele>
        <time>2020-09-07T07:39:14Z</time>
      </trkpt>
      <trkpt lat="45.43485" lon="6.19122">
        <ele>1580.06</ele>
        <time>2020-09-07T07:39:32Z</time>
      </trkpt>
      <trkpt lat="45.43483" lon="6.19139">
        <ele>1581.99</ele>
        <time>2020-09-07T07:39:47Z</time>
      </trkpt>
      <trkpt lat="45.43482" lon="6.19159">
        <ele>1582.95</ele>
        <time>2020-09-07T07:40:04Z</time>
      </trkpt>
      <trkpt lat="45.43482" lon="6.1916">
        <ele>1582.95</ele>
        <time>2020-09-07T07:40:05Z</time>
      </trkpt>
      <trkpt lat="45.43482" lon="6.1916">
        <ele>1584.39</ele>
        <time>2020-09-07T07:40:18Z</time>
      </trkpt>
      <trkpt lat="45.43486" lon="6.19161">
        <ele>1584.39</ele>
        <time>2020-09-07T07:40:38Z</time>
      </trkpt>
      <trkpt lat="45.43479" lon="6.19166">
        <ele>1583.91</ele>
        <time>2020-09-07T07:40:57Z</time>
      </trkpt>
      <trkpt lat="45.43471" lon="6.19186">
        <ele>1583.43</ele>
        <time>2020-09-07T07:41:14Z</time>
      </trkpt>
      <trkpt lat="45.43462" lon="6.19203">
        <ele>1585.35</ele>
        <time>2020-09-07T07:41:30Z</time>
      </trkpt>
      <trkpt lat="45.43457" lon="6.19209">
        <ele>1584.87</ele>
        <time>2020-09-07T07:41:36Z</time>
      </trkpt>
      <trkpt lat="45.43456" lon="6.1921">
        <ele>1584.87</ele>
        <time>2020-09-07T07:41:37Z</time>
      </trkpt>
      <trkpt lat="45.43446" lon="6.1922">
        <ele>1584.39</ele>
        <time>2020-09-07T07:41:49Z</time>
      </trkpt>
      <trkpt lat="45.43425" lon="6.19225">
        <ele>1583.91</ele>
        <time>2020-09-07T07:42:05Z</time>
      </trkpt>
      <trkpt lat="45.43409" lon="6.19229">
        <ele>1582.95</ele>
        <time>2020-09-07T07:42:20Z</time>
      </trkpt>
      <trkpt lat="45.43391" lon="6.19225">
        <ele>1585.35</ele>
        <time>2020-09-07T07:42:37Z</time>
      </trkpt>
      <trkpt lat="45.43373" lon="6.19232">
        <ele>1586.79</ele>
        <time>2020-09-07T07:42:54Z</time>
      </trkpt>
      <trkpt lat="45.43362" lon="6.1925">
        <ele>1587.75</ele>
        <time>2020-09-07T07:43:10Z</time>
      </trkpt>
      <trkpt lat="45.43363" lon="6.19277">
        <ele>1587.27</ele>
        <time>2020-09-07T07:43:26Z</time>
      </trkpt>
      <trkpt lat="45.43361" lon="6.19306">
        <ele>1586.79</ele>
        <time>2020-09-07T07:43:44Z</time>
      </trkpt>
      <trkpt lat="45.43358" lon="6.19325">
        <ele>1586.79</ele>
        <time>2020-09-07T07:43:59Z</time>
      </trkpt>
      <trkpt lat="45.43356" lon="6.19338">
        <ele>1587.27</ele>
        <time>2020-09-07T07:44:12Z</time>
      </trkpt>
      <trkpt lat="45.43355" lon="6.19346">
        <ele>1587.75</ele>
        <time>2020-09-07T07:44:19Z</time>
      </trkpt>
      <trkpt lat="45.43351" lon="6.19366">
        <ele>1588.24</ele>
        <time>2020-09-07T07:44:34Z</time>
      </trkpt>
      <trkpt lat="45.4335" lon="6.19374">
        <ele>1588.24</ele>
        <time>2020-09-07T07:44:40Z</time>
      </trkpt>
      <trkpt lat="45.43344" lon="6.19393">
        <ele>1590.64</ele>
        <time>2020-09-07T07:44:56Z</time>
      </trkpt>
      <trkpt lat="45.43337" lon="6.19401">
        <ele>1592.08</ele>
        <time>2020-09-07T07:45:16Z</time>
      </trkpt>
      <trkpt lat="45.43323" lon="6.19412">
        <ele>1594.96</ele>
        <time>2020-09-07T07:45:33Z</time>
      </trkpt>
      <trkpt lat="45.43322" lon="6.19413">
        <ele>1594.96</ele>
        <time>2020-09-07T07:45:35Z</time>
      </trkpt>
      <trkpt lat="45.43311" lon="6.1943">
        <ele>1595.93</ele>
        <time>2020-09-07T07:45:51Z</time>
      </trkpt>
      <trkpt lat="45.43302" lon="6.19445">
        <ele>1594</ele>
        <time>2020-09-07T07:46:07Z</time>
      </trkpt>
      <trkpt lat="45.43296" lon="6.19456">
        <ele>1593.04</ele>
        <time>2020-09-07T07:46:22Z</time>
      </trkpt>
      <trkpt lat="45.43296" lon="6.19462">
        <ele>1593.04</ele>
        <time>2020-09-07T07:46:37Z</time>
      </trkpt>
      <trkpt lat="45.43293" lon="6.19461">
        <ele>1593.52</ele>
        <time>2020-09-07T07:46:53Z</time>
      </trkpt>
      <trkpt lat="45.43291" lon="6.19456">
        <ele>1592.56</ele>
        <time>2020-09-07T07:47:09Z</time>
      </trkpt>
      <trkpt lat="45.43282" lon="6.19467">
        <ele>1591.6</ele>
        <time>2020-09-07T07:47:31Z</time>
      </trkpt>
      <trkpt lat="45.43268" lon="6.19468">
        <ele>1591.6</ele>
        <time>2020-09-07T07:47:47Z</time>
      </trkpt>
      <trkpt lat="45.43257" lon="6.19467">
        <ele>1591.6</ele>
        <time>2020-09-07T07:48:02Z</time>
      </trkpt>
      <trkpt lat="45.43245" lon="6.19473">
        <ele>1593.04</ele>
        <time>2020-09-07T07:48:19Z</time>
      </trkpt>
      <trkpt lat="45.43241" lon="6.19474">
        <ele>1593.52</ele>
        <time>2020-09-07T07:48:24Z</time>
      </trkpt>
      <trkpt lat="45.43228" lon="6.19477">
        <ele>1594</ele>
        <time>2020-09-07T07:48:40Z</time>
      </trkpt>
      <trkpt lat="45.43216" lon="6.19484">
        <ele>1595.45</ele>
        <time>2020-09-07T07:49:02Z</time>
      </trkpt>
      <trkpt lat="45.43209" lon="6.19491">
        <ele>1598.81</ele>
        <time>2020-09-07T07:49:19Z</time>
      </trkpt>
      <trkpt lat="45.43205" lon="6.19499">
        <ele>1601.69</ele>
        <time>2020-09-07T07:49:34Z</time>
      </trkpt>
      <trkpt lat="45.432" lon="6.19505">
        <ele>1605.06</ele>
        <time>2020-09-07T07:49:49Z</time>
      </trkpt>
      <trkpt lat="45.43189" lon="6.19516">
        <ele>1606.5</ele>
        <time>2020-09-07T07:50:09Z</time>
      </trkpt>
      <trkpt lat="45.43183" lon="6.19525">
        <ele>1607.94</ele>
        <time>2020-09-07T07:50:24Z</time>
      </trkpt>
      <trkpt lat="45.43173" lon="6.19536">
        <ele>1609.38</ele>
        <time>2020-09-07T07:50:46Z</time>
      </trkpt>
      <trkpt lat="45.43168" lon="6.19542">
        <ele>1612.27</ele>
        <time>2020-09-07T07:51:01Z</time>
      </trkpt>
      <trkpt lat="45.43163" lon="6.19546">
        <ele>1615.63</ele>
        <time>2020-09-07T07:51:17Z</time>
      </trkpt>
      <trkpt lat="45.43162" lon="6.19553">
        <ele>1618.04</ele>
        <time>2020-09-07T07:51:37Z</time>
      </trkpt>
      <trkpt lat="45.43172" lon="6.19565">
        <ele>1620.92</ele>
        <time>2020-09-07T07:51:58Z</time>
      </trkpt>
      <trkpt lat="45.43181" lon="6.19569">
        <ele>1623.32</ele>
        <time>2020-09-07T07:52:13Z</time>
      </trkpt>
      <trkpt lat="45.43187" lon="6.19573">
        <ele>1626.21</ele>
        <time>2020-09-07T07:52:26Z</time>
      </trkpt>
      <trkpt lat="45.43195" lon="6.19575">
        <ele>1629.09</ele>
        <time>2020-09-07T07:52:41Z</time>
      </trkpt>
      <trkpt lat="45.43204" lon="6.19574">
        <ele>1631.49</ele>
        <time>2020-09-07T07:52:55Z</time>
      </trkpt>
      <trkpt lat="45.43213" lon="6.1957">
        <ele>1633.9</ele>
        <time>2020-09-07T07:53:11Z</time>
      </trkpt>
      <trkpt lat="45.43221" lon="6.19574">
        <ele>1636.3</ele>
        <time>2020-09-07T07:53:26Z</time>
      </trkpt>
      <trkpt lat="45.43228" lon="6.19574">
        <ele>1638.22</ele>
        <time>2020-09-07T07:53:40Z</time>
      </trkpt>
      <trkpt lat="45.43235" lon="6.19579">
        <ele>1639.67</ele>
        <time>2020-09-07T07:53:56Z</time>
      </trkpt>
      <trkpt lat="45.43235" lon="6.19582">
        <ele>1641.11</ele>
        <time>2020-09-07T07:53:59Z</time>
      </trkpt>
      <trkpt lat="45.43238" lon="6.19594">
        <ele>1642.55</ele>
        <time>2020-09-07T07:54:17Z</time>
      </trkpt>
      <trkpt lat="45.43242" lon="6.19607">
        <ele>1645.91</ele>
        <time>2020-09-07T07:54:35Z</time>
      </trkpt>
      <trkpt lat="45.43243" lon="6.19621">
        <ele>1648.8</ele>
        <time>2020-09-07T07:54:52Z</time>
      </trkpt>
      <trkpt lat="45.43245" lon="6.19633">
        <ele>1651.68</ele>
        <time>2020-09-07T07:55:09Z</time>
      </trkpt>
      <trkpt lat="45.43248" lon="6.19642">
        <ele>1654.57</ele>
        <time>2020-09-07T07:55:25Z</time>
      </trkpt>
      <trkpt lat="45.43251" lon="6.1965">
        <ele>1657.45</ele>
        <time>2020-09-07T07:55:41Z</time>
      </trkpt>
      <trkpt lat="45.43255" lon="6.19656">
        <ele>1660.81</ele>
        <time>2020-09-07T07:55:56Z</time>
      </trkpt>
      <trkpt lat="45.43259" lon="6.1966">
        <ele>1663.22</ele>
        <time>2020-09-07T07:56:10Z</time>
      </trkpt>
      <trkpt lat="45.43261" lon="6.19669">
        <ele>1666.1</ele>
        <time>2020-09-07T07:56:27Z</time>
      </trkpt>
      <trkpt lat="45.43266" lon="6.19676">
        <ele>1668.99</ele>
        <time>2020-09-07T07:56:44Z</time>
      </trkpt>
      <trkpt lat="45.43265" lon="6.19687">
        <ele>1671.87</ele>
        <time>2020-09-07T07:57:04Z</time>
      </trkpt>
      <trkpt lat="45.43266" lon="6.19694">
        <ele>1675.23</ele>
        <time>2020-09-07T07:57:21Z</time>
      </trkpt>
      <trkpt lat="45.43265" lon="6.19701">
        <ele>1676.68</ele>
        <time>2020-09-07T07:57:37Z</time>
      </trkpt>
      <trkpt lat="45.43266" lon="6.19706">
        <ele>1680.04</ele>
        <time>2020-09-07T07:57:52Z</time>
      </trkpt>
      <trkpt lat="45.43264" lon="6.19713">
        <ele>1682.44</ele>
        <time>2020-09-07T07:58:08Z</time>
      </trkpt>
      <trkpt lat="45.43264" lon="6.19718">
        <ele>1685.33</ele>
        <time>2020-09-07T07:58:23Z</time>
      </trkpt>
      <trkpt lat="45.43261" lon="6.19725">
        <ele>1688.21</ele>
        <time>2020-09-07T07:58:40Z</time>
      </trkpt>
      <trkpt lat="45.43261" lon="6.19731">
        <ele>1690.62</ele>
        <time>2020-09-07T07:58:54Z</time>
      </trkpt>
      <trkpt lat="45.4326" lon="6.19738">
        <ele>1693.5</ele>
        <time>2020-09-07T07:59:13Z</time>
      </trkpt>
      <trkpt lat="45.43254" lon="6.19742">
        <ele>1695.9</ele>
        <time>2020-09-07T07:59:26Z</time>
      </trkpt>
      <trkpt lat="45.43254" lon="6.19749">
        <ele>1698.31</ele>
        <time>2020-09-07T07:59:39Z</time>
      </trkpt>
      <trkpt lat="45.43252" lon="6.19757">
        <ele>1701.19</ele>
        <time>2020-09-07T07:59:53Z</time>
      </trkpt>
      <trkpt lat="45.43255" lon="6.19764">
        <ele>1703.59</ele>
        <time>2020-09-07T08:00:09Z</time>
      </trkpt>
      <trkpt lat="45.43258" lon="6.19769">
        <ele>1706.48</ele>
        <time>2020-09-07T08:00:23Z</time>
      </trkpt>
      <trkpt lat="45.4326" lon="6.19776">
        <ele>1708.4</ele>
        <time>2020-09-07T08:00:36Z</time>
      </trkpt>
      <trkpt lat="45.43264" lon="6.19781">
        <ele>1710.32</ele>
        <time>2020-09-07T08:00:51Z</time>
      </trkpt>
      <trkpt lat="45.43266" lon="6.1979">
        <ele>1712.73</ele>
        <time>2020-09-07T08:01:08Z</time>
      </trkpt>
      <trkpt lat="45.43266" lon="6.19799">
        <ele>1714.65</ele>
        <time>2020-09-07T08:01:23Z</time>
      </trkpt>
      <trkpt lat="45.43267" lon="6.19807">
        <ele>1717.53</ele>
        <time>2020-09-07T08:01:39Z</time>
      </trkpt>
      <trkpt lat="45.43269" lon="6.19813">
        <ele>1720.42</ele>
        <time>2020-09-07T08:01:54Z</time>
      </trkpt>
      <trkpt lat="45.43269" lon="6.19821">
        <ele>1723.3</ele>
        <time>2020-09-07T08:02:10Z</time>
      </trkpt>
      <trkpt lat="45.43271" lon="6.19825">
        <ele>1725.22</ele>
        <time>2020-09-07T08:02:25Z</time>
      </trkpt>
      <trkpt lat="45.43276" lon="6.19832">
        <ele>1728.11</ele>
        <time>2020-09-07T08:02:44Z</time>
      </trkpt>
      <trkpt lat="45.43282" lon="6.19835">
        <ele>1730.51</ele>
        <time>2020-09-07T08:03:01Z</time>
      </trkpt>
      <trkpt lat="45.43287" lon="6.19841">
        <ele>1733.39</ele>
        <time>2020-09-07T08:03:17Z</time>
      </trkpt>
      <trkpt lat="45.43289" lon="6.1985">
        <ele>1736.28</ele>
        <time>2020-09-07T08:03:36Z</time>
      </trkpt>
      <trkpt lat="45.43283" lon="6.19858">
        <ele>1739.16</ele>
        <time>2020-09-07T08:03:52Z</time>
      </trkpt>
      <trkpt lat="45.43281" lon="6.1986">
        <ele>1740.6</ele>
        <time>2020-09-07T08:04:10Z</time>
      </trkpt>
      <trkpt lat="45.43281" lon="6.19861">
        <ele>1740.6</ele>
        <time>2020-09-07T08:04:36Z</time>
      </trkpt>
      <trkpt lat="45.43281" lon="6.19861">
        <ele>1740.6</ele>
        <time>2020-09-07T08:05:07Z</time>
      </trkpt>
      <trkpt lat="45.4328" lon="6.19866">
        <ele>1740.6</ele>
        <time>2020-09-07T08:05:37Z</time>
      </trkpt>
      <trkpt lat="45.43274" lon="6.19871">
        <ele>1740.6</ele>
        <time>2020-09-07T08:05:52Z</time>
      </trkpt>
      <trkpt lat="45.43279" lon="6.19879">
        <ele>1740.6</ele>
        <time>2020-09-07T08:06:09Z</time>
      </trkpt>
      <trkpt lat="45.43277" lon="6.19881">
        <ele>1748.78</ele>
        <time>2020-09-07T08:06:13Z</time>
      </trkpt>
      <trkpt lat="45.43277" lon="6.19881">
        <ele>1748.78</ele>
        <time>2020-09-07T08:06:14Z</time>
      </trkpt>
      <trkpt lat="45.43276" lon="6.19888">
        <ele>1751.18</ele>
        <time>2020-09-07T08:06:30Z</time>
      </trkpt>
      <trkpt lat="45.43278" lon="6.19895">
        <ele>1753.58</ele>
        <time>2020-09-07T08:06:45Z</time>
      </trkpt>
      <trkpt lat="45.4327" lon="6.19903">
        <ele>1756.47</ele>
        <time>2020-09-07T08:07:01Z</time>
      </trkpt>
      <trkpt lat="45.43259" lon="6.19905">
        <ele>1759.35</ele>
        <time>2020-09-07T08:07:21Z</time>
      </trkpt>
      <trkpt lat="45.43255" lon="6.19909">
        <ele>1761.27</ele>
        <time>2020-09-07T08:07:35Z</time>
      </trkpt>
      <trkpt lat="45.4325" lon="6.1991">
        <ele>1764.64</ele>
        <time>2020-09-07T08:07:52Z</time>
      </trkpt>
      <trkpt lat="45.43244" lon="6.19908">
        <ele>1767.04</ele>
        <time>2020-09-07T08:08:07Z</time>
      </trkpt>
      <trkpt lat="45.43239" lon="6.19914">
        <ele>1769.44</ele>
        <time>2020-09-07T08:08:24Z</time>
      </trkpt>
      <trkpt lat="45.43239" lon="6.19921">
        <ele>1772.33</ele>
        <time>2020-09-07T08:08:38Z</time>
      </trkpt>
      <trkpt lat="45.43233" lon="6.19923">
        <ele>1775.21</ele>
        <time>2020-09-07T08:08:55Z</time>
      </trkpt>
      <trkpt lat="45.4323" lon="6.19927">
        <ele>1777.61</ele>
        <time>2020-09-07T08:09:09Z</time>
      </trkpt>
      <trkpt lat="45.43225" lon="6.19928">
        <ele>1780.02</ele>
        <time>2020-09-07T08:09:24Z</time>
      </trkpt>
      <trkpt lat="45.4322" lon="6.19926">
        <ele>1782.42</ele>
        <time>2020-09-07T08:09:40Z</time>
      </trkpt>
      <trkpt lat="45.43214" lon="6.19918">
        <ele>1785.79</ele>
        <time>2020-09-07T08:09:57Z</time>
      </trkpt>
      <trkpt lat="45.43203" lon="6.19909">
        <ele>1788.67</ele>
        <time>2020-09-07T08:10:14Z</time>
      </trkpt>
      <trkpt lat="45.43196" lon="6.19907">
        <ele>1791.55</ele>
        <time>2020-09-07T08:10:31Z</time>
      </trkpt>
      <trkpt lat="45.43189" lon="6.19899">
        <ele>1794.44</ele>
        <time>2020-09-07T08:10:48Z</time>
      </trkpt>
      <trkpt lat="45.43182" lon="6.19891">
        <ele>1797.32</ele>
        <time>2020-09-07T08:11:06Z</time>
      </trkpt>
      <trkpt lat="45.4318" lon="6.19884">
        <ele>1800.21</ele>
        <time>2020-09-07T08:11:23Z</time>
      </trkpt>
      <trkpt lat="45.43172" lon="6.19883">
        <ele>1803.57</ele>
        <time>2020-09-07T08:11:41Z</time>
      </trkpt>
      <trkpt lat="45.43163" lon="6.19885">
        <ele>1805.01</ele>
        <time>2020-09-07T08:11:55Z</time>
      </trkpt>
      <trkpt lat="45.43154" lon="6.19887">
        <ele>1804.53</ele>
        <time>2020-09-07T08:12:11Z</time>
      </trkpt>
      <trkpt lat="45.43153" lon="6.19887">
        <ele>1806.45</ele>
        <time>2020-09-07T08:12:17Z</time>
      </trkpt>
      <trkpt lat="45.43153" lon="6.19889">
        <ele>1807.42</ele>
        <time>2020-09-07T08:12:40Z</time>
      </trkpt>
      <trkpt lat="45.43153" lon="6.19889">
        <ele>1806.94</ele>
        <time>2020-09-07T08:13:05Z</time>
      </trkpt>
      <trkpt lat="45.43153" lon="6.19888">
        <ele>1806.94</ele>
        <time>2020-09-07T08:13:28Z</time>
      </trkpt>
      <trkpt lat="45.43152" lon="6.19888">
        <ele>1808.38</ele>
        <time>2020-09-07T08:13:31Z</time>
      </trkpt>
      <trkpt lat="45.43152" lon="6.19888">
        <ele>1806.94</ele>
        <time>2020-09-07T08:13:50Z</time>
      </trkpt>
      <trkpt lat="45.43142" lon="6.19889">
        <ele>1805.49</ele>
        <time>2020-09-07T08:14:06Z</time>
      </trkpt>
      <trkpt lat="45.43134" lon="6.19892">
        <ele>1803.57</ele>
        <time>2020-09-07T08:14:16Z</time>
      </trkpt>
      <trkpt lat="45.43132" lon="6.19893">
        <ele>1804.05</ele>
        <time>2020-09-07T08:14:18Z</time>
      </trkpt>
      <trkpt lat="45.43112" lon="6.19902">
        <ele>1804.05</ele>
        <time>2020-09-07T08:14:37Z</time>
      </trkpt>
      <trkpt lat="45.431" lon="6.19909">
        <ele>1804.53</ele>
        <time>2020-09-07T08:14:50Z</time>
      </trkpt>
      <trkpt lat="45.43098" lon="6.19913">
        <ele>1804.53</ele>
        <time>2020-09-07T08:14:54Z</time>
      </trkpt>
      <trkpt lat="45.4309" lon="6.19932">
        <ele>1804.53</ele>
        <time>2020-09-07T08:15:09Z</time>
      </trkpt>
      <trkpt lat="45.43083" lon="6.19959">
        <ele>1804.05</ele>
        <time>2020-09-07T08:15:28Z</time>
      </trkpt>
      <trkpt lat="45.43079" lon="6.19982">
        <ele>1805.97</ele>
        <time>2020-09-07T08:15:45Z</time>
      </trkpt>
      <trkpt lat="45.43081" lon="6.20009">
        <ele>1807.42</ele>
        <time>2020-09-07T08:16:03Z</time>
      </trkpt>
      <trkpt lat="45.43082" lon="6.20019">
        <ele>1807.9</ele>
        <time>2020-09-07T08:16:10Z</time>
      </trkpt>
      <trkpt lat="45.43082" lon="6.20036">
        <ele>1808.86</ele>
        <time>2020-09-07T08:16:23Z</time>
      </trkpt>
      <trkpt lat="45.43085" lon="6.20056">
        <ele>1808.86</ele>
        <time>2020-09-07T08:16:39Z</time>
      </trkpt>
      <trkpt lat="45.43085" lon="6.20059">
        <ele>1808.38</ele>
        <time>2020-09-07T08:16:55Z</time>
      </trkpt>
      <trkpt lat="45.43083" lon="6.20065">
        <ele>1808.38</ele>
        <time>2020-09-07T08:17:27Z</time>
      </trkpt>
      <trkpt lat="45.4308" lon="6.20076">
        <ele>1808.38</ele>
        <time>2020-09-07T08:17:44Z</time>
      </trkpt>
      <trkpt lat="45.43078" lon="6.20083">
        <ele>1808.38</ele>
        <time>2020-09-07T08:17:58Z</time>
      </trkpt>
      <trkpt lat="45.43077" lon="6.20093">
        <ele>1810.3</ele>
        <time>2020-09-07T08:18:11Z</time>
      </trkpt>
      <trkpt lat="45.43075" lon="6.20109">
        <ele>1811.26</ele>
        <time>2020-09-07T08:18:27Z</time>
      </trkpt>
      <trkpt lat="45.43064" lon="6.20114">
        <ele>1813.66</ele>
        <time>2020-09-07T08:18:44Z</time>
      </trkpt>
      <trkpt lat="45.43061" lon="6.20115">
        <ele>1814.63</ele>
        <time>2020-09-07T08:18:49Z</time>
      </trkpt>
      <trkpt lat="45.4306" lon="6.20115">
        <ele>1815.11</ele>
        <time>2020-09-07T08:18:50Z</time>
      </trkpt>
      <trkpt lat="45.43059" lon="6.20116">
        <ele>1815.11</ele>
        <time>2020-09-07T08:18:51Z</time>
      </trkpt>
      <trkpt lat="45.43057" lon="6.20116">
        <ele>1815.11</ele>
        <time>2020-09-07T08:18:53Z</time>
      </trkpt>
      <trkpt lat="45.43056" lon="6.20117">
        <ele>1815.59</ele>
        <time>2020-09-07T08:18:54Z</time>
      </trkpt>
      <trkpt lat="45.43041" lon="6.20126">
        <ele>1816.07</ele>
        <time>2020-09-07T08:19:11Z</time>
      </trkpt>
      <trkpt lat="45.4303" lon="6.20127">
        <ele>1817.99</ele>
        <time>2020-09-07T08:19:25Z</time>
      </trkpt>
      <trkpt lat="45.43023" lon="6.2013">
        <ele>1818.95</ele>
        <time>2020-09-07T08:19:33Z</time>
      </trkpt>
      <trkpt lat="45.43012" lon="6.2013">
        <ele>1819.91</ele>
        <time>2020-09-07T08:19:48Z</time>
      </trkpt>
      <trkpt lat="45.43004" lon="6.20133">
        <ele>1820.87</ele>
        <time>2020-09-07T08:19:57Z</time>
      </trkpt>
      <trkpt lat="45.42991" lon="6.20144">
        <ele>1821.84</ele>
        <time>2020-09-07T08:20:15Z</time>
      </trkpt>
      <trkpt lat="45.42978" lon="6.20157">
        <ele>1821.84</ele>
        <time>2020-09-07T08:20:32Z</time>
      </trkpt>
      <trkpt lat="45.42969" lon="6.20175">
        <ele>1822.8</ele>
        <time>2020-09-07T08:20:49Z</time>
      </trkpt>
      <trkpt lat="45.42964" lon="6.20182">
        <ele>1822.8</ele>
        <time>2020-09-07T08:20:56Z</time>
      </trkpt>
      <trkpt lat="45.42952" lon="6.20189">
        <ele>1824.72</ele>
        <time>2020-09-07T08:21:11Z</time>
      </trkpt>
      <trkpt lat="45.42937" lon="6.20197">
        <ele>1825.68</ele>
        <time>2020-09-07T08:21:29Z</time>
      </trkpt>
      <trkpt lat="45.42927" lon="6.20211">
        <ele>1828.56</ele>
        <time>2020-09-07T08:21:46Z</time>
      </trkpt>
      <trkpt lat="45.42923" lon="6.20223">
        <ele>1830.01</ele>
        <time>2020-09-07T08:21:55Z</time>
      </trkpt>
      <trkpt lat="45.42922" lon="6.20224">
        <ele>1830.01</ele>
        <time>2020-09-07T08:21:56Z</time>
      </trkpt>
      <trkpt lat="45.42922" lon="6.20226">
        <ele>1830.01</ele>
        <time>2020-09-07T08:21:57Z</time>
      </trkpt>
      <trkpt lat="45.42921" lon="6.20227">
        <ele>1830.01</ele>
        <time>2020-09-07T08:21:58Z</time>
      </trkpt>
      <trkpt lat="45.42921" lon="6.20229">
        <ele>1830.01</ele>
        <time>2020-09-07T08:21:59Z</time>
      </trkpt>
      <trkpt lat="45.42918" lon="6.20235">
        <ele>1830.01</ele>
        <time>2020-09-07T08:22:04Z</time>
      </trkpt>
      <trkpt lat="45.42905" lon="6.20254">
        <ele>1829.53</ele>
        <time>2020-09-07T08:22:21Z</time>
      </trkpt>
      <trkpt lat="45.42892" lon="6.20275">
        <ele>1830.01</ele>
        <time>2020-09-07T08:22:38Z</time>
      </trkpt>
      <trkpt lat="45.4288" lon="6.20297">
        <ele>1830.49</ele>
        <time>2020-09-07T08:22:56Z</time>
      </trkpt>
      <trkpt lat="45.42869" lon="6.20307">
        <ele>1830.01</ele>
        <time>2020-09-07T08:23:10Z</time>
      </trkpt>
      <trkpt lat="45.42862" lon="6.2031">
        <ele>1830.49</ele>
        <time>2020-09-07T08:23:18Z</time>
      </trkpt>
      <trkpt lat="45.42861" lon="6.20311">
        <ele>1830.97</ele>
        <time>2020-09-07T08:23:19Z</time>
      </trkpt>
      <trkpt lat="45.42846" lon="6.20323">
        <ele>1830.49</ele>
        <time>2020-09-07T08:23:37Z</time>
      </trkpt>
      <trkpt lat="45.42836" lon="6.2033">
        <ele>1827.6</ele>
        <time>2020-09-07T08:23:53Z</time>
      </trkpt>
      <trkpt lat="45.42834" lon="6.20328">
        <ele>1827.12</ele>
        <time>2020-09-07T08:23:56Z</time>
      </trkpt>
      <trkpt lat="45.42826" lon="6.20327">
        <ele>1827.6</ele>
        <time>2020-09-07T08:24:05Z</time>
      </trkpt>
      <trkpt lat="45.42809" lon="6.2033">
        <ele>1829.05</ele>
        <time>2020-09-07T08:24:23Z</time>
      </trkpt>
      <trkpt lat="45.42796" lon="6.2033">
        <ele>1829.05</ele>
        <time>2020-09-07T08:24:40Z</time>
      </trkpt>
      <trkpt lat="45.4279" lon="6.20332">
        <ele>1830.01</ele>
        <time>2020-09-07T08:24:48Z</time>
      </trkpt>
      <trkpt lat="45.42777" lon="6.20339">
        <ele>1830.49</ele>
        <time>2020-09-07T08:25:07Z</time>
      </trkpt>
      <trkpt lat="45.42764" lon="6.20346">
        <ele>1832.41</ele>
        <time>2020-09-07T08:25:26Z</time>
      </trkpt>
      <trkpt lat="45.42752" lon="6.20351">
        <ele>1833.85</ele>
        <time>2020-09-07T08:25:42Z</time>
      </trkpt>
      <trkpt lat="45.42742" lon="6.20353">
        <ele>1835.29</ele>
        <time>2020-09-07T08:25:59Z</time>
      </trkpt>
      <trkpt lat="45.42735" lon="6.20357">
        <ele>1835.77</ele>
        <time>2020-09-07T08:26:13Z</time>
      </trkpt>
      <trkpt lat="45.42729" lon="6.20366">
        <ele>1836.74</ele>
        <time>2020-09-07T08:26:28Z</time>
      </trkpt>
      <trkpt lat="45.42724" lon="6.20369">
        <ele>1837.7</ele>
        <time>2020-09-07T08:26:40Z</time>
      </trkpt>
      <trkpt lat="45.42714" lon="6.20373">
        <ele>1838.66</ele>
        <time>2020-09-07T08:26:56Z</time>
      </trkpt>
      <trkpt lat="45.42715" lon="6.20372">
        <ele>1838.18</ele>
        <time>2020-09-07T08:27:14Z</time>
      </trkpt>
      <trkpt lat="45.42716" lon="6.20372">
        <ele>1838.18</ele>
        <time>2020-09-07T08:27:43Z</time>
      </trkpt>
      <trkpt lat="45.42715" lon="6.20373">
        <ele>1838.18</ele>
        <time>2020-09-07T08:28:15Z</time>
      </trkpt>
      <trkpt lat="45.42715" lon="6.20374">
        <ele>1837.7</ele>
        <time>2020-09-07T08:28:48Z</time>
      </trkpt>
      <trkpt lat="45.42715" lon="6.20375">
        <ele>1837.7</ele>
        <time>2020-09-07T08:29:14Z</time>
      </trkpt>
      <trkpt lat="45.42719" lon="6.20378">
        <ele>1839.14</ele>
        <time>2020-09-07T08:29:23Z</time>
      </trkpt>
      <trkpt lat="45.42727" lon="6.20387">
        <ele>1841.54</ele>
        <time>2020-09-07T08:29:42Z</time>
      </trkpt>
      <trkpt lat="45.4273" lon="6.20401">
        <ele>1843.95</ele>
        <time>2020-09-07T08:30:00Z</time>
      </trkpt>
      <trkpt lat="45.42718" lon="6.20402">
        <ele>1846.83</ele>
        <time>2020-09-07T08:30:16Z</time>
      </trkpt>
      <trkpt lat="45.42714" lon="6.20403">
        <ele>1847.31</ele>
        <time>2020-09-07T08:30:20Z</time>
      </trkpt>
      <trkpt lat="45.42697" lon="6.20398">
        <ele>1848.75</ele>
        <time>2020-09-07T08:30:38Z</time>
      </trkpt>
      <trkpt lat="45.42683" lon="6.20397">
        <ele>1850.19</ele>
        <time>2020-09-07T08:30:55Z</time>
      </trkpt>
      <trkpt lat="45.42669" lon="6.20397">
        <ele>1851.64</ele>
        <time>2020-09-07T08:31:10Z</time>
      </trkpt>
      <trkpt lat="45.42666" lon="6.20398">
        <ele>1852.12</ele>
        <time>2020-09-07T08:31:14Z</time>
      </trkpt>
      <trkpt lat="45.42652" lon="6.20404">
        <ele>1853.56</ele>
        <time>2020-09-07T08:31:29Z</time>
      </trkpt>
      <trkpt lat="45.42637" lon="6.20411">
        <ele>1855.48</ele>
        <time>2020-09-07T08:31:47Z</time>
      </trkpt>
      <trkpt lat="45.42633" lon="6.20414">
        <ele>1855.96</ele>
        <time>2020-09-07T08:31:52Z</time>
      </trkpt>
      <trkpt lat="45.42622" lon="6.20423">
        <ele>1858.85</ele>
        <time>2020-09-07T08:32:08Z</time>
      </trkpt>
      <trkpt lat="45.42616" lon="6.20426">
        <ele>1859.81</ele>
        <time>2020-09-07T08:32:16Z</time>
      </trkpt>
      <trkpt lat="45.42604" lon="6.20426">
        <ele>1861.73</ele>
        <time>2020-09-07T08:32:33Z</time>
      </trkpt>
      <trkpt lat="45.42592" lon="6.20427">
        <ele>1864.61</ele>
        <time>2020-09-07T08:32:48Z</time>
      </trkpt>
      <trkpt lat="45.42579" lon="6.20436">
        <ele>1865.58</ele>
        <time>2020-09-07T08:33:06Z</time>
      </trkpt>
      <trkpt lat="45.42579" lon="6.20451">
        <ele>1868.46</ele>
        <time>2020-09-07T08:33:24Z</time>
      </trkpt>
      <trkpt lat="45.4258" lon="6.20458">
        <ele>1869.9</ele>
        <time>2020-09-07T08:33:32Z</time>
      </trkpt>
      <trkpt lat="45.42579" lon="6.20473">
        <ele>1870.86</ele>
        <time>2020-09-07T08:33:47Z</time>
      </trkpt>
      <trkpt lat="45.42581" lon="6.20477">
        <ele>1870.38</ele>
        <time>2020-09-07T08:33:51Z</time>
      </trkpt>
      <trkpt lat="45.42587" lon="6.20486">
        <ele>1867.98</ele>
        <time>2020-09-07T08:34:01Z</time>
      </trkpt>
      <trkpt lat="45.42593" lon="6.20504">
        <ele>1865.09</ele>
        <time>2020-09-07T08:34:15Z</time>
      </trkpt>
      <trkpt lat="45.42603" lon="6.2053">
        <ele>1862.21</ele>
        <time>2020-09-07T08:34:36Z</time>
      </trkpt>
      <trkpt lat="45.42605" lon="6.20534">
        <ele>1862.21</ele>
        <time>2020-09-07T08:34:39Z</time>
      </trkpt>
      <trkpt lat="45.42605" lon="6.20539">
        <ele>1862.21</ele>
        <time>2020-09-07T08:34:42Z</time>
      </trkpt>
      <trkpt lat="45.42612" lon="6.20564">
        <ele>1860.29</ele>
        <time>2020-09-07T08:35:00Z</time>
      </trkpt>
      <trkpt lat="45.42611" lon="6.20579">
        <ele>1860.77</ele>
        <time>2020-09-07T08:35:10Z</time>
      </trkpt>
      <trkpt lat="45.42611" lon="6.20583">
        <ele>1860.77</ele>
        <time>2020-09-07T08:35:13Z</time>
      </trkpt>
      <trkpt lat="45.42615" lon="6.20605">
        <ele>1861.25</ele>
        <time>2020-09-07T08:35:29Z</time>
      </trkpt>
      <trkpt lat="45.42615" lon="6.20613">
        <ele>1861.73</ele>
        <time>2020-09-07T08:35:34Z</time>
      </trkpt>
      <trkpt lat="45.42617" lon="6.20638">
        <ele>1862.21</ele>
        <time>2020-09-07T08:35:52Z</time>
      </trkpt>
      <trkpt lat="45.42624" lon="6.2065">
        <ele>1863.65</ele>
        <time>2020-09-07T08:36:05Z</time>
      </trkpt>
      <trkpt lat="45.42628" lon="6.20661">
        <ele>1865.09</ele>
        <time>2020-09-07T08:36:15Z</time>
      </trkpt>
      <trkpt lat="45.42636" lon="6.20673">
        <ele>1867.98</ele>
        <time>2020-09-07T08:36:30Z</time>
      </trkpt>
      <trkpt lat="45.42644" lon="6.20688">
        <ele>1870.38</ele>
        <time>2020-09-07T08:36:47Z</time>
      </trkpt>
      <trkpt lat="45.42652" lon="6.207">
        <ele>1873.75</ele>
        <time>2020-09-07T08:37:05Z</time>
      </trkpt>
      <trkpt lat="45.4266" lon="6.20714">
        <ele>1876.63</ele>
        <time>2020-09-07T08:37:22Z</time>
      </trkpt>
      <trkpt lat="45.42668" lon="6.20725">
        <ele>1880</ele>
        <time>2020-09-07T08:37:38Z</time>
      </trkpt>
      <trkpt lat="45.4267" lon="6.20727">
        <ele>1880.48</ele>
        <time>2020-09-07T08:37:42Z</time>
      </trkpt>
      <trkpt lat="45.42672" lon="6.20728">
        <ele>1881.44</ele>
        <time>2020-09-07T08:37:45Z</time>
      </trkpt>
      <trkpt lat="45.42678" lon="6.20741">
        <ele>1883.84</ele>
        <time>2020-09-07T08:37:59Z</time>
      </trkpt>
      <trkpt lat="45.42684" lon="6.20754">
        <ele>1885.28</ele>
        <time>2020-09-07T08:38:13Z</time>
      </trkpt>
      <trkpt lat="45.42689" lon="6.20764">
        <ele>1886.72</ele>
        <time>2020-09-07T08:38:22Z</time>
      </trkpt>
      <trkpt lat="45.42692" lon="6.20768">
        <ele>1887.21</ele>
        <time>2020-09-07T08:38:27Z</time>
      </trkpt>
      <trkpt lat="45.42703" lon="6.2078">
        <ele>1887.21</ele>
        <time>2020-09-07T08:38:40Z</time>
      </trkpt>
      <trkpt lat="45.42706" lon="6.20785">
        <ele>1887.69</ele>
        <time>2020-09-07T08:38:45Z</time>
      </trkpt>
      <trkpt lat="45.42707" lon="6.20786">
        <ele>1887.69</ele>
        <time>2020-09-07T08:38:46Z</time>
      </trkpt>
      <trkpt lat="45.42719" lon="6.20792">
        <ele>1888.17</ele>
        <time>2020-09-07T08:39:01Z</time>
      </trkpt>
      <trkpt lat="45.42726" lon="6.20809">
        <ele>1890.09</ele>
        <time>2020-09-07T08:39:16Z</time>
      </trkpt>
      <trkpt lat="45.42727" lon="6.20835">
        <ele>1890.57</ele>
        <time>2020-09-07T08:39:35Z</time>
      </trkpt>
      <trkpt lat="45.42728" lon="6.20856">
        <ele>1891.05</ele>
        <time>2020-09-07T08:39:50Z</time>
      </trkpt>
      <trkpt lat="45.42729" lon="6.20874">
        <ele>1892.97</ele>
        <time>2020-09-07T08:40:06Z</time>
      </trkpt>
      <trkpt lat="45.4273" lon="6.20888">
        <ele>1894.9</ele>
        <time>2020-09-07T08:40:18Z</time>
      </trkpt>
      <trkpt lat="45.42731" lon="6.20902">
        <ele>1897.3</ele>
        <time>2020-09-07T08:40:31Z</time>
      </trkpt>
      <trkpt lat="45.42731" lon="6.20904">
        <ele>1897.3</ele>
        <time>2020-09-07T08:40:32Z</time>
      </trkpt>
      <trkpt lat="45.42737" lon="6.20917">
        <ele>1898.74</ele>
        <time>2020-09-07T08:40:45Z</time>
      </trkpt>
      <trkpt lat="45.42739" lon="6.20921">
        <ele>1899.22</ele>
        <time>2020-09-07T08:40:49Z</time>
      </trkpt>
      <trkpt lat="45.42745" lon="6.20937">
        <ele>1900.66</ele>
        <time>2020-09-07T08:41:04Z</time>
      </trkpt>
      <trkpt lat="45.4275" lon="6.20951">
        <ele>1903.55</ele>
        <time>2020-09-07T08:41:20Z</time>
      </trkpt>
      <trkpt lat="45.42754" lon="6.20963">
        <ele>1906.43</ele>
        <time>2020-09-07T08:41:36Z</time>
      </trkpt>
      <trkpt lat="45.42756" lon="6.20976">
        <ele>1909.8</ele>
        <time>2020-09-07T08:41:51Z</time>
      </trkpt>
      <trkpt lat="45.42762" lon="6.20995">
        <ele>1912.68</ele>
        <time>2020-09-07T08:42:12Z</time>
      </trkpt>
      <trkpt lat="45.42766" lon="6.21004">
        <ele>1914.6</ele>
        <time>2020-09-07T08:42:29Z</time>
      </trkpt>
      <trkpt lat="45.4277" lon="6.21015">
        <ele>1917.97</ele>
        <time>2020-09-07T08:42:47Z</time>
      </trkpt>
      <trkpt lat="45.42773" lon="6.21024">
        <ele>1920.85</ele>
        <time>2020-09-07T08:43:03Z</time>
      </trkpt>
      <trkpt lat="45.42774" lon="6.21033">
        <ele>1924.22</ele>
        <time>2020-09-07T08:43:19Z</time>
      </trkpt>
      <trkpt lat="45.42773" lon="6.21046">
        <ele>1927.58</ele>
        <time>2020-09-07T08:43:36Z</time>
      </trkpt>
      <trkpt lat="45.4277" lon="6.21058">
        <ele>1929.98</ele>
        <time>2020-09-07T08:43:53Z</time>
      </trkpt>
      <trkpt lat="45.42777" lon="6.21059">
        <ele>1932.39</ele>
        <time>2020-09-07T08:44:07Z</time>
      </trkpt>
      <trkpt lat="45.42784" lon="6.21062">
        <ele>1935.27</ele>
        <time>2020-09-07T08:44:21Z</time>
      </trkpt>
      <trkpt lat="45.42784" lon="6.2107">
        <ele>1938.64</ele>
        <time>2020-09-07T08:44:39Z</time>
      </trkpt>
      <trkpt lat="45.42784" lon="6.21083">
        <ele>1941.04</ele>
        <time>2020-09-07T08:44:55Z</time>
      </trkpt>
      <trkpt lat="45.42784" lon="6.21091">
        <ele>1943.44</ele>
        <time>2020-09-07T08:45:12Z</time>
      </trkpt>
      <trkpt lat="45.42782" lon="6.21102">
        <ele>1946.33</ele>
        <time>2020-09-07T08:45:27Z</time>
      </trkpt>
      <trkpt lat="45.42785" lon="6.21109">
        <ele>1949.21</ele>
        <time>2020-09-07T08:45:41Z</time>
      </trkpt>
      <trkpt lat="45.42785" lon="6.21117">
        <ele>1952.09</ele>
        <time>2020-09-07T08:45:57Z</time>
      </trkpt>
      <trkpt lat="45.42794" lon="6.21117">
        <ele>1954.02</ele>
        <time>2020-09-07T08:46:11Z</time>
      </trkpt>
      <trkpt lat="45.42795" lon="6.21124">
        <ele>1955.94</ele>
        <time>2020-09-07T08:46:23Z</time>
      </trkpt>
      <trkpt lat="45.42798" lon="6.21134">
        <ele>1958.34</ele>
        <time>2020-09-07T08:46:38Z</time>
      </trkpt>
      <trkpt lat="45.42802" lon="6.21136">
        <ele>1961.23</ele>
        <time>2020-09-07T08:46:58Z</time>
      </trkpt>
      <trkpt lat="45.42798" lon="6.21139">
        <ele>1961.23</ele>
        <time>2020-09-07T08:47:18Z</time>
      </trkpt>
      <trkpt lat="45.42791" lon="6.2114">
        <ele>1961.71</ele>
        <time>2020-09-07T08:47:27Z</time>
      </trkpt>
      <trkpt lat="45.42778" lon="6.21134">
        <ele>1961.23</ele>
        <time>2020-09-07T08:47:43Z</time>
      </trkpt>
      <trkpt lat="45.42769" lon="6.21138">
        <ele>1962.67</ele>
        <time>2020-09-07T08:48:01Z</time>
      </trkpt>
      <trkpt lat="45.42766" lon="6.21136">
        <ele>1962.67</ele>
        <time>2020-09-07T08:48:04Z</time>
      </trkpt>
      <trkpt lat="45.42755" lon="6.21131">
        <ele>1963.63</ele>
        <time>2020-09-07T08:48:22Z</time>
      </trkpt>
      <trkpt lat="45.42753" lon="6.21128">
        <ele>1963.63</ele>
        <time>2020-09-07T08:48:25Z</time>
      </trkpt>
      <trkpt lat="45.42743" lon="6.21124">
        <ele>1965.07</ele>
        <time>2020-09-07T08:48:38Z</time>
      </trkpt>
      <trkpt lat="45.4274" lon="6.21123">
        <ele>1966.03</ele>
        <time>2020-09-07T08:48:41Z</time>
      </trkpt>
      <trkpt lat="45.42729" lon="6.21123">
        <ele>1967.96</ele>
        <time>2020-09-07T08:48:56Z</time>
      </trkpt>
      <trkpt lat="45.42721" lon="6.21124">
        <ele>1968.44</ele>
        <time>2020-09-07T08:49:10Z</time>
      </trkpt>
      <trkpt lat="45.42715" lon="6.21127">
        <ele>1967.48</ele>
        <time>2020-09-07T08:49:17Z</time>
      </trkpt>
      <trkpt lat="45.42711" lon="6.21129">
        <ele>1966.99</ele>
        <time>2020-09-07T08:49:22Z</time>
      </trkpt>
      <trkpt lat="45.42705" lon="6.21133">
        <ele>1966.99</ele>
        <time>2020-09-07T08:49:37Z</time>
      </trkpt>
      <trkpt lat="45.42701" lon="6.21131">
        <ele>1967.48</ele>
        <time>2020-09-07T08:49:51Z</time>
      </trkpt>
      <trkpt lat="45.42695" lon="6.21129">
        <ele>1966.51</ele>
        <time>2020-09-07T08:50:00Z</time>
      </trkpt>
      <trkpt lat="45.42685" lon="6.21133">
        <ele>1966.03</ele>
        <time>2020-09-07T08:50:15Z</time>
      </trkpt>
      <trkpt lat="45.42677" lon="6.21133">
        <ele>1969.4</ele>
        <time>2020-09-07T08:50:33Z</time>
      </trkpt>
      <trkpt lat="45.42672" lon="6.21136">
        <ele>1972.28</ele>
        <time>2020-09-07T08:50:48Z</time>
      </trkpt>
      <trkpt lat="45.42667" lon="6.21137">
        <ele>1975.17</ele>
        <time>2020-09-07T08:51:03Z</time>
      </trkpt>
      <trkpt lat="45.4266" lon="6.2114">
        <ele>1978.53</ele>
        <time>2020-09-07T08:51:22Z</time>
      </trkpt>
      <trkpt lat="45.42655" lon="6.21144">
        <ele>1981.41</ele>
        <time>2020-09-07T08:51:41Z</time>
      </trkpt>
      <trkpt lat="45.42649" lon="6.21142">
        <ele>1983.82</ele>
        <time>2020-09-07T08:51:55Z</time>
      </trkpt>
      <trkpt lat="45.42644" lon="6.21143">
        <ele>1986.7</ele>
        <time>2020-09-07T08:52:11Z</time>
      </trkpt>
      <trkpt lat="45.42638" lon="6.21145">
        <ele>1989.59</ele>
        <time>2020-09-07T08:52:31Z</time>
      </trkpt>
      <trkpt lat="45.42638" lon="6.21149">
        <ele>1991.99</ele>
        <time>2020-09-07T08:52:47Z</time>
      </trkpt>
      <trkpt lat="45.42634" lon="6.21155">
        <ele>1995.35</ele>
        <time>2020-09-07T08:53:08Z</time>
      </trkpt>
      <trkpt lat="45.42629" lon="6.21158">
        <ele>1997.76</ele>
        <time>2020-09-07T08:53:23Z</time>
      </trkpt>
      <trkpt lat="45.42622" lon="6.21162">
        <ele>1999.2</ele>
        <time>2020-09-07T08:53:41Z</time>
      </trkpt>
      <trkpt lat="45.42616" lon="6.21169">
        <ele>2001.6</ele>
        <time>2020-09-07T08:53:59Z</time>
      </trkpt>
      <trkpt lat="45.42613" lon="6.21178">
        <ele>2004.01</ele>
        <time>2020-09-07T08:54:16Z</time>
      </trkpt>
      <trkpt lat="45.42606" lon="6.21185">
        <ele>2006.41</ele>
        <time>2020-09-07T08:54:34Z</time>
      </trkpt>
      <trkpt lat="45.42602" lon="6.21193">
        <ele>2008.81</ele>
        <time>2020-09-07T08:54:48Z</time>
      </trkpt>
      <trkpt lat="45.42599" lon="6.212">
        <ele>2011.7</ele>
        <time>2020-09-07T08:55:04Z</time>
      </trkpt>
      <trkpt lat="45.42594" lon="6.21212">
        <ele>2014.1</ele>
        <time>2020-09-07T08:55:24Z</time>
      </trkpt>
      <trkpt lat="45.42593" lon="6.21221">
        <ele>2017.46</ele>
        <time>2020-09-07T08:55:41Z</time>
      </trkpt>
      <trkpt lat="45.42589" lon="6.21229">
        <ele>2020.83</ele>
        <time>2020-09-07T08:55:57Z</time>
      </trkpt>
      <trkpt lat="45.42584" lon="6.21239">
        <ele>2023.23</ele>
        <time>2020-09-07T08:56:16Z</time>
      </trkpt>
      <trkpt lat="45.42574" lon="6.21249">
        <ele>2026.6</ele>
        <time>2020-09-07T08:56:35Z</time>
      </trkpt>
      <trkpt lat="45.42566" lon="6.21253">
        <ele>2029.48</ele>
        <time>2020-09-07T08:56:50Z</time>
      </trkpt>
      <trkpt lat="45.42565" lon="6.21253">
        <ele>2029.96</ele>
        <time>2020-09-07T08:56:52Z</time>
      </trkpt>
      <trkpt lat="45.42557" lon="6.2126">
        <ele>2032.84</ele>
        <time>2020-09-07T08:57:08Z</time>
      </trkpt>
      <trkpt lat="45.42551" lon="6.2127">
        <ele>2034.29</ele>
        <time>2020-09-07T08:57:25Z</time>
      </trkpt>
      <trkpt lat="45.42536" lon="6.21281">
        <ele>2037.17</ele>
        <time>2020-09-07T08:57:49Z</time>
      </trkpt>
      <trkpt lat="45.42527" lon="6.21289">
        <ele>2040.05</ele>
        <time>2020-09-07T08:58:08Z</time>
      </trkpt>
      <trkpt lat="45.42519" lon="6.21292">
        <ele>2042.94</ele>
        <time>2020-09-07T08:58:25Z</time>
      </trkpt>
      <trkpt lat="45.42511" lon="6.21297">
        <ele>2044.86</ele>
        <time>2020-09-07T08:58:42Z</time>
      </trkpt>
      <trkpt lat="45.42506" lon="6.21302">
        <ele>2048.23</ele>
        <time>2020-09-07T08:59:01Z</time>
      </trkpt>
      <trkpt lat="45.42504" lon="6.21307">
        <ele>2051.11</ele>
        <time>2020-09-07T08:59:18Z</time>
      </trkpt>
      <trkpt lat="45.42499" lon="6.21313">
        <ele>2053.99</ele>
        <time>2020-09-07T08:59:43Z</time>
      </trkpt>
      <trkpt lat="45.42497" lon="6.21312">
        <ele>2056.4</ele>
        <time>2020-09-07T09:00:06Z</time>
      </trkpt>
      <trkpt lat="45.42498" lon="6.21319">
        <ele>2058.32</ele>
        <time>2020-09-07T09:00:28Z</time>
      </trkpt>
      <trkpt lat="45.42497" lon="6.21327">
        <ele>2061.2</ele>
        <time>2020-09-07T09:00:49Z</time>
      </trkpt>
      <trkpt lat="45.42497" lon="6.2133">
        <ele>2063.61</ele>
        <time>2020-09-07T09:01:11Z</time>
      </trkpt>
      <trkpt lat="45.42494" lon="6.21327">
        <ele>2065.05</ele>
        <time>2020-09-07T09:01:19Z</time>
      </trkpt>
      <trkpt lat="45.42494" lon="6.2133">
        <ele>2066.01</ele>
        <time>2020-09-07T09:01:23Z</time>
      </trkpt>
      <trkpt lat="45.42493" lon="6.21334">
        <ele>2067.45</ele>
        <time>2020-09-07T09:01:45Z</time>
      </trkpt>
      <trkpt lat="45.42496" lon="6.21336">
        <ele>2069.86</ele>
        <time>2020-09-07T09:02:02Z</time>
      </trkpt>
      <trkpt lat="45.42498" lon="6.21337">
        <ele>2070.82</ele>
        <time>2020-09-07T09:02:19Z</time>
      </trkpt>
      <trkpt lat="45.42499" lon="6.21336">
        <ele>2072.26</ele>
        <time>2020-09-07T09:02:31Z</time>
      </trkpt>
      <trkpt lat="45.42502" lon="6.21339">
        <ele>2074.66</ele>
        <time>2020-09-07T09:02:52Z</time>
      </trkpt>
      <trkpt lat="45.42504" lon="6.2134">
        <ele>2076.59</ele>
        <time>2020-09-07T09:03:08Z</time>
      </trkpt>
      <trkpt lat="45.42502" lon="6.21347">
        <ele>2079.47</ele>
        <time>2020-09-07T09:03:25Z</time>
      </trkpt>
      <trkpt lat="45.42502" lon="6.21351">
        <ele>2080.91</ele>
        <time>2020-09-07T09:03:39Z</time>
      </trkpt>
      <trkpt lat="45.42501" lon="6.21357">
        <ele>2082.83</ele>
        <time>2020-09-07T09:03:59Z</time>
      </trkpt>
      <trkpt lat="45.42501" lon="6.21364">
        <ele>2085.72</ele>
        <time>2020-09-07T09:04:15Z</time>
      </trkpt>
      <trkpt lat="45.42502" lon="6.21365">
        <ele>2087.16</ele>
        <time>2020-09-07T09:04:28Z</time>
      </trkpt>
      <trkpt lat="45.42502" lon="6.21372">
        <ele>2089.56</ele>
        <time>2020-09-07T09:04:45Z</time>
      </trkpt>
      <trkpt lat="45.42502" lon="6.21375">
        <ele>2092.45</ele>
        <time>2020-09-07T09:05:00Z</time>
      </trkpt>
      <trkpt lat="45.42504" lon="6.21379">
        <ele>2094.37</ele>
        <time>2020-09-07T09:05:17Z</time>
      </trkpt>
      <trkpt lat="45.42502" lon="6.21386">
        <ele>2097.73</ele>
        <time>2020-09-07T09:05:32Z</time>
      </trkpt>
      <trkpt lat="45.42503" lon="6.21392">
        <ele>2100.14</ele>
        <time>2020-09-07T09:05:49Z</time>
      </trkpt>
      <trkpt lat="45.42505" lon="6.21399">
        <ele>2102.06</ele>
        <time>2020-09-07T09:06:06Z</time>
      </trkpt>
      <trkpt lat="45.42502" lon="6.2141">
        <ele>2104.94</ele>
        <time>2020-09-07T09:06:22Z</time>
      </trkpt>
      <trkpt lat="45.42502" lon="6.21421">
        <ele>2107.35</ele>
        <time>2020-09-07T09:06:41Z</time>
      </trkpt>
      <trkpt lat="45.42502" lon="6.21434">
        <ele>2110.23</ele>
        <time>2020-09-07T09:07:01Z</time>
      </trkpt>
      <trkpt lat="45.42498" lon="6.21443">
        <ele>2112.15</ele>
        <time>2020-09-07T09:07:25Z</time>
      </trkpt>
      <trkpt lat="45.42495" lon="6.21449">
        <ele>2115.04</ele>
        <time>2020-09-07T09:07:41Z</time>
      </trkpt>
      <trkpt lat="45.42491" lon="6.2146">
        <ele>2117.44</ele>
        <time>2020-09-07T09:08:00Z</time>
      </trkpt>
      <trkpt lat="45.42487" lon="6.2147">
        <ele>2120.81</ele>
        <time>2020-09-07T09:08:18Z</time>
      </trkpt>
      <trkpt lat="45.42483" lon="6.2148">
        <ele>2123.69</ele>
        <time>2020-09-07T09:08:41Z</time>
      </trkpt>
      <trkpt lat="45.42479" lon="6.21485">
        <ele>2126.57</ele>
        <time>2020-09-07T09:08:59Z</time>
      </trkpt>
      <trkpt lat="45.42475" lon="6.21491">
        <ele>2128.98</ele>
        <time>2020-09-07T09:09:20Z</time>
      </trkpt>
      <trkpt lat="45.42473" lon="6.21497">
        <ele>2131.86</ele>
        <time>2020-09-07T09:09:35Z</time>
      </trkpt>
      <trkpt lat="45.42476" lon="6.21504">
        <ele>2135.23</ele>
        <time>2020-09-07T09:09:52Z</time>
      </trkpt>
      <trkpt lat="45.42469" lon="6.21522">
        <ele>2138.11</ele>
        <time>2020-09-07T09:10:15Z</time>
      </trkpt>
      <trkpt lat="45.42466" lon="6.21536">
        <ele>2140.99</ele>
        <time>2020-09-07T09:10:39Z</time>
      </trkpt>
      <trkpt lat="45.42462" lon="6.21543">
        <ele>2144.36</ele>
        <time>2020-09-07T09:11:00Z</time>
      </trkpt>
      <trkpt lat="45.42463" lon="6.21545">
        <ele>2146.28</ele>
        <time>2020-09-07T09:11:14Z</time>
      </trkpt>
      <trkpt lat="45.42465" lon="6.2155">
        <ele>2149.16</ele>
        <time>2020-09-07T09:11:30Z</time>
      </trkpt>
      <trkpt lat="45.42463" lon="6.21558">
        <ele>2152.05</ele>
        <time>2020-09-07T09:11:48Z</time>
      </trkpt>
      <trkpt lat="45.42468" lon="6.21557">
        <ele>2153.49</ele>
        <time>2020-09-07T09:12:04Z</time>
      </trkpt>
      <trkpt lat="45.42469" lon="6.21561">
        <ele>2156.37</ele>
        <time>2020-09-07T09:12:21Z</time>
      </trkpt>
      <trkpt lat="45.42471" lon="6.21564">
        <ele>2157.82</ele>
        <time>2020-09-07T09:12:36Z</time>
      </trkpt>
      <trkpt lat="45.4247" lon="6.21568">
        <ele>2160.7</ele>
        <time>2020-09-07T09:12:55Z</time>
      </trkpt>
      <trkpt lat="45.42472" lon="6.21571">
        <ele>2162.62</ele>
        <time>2020-09-07T09:13:09Z</time>
      </trkpt>
      <trkpt lat="45.42473" lon="6.21572">
        <ele>2165.03</ele>
        <time>2020-09-07T09:13:28Z</time>
      </trkpt>
      <trkpt lat="45.42473" lon="6.21574">
        <ele>2165.99</ele>
        <time>2020-09-07T09:13:47Z</time>
      </trkpt>
      <trkpt lat="45.42473" lon="6.21578">
        <ele>2166.95</ele>
        <time>2020-09-07T09:14:01Z</time>
      </trkpt>
      <trkpt lat="45.42476" lon="6.2158">
        <ele>2169.35</ele>
        <time>2020-09-07T09:14:15Z</time>
      </trkpt>
      <trkpt lat="45.42475" lon="6.21585">
        <ele>2171.76</ele>
        <time>2020-09-07T09:14:34Z</time>
      </trkpt>
      <trkpt lat="45.42479" lon="6.21588">
        <ele>2174.16</ele>
        <time>2020-09-07T09:14:51Z</time>
      </trkpt>
      <trkpt lat="45.42481" lon="6.21587">
        <ele>2176.56</ele>
        <time>2020-09-07T09:15:08Z</time>
      </trkpt>
      <trkpt lat="45.4248" lon="6.21592">
        <ele>2178</ele>
        <time>2020-09-07T09:15:25Z</time>
      </trkpt>
      <trkpt lat="45.42481" lon="6.21598">
        <ele>2179.93</ele>
        <time>2020-09-07T09:15:41Z</time>
      </trkpt>
      <trkpt lat="45.42481" lon="6.21604">
        <ele>2181.37</ele>
        <time>2020-09-07T09:15:58Z</time>
      </trkpt>
      <trkpt lat="45.42479" lon="6.21609">
        <ele>2184.73</ele>
        <time>2020-09-07T09:16:14Z</time>
      </trkpt>
      <trkpt lat="45.4248" lon="6.21613">
        <ele>2186.66</ele>
        <time>2020-09-07T09:16:30Z</time>
      </trkpt>
      <trkpt lat="45.42481" lon="6.2162">
        <ele>2189.06</ele>
        <time>2020-09-07T09:16:51Z</time>
      </trkpt>
      <trkpt lat="45.4248" lon="6.21623">
        <ele>2192.42</ele>
        <time>2020-09-07T09:17:11Z</time>
      </trkpt>
      <trkpt lat="45.42481" lon="6.21628">
        <ele>2194.83</ele>
        <time>2020-09-07T09:17:29Z</time>
      </trkpt>
      <trkpt lat="45.42482" lon="6.21629">
        <ele>2195.79</ele>
        <time>2020-09-07T09:17:45Z</time>
      </trkpt>
      <trkpt lat="45.42482" lon="6.2163">
        <ele>2196.75</ele>
        <time>2020-09-07T09:18:01Z</time>
      </trkpt>
      <trkpt lat="45.42482" lon="6.21632">
        <ele>2196.75</ele>
        <time>2020-09-07T09:18:20Z</time>
      </trkpt>
      <trkpt lat="45.42486" lon="6.21634">
        <ele>2199.15</ele>
        <time>2020-09-07T09:18:39Z</time>
      </trkpt>
      <trkpt lat="45.42489" lon="6.21634">
        <ele>2202.04</ele>
        <time>2020-09-07T09:19:03Z</time>
      </trkpt>
      <trkpt lat="45.4249" lon="6.21637">
        <ele>2202.04</ele>
        <time>2020-09-07T09:19:19Z</time>
      </trkpt>
      <trkpt lat="45.42489" lon="6.2164">
        <ele>2203</ele>
        <time>2020-09-07T09:19:32Z</time>
      </trkpt>
      <trkpt lat="45.42487" lon="6.21647">
        <ele>2205.88</ele>
        <time>2020-09-07T09:19:50Z</time>
      </trkpt>
      <trkpt lat="45.42489" lon="6.21651">
        <ele>2208.29</ele>
        <time>2020-09-07T09:20:08Z</time>
      </trkpt>
      <trkpt lat="45.42492" lon="6.21654">
        <ele>2209.73</ele>
        <time>2020-09-07T09:20:23Z</time>
      </trkpt>
      <trkpt lat="45.42492" lon="6.21655">
        <ele>2210.69</ele>
        <time>2020-09-07T09:20:39Z</time>
      </trkpt>
      <trkpt lat="45.42491" lon="6.21654">
        <ele>2210.69</ele>
        <time>2020-09-07T09:21:09Z</time>
      </trkpt>
      <trkpt lat="45.42489" lon="6.21654">
        <ele>2210.21</ele>
        <time>2020-09-07T09:21:24Z</time>
      </trkpt>
      <trkpt lat="45.4249" lon="6.21655">
        <ele>2209.73</ele>
        <time>2020-09-07T09:21:52Z</time>
      </trkpt>
      <trkpt lat="45.42489" lon="6.21655">
        <ele>2210.69</ele>
        <time>2020-09-07T09:22:17Z</time>
      </trkpt>
      <trkpt lat="45.4249" lon="6.21655">
        <ele>2210.69</ele>
        <time>2020-09-07T09:22:41Z</time>
      </trkpt>
      <trkpt lat="45.4249" lon="6.21654">
        <ele>2210.69</ele>
        <time>2020-09-07T09:23:12Z</time>
      </trkpt>
      <trkpt lat="45.4249" lon="6.21654">
        <ele>2210.69</ele>
        <time>2020-09-07T09:23:38Z</time>
      </trkpt>
      <trkpt lat="45.42489" lon="6.21654">
        <ele>2210.69</ele>
        <time>2020-09-07T09:24:10Z</time>
      </trkpt>
      <trkpt lat="45.42489" lon="6.21654">
        <ele>2210.69</ele>
        <time>2020-09-07T09:24:33Z</time>
      </trkpt>
      <trkpt lat="45.42487" lon="6.21654">
        <ele>2210.69</ele>
        <time>2020-09-07T09:24:52Z</time>
      </trkpt>
      <trkpt lat="45.42484" lon="6.21652">
        <ele>2210.69</ele>
        <time>2020-09-07T09:25:08Z</time>
      </trkpt>
      <trkpt lat="45.42481" lon="6.21647">
        <ele>2210.69</ele>
        <time>2020-09-07T09:25:25Z</time>
      </trkpt>
      <trkpt lat="45.42475" lon="6.21652">
        <ele>2210.69</ele>
        <time>2020-09-07T09:25:44Z</time>
      </trkpt>
      <trkpt lat="45.42469" lon="6.21657">
        <ele>2210.69</ele>
        <time>2020-09-07T09:26:01Z</time>
      </trkpt>
      <trkpt lat="45.42467" lon="6.21657">
        <ele>2220.78</ele>
        <time>2020-09-07T09:26:11Z</time>
      </trkpt>
      <trkpt lat="45.42467" lon="6.21656">
        <ele>2221.26</ele>
        <time>2020-09-07T09:26:12Z</time>
      </trkpt>
      <trkpt lat="45.42464" lon="6.21656">
        <ele>2223.19</ele>
        <time>2020-09-07T09:26:28Z</time>
      </trkpt>
      <trkpt lat="45.42462" lon="6.21659">
        <ele>2224.63</ele>
        <time>2020-09-07T09:26:44Z</time>
      </trkpt>
      <trkpt lat="45.42455" lon="6.21659">
        <ele>2226.07</ele>
        <time>2020-09-07T09:27:00Z</time>
      </trkpt>
      <trkpt lat="45.42454" lon="6.21664">
        <ele>2227.99</ele>
        <time>2020-09-07T09:27:18Z</time>
      </trkpt>
      <trkpt lat="45.42453" lon="6.21666">
        <ele>2229.92</ele>
        <time>2020-09-07T09:27:34Z</time>
      </trkpt>
      <trkpt lat="45.42451" lon="6.21667">
        <ele>2231.84</ele>
        <time>2020-09-07T09:27:50Z</time>
      </trkpt>
      <trkpt lat="45.42447" lon="6.21667">
        <ele>2233.28</ele>
        <time>2020-09-07T09:28:10Z</time>
      </trkpt>
      <trkpt lat="45.42444" lon="6.21667">
        <ele>2233.76</ele>
        <time>2020-09-07T09:28:25Z</time>
      </trkpt>
      <trkpt lat="45.42442" lon="6.21667">
        <ele>2233.28</ele>
        <time>2020-09-07T09:28:44Z</time>
      </trkpt>
      <trkpt lat="45.42441" lon="6.21666">
        <ele>2232.8</ele>
        <time>2020-09-07T09:29:11Z</time>
      </trkpt>
      <trkpt lat="45.42444" lon="6.21667">
        <ele>2233.28</ele>
        <time>2020-09-07T09:29:39Z</time>
      </trkpt>
      <trkpt lat="45.42448" lon="6.21668">
        <ele>2233.28</ele>
        <time>2020-09-07T09:29:54Z</time>
      </trkpt>
      <trkpt lat="45.42446" lon="6.2167">
        <ele>2234.72</ele>
        <time>2020-09-07T09:30:09Z</time>
      </trkpt>
      <trkpt lat="45.42443" lon="6.21672">
        <ele>2235.68</ele>
        <time>2020-09-07T09:30:26Z</time>
      </trkpt>
      <trkpt lat="45.42443" lon="6.21672">
        <ele>2237.13</ele>
        <time>2020-09-07T09:30:45Z</time>
      </trkpt>
      <trkpt lat="45.42442" lon="6.21675">
        <ele>2238.09</ele>
        <time>2020-09-07T09:30:58Z</time>
      </trkpt>
      <trkpt lat="45.4244" lon="6.21676">
        <ele>2239.53</ele>
        <time>2020-09-07T09:31:16Z</time>
      </trkpt>
      <trkpt lat="45.42438" lon="6.21676">
        <ele>2240.01</ele>
        <time>2020-09-07T09:31:34Z</time>
      </trkpt>
      <trkpt lat="45.42436" lon="6.21676">
        <ele>2240.49</ele>
        <time>2020-09-07T09:31:55Z</time>
      </trkpt>
      <trkpt lat="45.42435" lon="6.2168">
        <ele>2240.97</ele>
        <time>2020-09-07T09:32:15Z</time>
      </trkpt>
      <trkpt lat="45.42429" lon="6.21681">
        <ele>2240.49</ele>
        <time>2020-09-07T09:32:35Z</time>
      </trkpt>
      <trkpt lat="45.42427" lon="6.21682">
        <ele>2240.49</ele>
        <time>2020-09-07T09:32:51Z</time>
      </trkpt>
      <trkpt lat="45.42426" lon="6.21684">
        <ele>2239.05</ele>
        <time>2020-09-07T09:33:12Z</time>
      </trkpt>
      <trkpt lat="45.42425" lon="6.21685">
        <ele>2239.05</ele>
        <time>2020-09-07T09:33:45Z</time>
      </trkpt>
      <trkpt lat="45.42426" lon="6.21684">
        <ele>2238.09</ele>
        <time>2020-09-07T09:34:39Z</time>
      </trkpt>
      <trkpt lat="45.42428" lon="6.21682">
        <ele>2237.61</ele>
        <time>2020-09-07T09:35:09Z</time>
      </trkpt>
      <trkpt lat="45.42426" lon="6.21685">
        <ele>2238.57</ele>
        <time>2020-09-07T09:35:34Z</time>
      </trkpt>
      <trkpt lat="45.42427" lon="6.21686">
        <ele>2237.61</ele>
        <time>2020-09-07T09:36:24Z</time>
      </trkpt>
      <trkpt lat="45.42428" lon="6.21685">
        <ele>2237.61</ele>
        <time>2020-09-07T09:36:44Z</time>
      </trkpt>
      <trkpt lat="45.42427" lon="6.21682">
        <ele>2237.61</ele>
        <time>2020-09-07T09:37:25Z</time>
      </trkpt>
      <trkpt lat="45.42427" lon="6.21683">
        <ele>2237.61</ele>
        <time>2020-09-07T09:38:07Z</time>
      </trkpt>
      <trkpt lat="45.42427" lon="6.21683">
        <ele>2237.61</ele>
        <time>2020-09-07T09:38:47Z</time>
      </trkpt>
      <trkpt lat="45.42427" lon="6.21683">
        <ele>2237.61</ele>
        <time>2020-09-07T09:39:26Z</time>
      </trkpt>
      <trkpt lat="45.42428" lon="6.21681">
        <ele>2237.61</ele>
        <time>2020-09-07T09:40:05Z</time>
      </trkpt>
      <trkpt lat="45.42426" lon="6.21682">
        <ele>2237.61</ele>
        <time>2020-09-07T09:40:45Z</time>
      </trkpt>
      <trkpt lat="45.42426" lon="6.21683">
        <ele>2237.61</ele>
        <time>2020-09-07T09:41:23Z</time>
      </trkpt>
      <trkpt lat="45.42426" lon="6.21684">
        <ele>2237.61</ele>
        <time>2020-09-07T09:41:59Z</time>
      </trkpt>
      <trkpt lat="45.42422" lon="6.21685">
        <ele>2237.61</ele>
        <time>2020-09-07T09:42:38Z</time>
      </trkpt>
      <trkpt lat="45.4243" lon="6.21687">
        <ele>2236.16</ele>
        <time>2020-09-07T09:43:18Z</time>
      </trkpt>
      <trkpt lat="45.4242" lon="6.2169">
        <ele>2236.16</ele>
        <time>2020-09-07T09:43:55Z</time>
      </trkpt>
      <trkpt lat="45.42431" lon="6.21693">
        <ele>2236.16</ele>
        <time>2020-09-07T09:44:31Z</time>
      </trkpt>
      <trkpt lat="45.42429" lon="6.21696">
        <ele>2237.13</ele>
        <time>2020-09-07T09:45:14Z</time>
      </trkpt>
      <trkpt lat="45.42432" lon="6.21684">
        <ele>2236.64</ele>
        <time>2020-09-07T09:45:52Z</time>
      </trkpt>
      <trkpt lat="45.42438" lon="6.21686">
        <ele>2236.64</ele>
        <time>2020-09-07T09:46:35Z</time>
      </trkpt>
      <trkpt lat="45.42439" lon="6.21687">
        <ele>2236.64</ele>
        <time>2020-09-07T09:47:23Z</time>
      </trkpt>
      <trkpt lat="45.42439" lon="6.21694">
        <ele>2236.64</ele>
        <time>2020-09-07T09:48:09Z</time>
      </trkpt>
      <trkpt lat="45.42434" lon="6.21693">
        <ele>2237.13</ele>
        <time>2020-09-07T09:48:51Z</time>
      </trkpt>
      <trkpt lat="45.42428" lon="6.21684">
        <ele>2236.64</ele>
        <time>2020-09-07T09:49:31Z</time>
      </trkpt>
      <trkpt lat="45.42427" lon="6.21682">
        <ele>2236.64</ele>
        <time>2020-09-07T09:50:16Z</time>
      </trkpt>
      <trkpt lat="45.42427" lon="6.21685">
        <ele>2236.64</ele>
        <time>2020-09-07T09:51:04Z</time>
      </trkpt>
      <trkpt lat="45.42427" lon="6.21687">
        <ele>2236.64</ele>
        <time>2020-09-07T09:51:51Z</time>
      </trkpt>
      <trkpt lat="45.42427" lon="6.21684">
        <ele>2236.64</ele>
        <time>2020-09-07T09:52:38Z</time>
      </trkpt>
      <trkpt lat="45.42429" lon="6.21688">
        <ele>2236.64</ele>
        <time>2020-09-07T09:53:20Z</time>
      </trkpt>
      <trkpt lat="45.4243" lon="6.21678">
        <ele>2236.64</ele>
        <time>2020-09-07T09:54:05Z</time>
      </trkpt>
      <trkpt lat="45.4243" lon="6.21678">
        <ele>2238.09</ele>
        <time>2020-09-07T09:54:53Z</time>
      </trkpt>
      <trkpt lat="45.42429" lon="6.21686">
        <ele>2237.61</ele>
        <time>2020-09-07T09:55:45Z</time>
      </trkpt>
      <trkpt lat="45.42429" lon="6.2168">
        <ele>2237.61</ele>
        <time>2020-09-07T09:56:36Z</time>
      </trkpt>
      <trkpt lat="45.42426" lon="6.21683">
        <ele>2237.61</ele>
        <time>2020-09-07T09:57:25Z</time>
      </trkpt>
      <trkpt lat="45.42429" lon="6.21678">
        <ele>2237.61</ele>
        <time>2020-09-07T09:58:15Z</time>
      </trkpt>
      <trkpt lat="45.4243" lon="6.21678">
        <ele>2237.61</ele>
        <time>2020-09-07T09:59:06Z</time>
      </trkpt>
      <trkpt lat="45.42433" lon="6.21684">
        <ele>2237.61</ele>
        <time>2020-09-07T09:59:59Z</time>
      </trkpt>
      <trkpt lat="45.42428" lon="6.21682">
        <ele>2237.61</ele>
        <time>2020-09-07T10:00:45Z</time>
      </trkpt>
      <trkpt lat="45.42429" lon="6.21683">
        <ele>2237.61</ele>
        <time>2020-09-07T10:01:29Z</time>
      </trkpt>
      <trkpt lat="45.42431" lon="6.21683">
        <ele>2237.61</ele>
        <time>2020-09-07T10:02:05Z</time>
      </trkpt>
      <trkpt lat="45.4243" lon="6.21683">
        <ele>2237.61</ele>
        <time>2020-09-07T10:02:50Z</time>
      </trkpt>
      <trkpt lat="45.42429" lon="6.21685">
        <ele>2237.61</ele>
        <time>2020-09-07T10:03:32Z</time>
      </trkpt>
      <trkpt lat="45.4243" lon="6.21687">
        <ele>2237.61</ele>
        <time>2020-09-07T10:03:37Z</time>
      </trkpt>
      <trkpt lat="45.42429" lon="6.21686">
        <ele>2237.61</ele>
        <time>2020-09-07T10:03:38Z</time>
      </trkpt>
      <trkpt lat="45.42425" lon="6.2169">
        <ele>2237.61</ele>
        <time>2020-09-07T10:04:11Z</time>
      </trkpt>
      <trkpt lat="45.42424" lon="6.21692">
        <ele>2237.61</ele>
        <time>2020-09-07T10:04:56Z</time>
      </trkpt>
      <trkpt lat="45.42424" lon="6.21691">
        <ele>2236.64</ele>
        <time>2020-09-07T10:05:44Z</time>
      </trkpt>
      <trkpt lat="45.42424" lon="6.21692">
        <ele>2235.68</ele>
        <time>2020-09-07T10:06:17Z</time>
      </trkpt>
      <trkpt lat="45.42426" lon="6.21692">
        <ele>2236.16</ele>
        <time>2020-09-07T10:06:47Z</time>
      </trkpt>
      <trkpt lat="45.42426" lon="6.2169">
        <ele>2236.16</ele>
        <time>2020-09-07T10:07:10Z</time>
      </trkpt>
      <trkpt lat="45.42427" lon="6.21687">
        <ele>2236.16</ele>
        <time>2020-09-07T10:07:59Z</time>
      </trkpt>
      <trkpt lat="45.42427" lon="6.21687">
        <ele>2236.16</ele>
        <time>2020-09-07T10:08:23Z</time>
      </trkpt>
      <trkpt lat="45.42429" lon="6.21687">
        <ele>2236.16</ele>
        <time>2020-09-07T10:08:54Z</time>
      </trkpt>
      <trkpt lat="45.42428" lon="6.21686">
        <ele>2236.16</ele>
        <time>2020-09-07T10:09:14Z</time>
      </trkpt>
      <trkpt lat="45.4243" lon="6.21684">
        <ele>2236.16</ele>
        <time>2020-09-07T10:09:38Z</time>
      </trkpt>
      <trkpt lat="45.42432" lon="6.21683">
        <ele>2239.05</ele>
        <time>2020-09-07T10:09:49Z</time>
      </trkpt>
      <trkpt lat="45.42433" lon="6.21683">
        <ele>2239.05</ele>
        <time>2020-09-07T10:09:50Z</time>
      </trkpt>
      <trkpt lat="45.42434" lon="6.21681">
        <ele>2239.05</ele>
        <time>2020-09-07T10:09:57Z</time>
      </trkpt>
      <trkpt lat="45.42437" lon="6.21677">
        <ele>2240.49</ele>
        <time>2020-09-07T10:10:09Z</time>
      </trkpt>
      <trkpt lat="45.42439" lon="6.21676">
        <ele>2241.93</ele>
        <time>2020-09-07T10:10:25Z</time>
      </trkpt>
      <trkpt lat="45.42439" lon="6.21677">
        <ele>2241.45</ele>
        <time>2020-09-07T10:10:40Z</time>
      </trkpt>
      <trkpt lat="45.4244" lon="6.21677">
        <ele>2240.01</ele>
        <time>2020-09-07T10:10:58Z</time>
      </trkpt>
      <trkpt lat="45.42441" lon="6.21676">
        <ele>2240.97</ele>
        <time>2020-09-07T10:11:25Z</time>
      </trkpt>
      <trkpt lat="45.42441" lon="6.21676">
        <ele>2240.97</ele>
        <time>2020-09-07T10:11:42Z</time>
      </trkpt>
      <trkpt lat="45.42443" lon="6.21677">
        <ele>2240.49</ele>
        <time>2020-09-07T10:11:55Z</time>
      </trkpt>
      <trkpt lat="45.42443" lon="6.21676">
        <ele>2240.49</ele>
        <time>2020-09-07T10:12:14Z</time>
      </trkpt>
      <trkpt lat="45.42443" lon="6.21675">
        <ele>2240.49</ele>
        <time>2020-09-07T10:12:28Z</time>
      </trkpt>
      <trkpt lat="45.42442" lon="6.21674">
        <ele>2240.49</ele>
        <time>2020-09-07T10:12:48Z</time>
      </trkpt>
      <trkpt lat="45.42443" lon="6.21674">
        <ele>2240.49</ele>
        <time>2020-09-07T10:13:09Z</time>
      </trkpt>
      <trkpt lat="45.42443" lon="6.21674">
        <ele>2240.49</ele>
        <time>2020-09-07T10:13:23Z</time>
      </trkpt>
      <trkpt lat="45.42444" lon="6.21672">
        <ele>2240.49</ele>
        <time>2020-09-07T10:13:40Z</time>
      </trkpt>
      <trkpt lat="45.42447" lon="6.2167">
        <ele>2235.2</ele>
        <time>2020-09-07T10:13:53Z</time>
      </trkpt>
      <trkpt lat="45.42448" lon="6.2167">
        <ele>2235.2</ele>
        <time>2020-09-07T10:13:54Z</time>
      </trkpt>
      <trkpt lat="45.42451" lon="6.21667">
        <ele>2233.76</ele>
        <time>2020-09-07T10:14:08Z</time>
      </trkpt>
      <trkpt lat="45.42453" lon="6.21665">
        <ele>2232.32</ele>
        <time>2020-09-07T10:14:25Z</time>
      </trkpt>
      <trkpt lat="45.42455" lon="6.21664">
        <ele>2230.4</ele>
        <time>2020-09-07T10:14:40Z</time>
      </trkpt>
      <trkpt lat="45.42457" lon="6.21658">
        <ele>2228.47</ele>
        <time>2020-09-07T10:14:57Z</time>
      </trkpt>
      <trkpt lat="45.42461" lon="6.21658">
        <ele>2227.03</ele>
        <time>2020-09-07T10:15:11Z</time>
      </trkpt>
      <trkpt lat="45.42461" lon="6.21658">
        <ele>2223.19</ele>
        <time>2020-09-07T10:15:16Z</time>
      </trkpt>
      <trkpt lat="45.42463" lon="6.21658">
        <ele>2227.03</ele>
        <time>2020-09-07T10:15:22Z</time>
      </trkpt>
      <trkpt lat="45.42465" lon="6.21657">
        <ele>2225.59</ele>
        <time>2020-09-07T10:15:34Z</time>
      </trkpt>
      <trkpt lat="45.42472" lon="6.21657">
        <ele>2222.71</ele>
        <time>2020-09-07T10:15:48Z</time>
      </trkpt>
      <trkpt lat="45.42476" lon="6.21651">
        <ele>2219.82</ele>
        <time>2020-09-07T10:16:03Z</time>
      </trkpt>
      <trkpt lat="45.42481" lon="6.2165">
        <ele>2217.42</ele>
        <time>2020-09-07T10:16:22Z</time>
      </trkpt>
      <trkpt lat="45.42483" lon="6.21653">
        <ele>2214.53</ele>
        <time>2020-09-07T10:16:36Z</time>
      </trkpt>
      <trkpt lat="45.42485" lon="6.21653">
        <ele>2211.17</ele>
        <time>2020-09-07T10:16:53Z</time>
      </trkpt>
      <trkpt lat="45.42489" lon="6.21655">
        <ele>2210.69</ele>
        <time>2020-09-07T10:17:09Z</time>
      </trkpt>
      <trkpt lat="45.42492" lon="6.21656">
        <ele>2209.25</ele>
        <time>2020-09-07T10:17:30Z</time>
      </trkpt>
      <trkpt lat="45.42493" lon="6.21655">
        <ele>2207.81</ele>
        <time>2020-09-07T10:17:51Z</time>
      </trkpt>
      <trkpt lat="45.42493" lon="6.21653">
        <ele>2206.36</ele>
        <time>2020-09-07T10:18:36Z</time>
      </trkpt>
      <trkpt lat="45.42493" lon="6.21653">
        <ele>2208.77</ele>
        <time>2020-09-07T10:18:40Z</time>
      </trkpt>
      <trkpt lat="45.42493" lon="6.21652">
        <ele>2207.32</ele>
        <time>2020-09-07T10:19:01Z</time>
      </trkpt>
      <trkpt lat="45.42491" lon="6.21653">
        <ele>2205.88</ele>
        <time>2020-09-07T10:19:26Z</time>
      </trkpt>
      <trkpt lat="45.42489" lon="6.21647">
        <ele>2204.44</ele>
        <time>2020-09-07T10:19:43Z</time>
      </trkpt>
      <trkpt lat="45.42487" lon="6.21648">
        <ele>2203.96</ele>
        <time>2020-09-07T10:20:05Z</time>
      </trkpt>
      <trkpt lat="45.42488" lon="6.21649">
        <ele>2203.48</ele>
        <time>2020-09-07T10:20:39Z</time>
      </trkpt>
      <trkpt lat="45.42486" lon="6.21649">
        <ele>2203.96</ele>
        <time>2020-09-07T10:21:12Z</time>
      </trkpt>
      <trkpt lat="45.4249" lon="6.21649">
        <ele>2203.96</ele>
        <time>2020-09-07T10:21:35Z</time>
      </trkpt>
      <trkpt lat="45.4249" lon="6.21643">
        <ele>2203.96</ele>
        <time>2020-09-07T10:21:50Z</time>
      </trkpt>
      <trkpt lat="45.4249" lon="6.21641">
        <ele>2203.96</ele>
        <time>2020-09-07T10:21:52Z</time>
      </trkpt>
      <trkpt lat="45.4249" lon="6.21641">
        <ele>2201.56</ele>
        <time>2020-09-07T10:22:02Z</time>
      </trkpt>
      <trkpt lat="45.4249" lon="6.21639">
        <ele>2200.59</ele>
        <time>2020-09-07T10:22:24Z</time>
      </trkpt>
      <trkpt lat="45.42491" lon="6.21635">
        <ele>2199.63</ele>
        <time>2020-09-07T10:22:43Z</time>
      </trkpt>
      <trkpt lat="45.42489" lon="6.21635">
        <ele>2197.71</ele>
        <time>2020-09-07T10:22:57Z</time>
      </trkpt>
      <trkpt lat="45.42486" lon="6.21634">
        <ele>2195.79</ele>
        <time>2020-09-07T10:23:16Z</time>
      </trkpt>
      <trkpt lat="45.42484" lon="6.21633">
        <ele>2194.35</ele>
        <time>2020-09-07T10:23:35Z</time>
      </trkpt>
      <trkpt lat="45.42485" lon="6.2163">
        <ele>2192.9</ele>
        <time>2020-09-07T10:23:50Z</time>
      </trkpt>
      <trkpt lat="45.42483" lon="6.21626">
        <ele>2190.98</ele>
        <time>2020-09-07T10:24:06Z</time>
      </trkpt>
      <trkpt lat="45.42483" lon="6.21623">
        <ele>2188.58</ele>
        <time>2020-09-07T10:24:24Z</time>
      </trkpt>
      <trkpt lat="45.42484" lon="6.21624">
        <ele>2187.62</ele>
        <time>2020-09-07T10:24:57Z</time>
      </trkpt>
      <trkpt lat="45.42482" lon="6.21619">
        <ele>2186.18</ele>
        <time>2020-09-07T10:25:13Z</time>
      </trkpt>
      <trkpt lat="45.42481" lon="6.21615">
        <ele>2183.77</ele>
        <time>2020-09-07T10:25:30Z</time>
      </trkpt>
      <trkpt lat="45.42481" lon="6.21609">
        <ele>2180.41</ele>
        <time>2020-09-07T10:25:44Z</time>
      </trkpt>
      <trkpt lat="45.42482" lon="6.21601">
        <ele>2177.52</ele>
        <time>2020-09-07T10:26:01Z</time>
      </trkpt>
      <trkpt lat="45.42481" lon="6.21589">
        <ele>2174.64</ele>
        <time>2020-09-07T10:26:17Z</time>
      </trkpt>
      <trkpt lat="45.4248" lon="6.21587">
        <ele>2172.72</ele>
        <time>2020-09-07T10:26:30Z</time>
      </trkpt>
      <trkpt lat="45.4248" lon="6.21587">
        <ele>2170.79</ele>
        <time>2020-09-07T10:26:54Z</time>
      </trkpt>
      <trkpt lat="45.42479" lon="6.21588">
        <ele>2168.87</ele>
        <time>2020-09-07T10:27:19Z</time>
      </trkpt>
      <trkpt lat="45.42475" lon="6.21586">
        <ele>2167.43</ele>
        <time>2020-09-07T10:27:42Z</time>
      </trkpt>
      <trkpt lat="45.42476" lon="6.21581">
        <ele>2166.95</ele>
        <time>2020-09-07T10:27:58Z</time>
      </trkpt>
      <trkpt lat="45.42473" lon="6.21578">
        <ele>2165.03</ele>
        <time>2020-09-07T10:28:12Z</time>
      </trkpt>
      <trkpt lat="45.42474" lon="6.21577">
        <ele>2162.14</ele>
        <time>2020-09-07T10:28:28Z</time>
      </trkpt>
      <trkpt lat="45.42476" lon="6.21578">
        <ele>2161.18</ele>
        <time>2020-09-07T10:29:10Z</time>
      </trkpt>
      <trkpt lat="45.42475" lon="6.21574">
        <ele>2160.7</ele>
        <time>2020-09-07T10:29:28Z</time>
      </trkpt>
      <trkpt lat="45.42472" lon="6.21572">
        <ele>2159.74</ele>
        <time>2020-09-07T10:29:44Z</time>
      </trkpt>
      <trkpt lat="45.4247" lon="6.21569">
        <ele>2157.34</ele>
        <time>2020-09-07T10:29:58Z</time>
      </trkpt>
      <trkpt lat="45.4247" lon="6.21567">
        <ele>2155.41</ele>
        <time>2020-09-07T10:30:11Z</time>
      </trkpt>
      <trkpt lat="45.42468" lon="6.21563">
        <ele>2153.97</ele>
        <time>2020-09-07T10:30:26Z</time>
      </trkpt>
      <trkpt lat="45.42467" lon="6.21563">
        <ele>2152.53</ele>
        <time>2020-09-07T10:30:42Z</time>
      </trkpt>
      <trkpt lat="45.42467" lon="6.21564">
        <ele>2151.09</ele>
        <time>2020-09-07T10:31:11Z</time>
      </trkpt>
      <trkpt lat="45.42468" lon="6.21559">
        <ele>2149.16</ele>
        <time>2020-09-07T10:31:25Z</time>
      </trkpt>
      <trkpt lat="45.42466" lon="6.21558">
        <ele>2148.2</ele>
        <time>2020-09-07T10:31:39Z</time>
      </trkpt>
      <trkpt lat="45.42464" lon="6.21554">
        <ele>2145.8</ele>
        <time>2020-09-07T10:31:53Z</time>
      </trkpt>
      <trkpt lat="45.42463" lon="6.21549">
        <ele>2143.4</ele>
        <time>2020-09-07T10:32:08Z</time>
      </trkpt>
      <trkpt lat="45.42466" lon="6.2154">
        <ele>2140.51</ele>
        <time>2020-09-07T10:32:23Z</time>
      </trkpt>
      <trkpt lat="45.42467" lon="6.2153">
        <ele>2137.63</ele>
        <time>2020-09-07T10:32:36Z</time>
      </trkpt>
      <trkpt lat="45.42469" lon="6.21524">
        <ele>2136.19</ele>
        <time>2020-09-07T10:32:44Z</time>
      </trkpt>
      <trkpt lat="45.42469" lon="6.21523">
        <ele>2136.19</ele>
        <time>2020-09-07T10:32:45Z</time>
      </trkpt>
      <trkpt lat="45.42469" lon="6.2152">
        <ele>2135.71</ele>
        <time>2020-09-07T10:32:47Z</time>
      </trkpt>
      <trkpt lat="45.42474" lon="6.21506">
        <ele>2132.82</ele>
        <time>2020-09-07T10:33:00Z</time>
      </trkpt>
      <trkpt lat="45.42474" lon="6.21504">
        <ele>2132.82</ele>
        <time>2020-09-07T10:33:02Z</time>
      </trkpt>
      <trkpt lat="45.42474" lon="6.21497">
        <ele>2130.42</ele>
        <time>2020-09-07T10:33:14Z</time>
      </trkpt>
      <trkpt lat="45.42477" lon="6.21489">
        <ele>2126.57</ele>
        <time>2020-09-07T10:33:26Z</time>
      </trkpt>
      <trkpt lat="45.42477" lon="6.21489">
        <ele>2126.57</ele>
        <time>2020-09-07T10:33:27Z</time>
      </trkpt>
      <trkpt lat="45.42476" lon="6.21487">
        <ele>2123.69</ele>
        <time>2020-09-07T10:33:39Z</time>
      </trkpt>
      <trkpt lat="45.4248" lon="6.21484">
        <ele>2120.81</ele>
        <time>2020-09-07T10:33:56Z</time>
      </trkpt>
      <trkpt lat="45.42486" lon="6.21474">
        <ele>2117.44</ele>
        <time>2020-09-07T10:34:07Z</time>
      </trkpt>
      <trkpt lat="45.42487" lon="6.21471">
        <ele>2116.96</ele>
        <time>2020-09-07T10:34:09Z</time>
      </trkpt>
      <trkpt lat="45.42493" lon="6.21458">
        <ele>2114.08</ele>
        <time>2020-09-07T10:34:22Z</time>
      </trkpt>
      <trkpt lat="45.42495" lon="6.21445">
        <ele>2111.67</ele>
        <time>2020-09-07T10:34:32Z</time>
      </trkpt>
      <trkpt lat="45.42497" lon="6.21441">
        <ele>2109.75</ele>
        <time>2020-09-07T10:34:56Z</time>
      </trkpt>
      <trkpt lat="45.42499" lon="6.21432">
        <ele>2107.35</ele>
        <time>2020-09-07T10:35:09Z</time>
      </trkpt>
      <trkpt lat="45.425" lon="6.21431">
        <ele>2106.87</ele>
        <time>2020-09-07T10:35:10Z</time>
      </trkpt>
      <trkpt lat="45.425" lon="6.2143">
        <ele>2106.87</ele>
        <time>2020-09-07T10:35:11Z</time>
      </trkpt>
      <trkpt lat="45.42501" lon="6.21429">
        <ele>2106.39</ele>
        <time>2020-09-07T10:35:12Z</time>
      </trkpt>
      <trkpt lat="45.42502" lon="6.21419">
        <ele>2103.5</ele>
        <time>2020-09-07T10:35:26Z</time>
      </trkpt>
      <trkpt lat="45.42504" lon="6.21406">
        <ele>2100.14</ele>
        <time>2020-09-07T10:35:40Z</time>
      </trkpt>
      <trkpt lat="45.42502" lon="6.21392">
        <ele>2097.25</ele>
        <time>2020-09-07T10:35:54Z</time>
      </trkpt>
      <trkpt lat="45.425" lon="6.21386">
        <ele>2093.89</ele>
        <time>2020-09-07T10:36:06Z</time>
      </trkpt>
      <trkpt lat="45.42502" lon="6.21379">
        <ele>2090.52</ele>
        <time>2020-09-07T10:36:20Z</time>
      </trkpt>
      <trkpt lat="45.42501" lon="6.21373">
        <ele>2087.64</ele>
        <time>2020-09-07T10:36:34Z</time>
      </trkpt>
      <trkpt lat="45.42503" lon="6.21366">
        <ele>2084.28</ele>
        <time>2020-09-07T10:36:49Z</time>
      </trkpt>
      <trkpt lat="45.42503" lon="6.21363">
        <ele>2081.39</ele>
        <time>2020-09-07T10:37:04Z</time>
      </trkpt>
      <trkpt lat="45.42502" lon="6.21357">
        <ele>2078.51</ele>
        <time>2020-09-07T10:37:16Z</time>
      </trkpt>
      <trkpt lat="45.42502" lon="6.2135">
        <ele>2076.59</ele>
        <time>2020-09-07T10:37:29Z</time>
      </trkpt>
      <trkpt lat="45.42503" lon="6.21346">
        <ele>2073.22</ele>
        <time>2020-09-07T10:37:45Z</time>
      </trkpt>
      <trkpt lat="45.42504" lon="6.21336">
        <ele>2070.82</ele>
        <time>2020-09-07T10:38:01Z</time>
      </trkpt>
      <trkpt lat="45.42503" lon="6.21333">
        <ele>2069.38</ele>
        <time>2020-09-07T10:38:16Z</time>
      </trkpt>
      <trkpt lat="45.42503" lon="6.21339">
        <ele>2069.38</ele>
        <time>2020-09-07T10:38:31Z</time>
      </trkpt>
      <trkpt lat="45.425" lon="6.21338">
        <ele>2067.93</ele>
        <time>2020-09-07T10:38:47Z</time>
      </trkpt>
      <trkpt lat="45.42496" lon="6.21336">
        <ele>2064.57</ele>
        <time>2020-09-07T10:39:02Z</time>
      </trkpt>
      <trkpt lat="45.42492" lon="6.21334">
        <ele>2062.17</ele>
        <time>2020-09-07T10:39:16Z</time>
      </trkpt>
      <trkpt lat="45.42493" lon="6.2133">
        <ele>2061.2</ele>
        <time>2020-09-07T10:39:33Z</time>
      </trkpt>
      <trkpt lat="45.42496" lon="6.21326">
        <ele>2058.8</ele>
        <time>2020-09-07T10:39:46Z</time>
      </trkpt>
      <trkpt lat="45.42497" lon="6.21322">
        <ele>2057.36</ele>
        <time>2020-09-07T10:39:57Z</time>
      </trkpt>
      <trkpt lat="45.42497" lon="6.21316">
        <ele>2054.47</ele>
        <time>2020-09-07T10:40:11Z</time>
      </trkpt>
      <trkpt lat="45.42495" lon="6.21311">
        <ele>2053.03</ele>
        <time>2020-09-07T10:40:22Z</time>
      </trkpt>
      <trkpt lat="45.42499" lon="6.21308">
        <ele>2050.15</ele>
        <time>2020-09-07T10:40:36Z</time>
      </trkpt>
      <trkpt lat="45.42505" lon="6.21307">
        <ele>2046.78</ele>
        <time>2020-09-07T10:40:48Z</time>
      </trkpt>
      <trkpt lat="45.42508" lon="6.21304">
        <ele>2044.38</ele>
        <time>2020-09-07T10:40:55Z</time>
      </trkpt>
      <trkpt lat="45.42514" lon="6.21299">
        <ele>2041.5</ele>
        <time>2020-09-07T10:41:06Z</time>
      </trkpt>
      <trkpt lat="45.42519" lon="6.21294">
        <ele>2039.09</ele>
        <time>2020-09-07T10:41:19Z</time>
      </trkpt>
      <trkpt lat="45.42518" lon="6.21295">
        <ele>2037.65</ele>
        <time>2020-09-07T10:41:38Z</time>
      </trkpt>
      <trkpt lat="45.4252" lon="6.21295">
        <ele>2037.17</ele>
        <time>2020-09-07T10:41:56Z</time>
      </trkpt>
      <trkpt lat="45.42523" lon="6.21293">
        <ele>2036.69</ele>
        <time>2020-09-07T10:42:14Z</time>
      </trkpt>
      <trkpt lat="45.42523" lon="6.21292">
        <ele>2036.69</ele>
        <time>2020-09-07T10:42:41Z</time>
      </trkpt>
      <trkpt lat="45.42523" lon="6.21293">
        <ele>2036.21</ele>
        <time>2020-09-07T10:43:08Z</time>
      </trkpt>
      <trkpt lat="45.42524" lon="6.21292">
        <ele>2035.25</ele>
        <time>2020-09-07T10:43:44Z</time>
      </trkpt>
      <trkpt lat="45.42523" lon="6.21289">
        <ele>2035.25</ele>
        <time>2020-09-07T10:44:31Z</time>
      </trkpt>
      <trkpt lat="45.42523" lon="6.21287">
        <ele>2035.25</ele>
        <time>2020-09-07T10:44:33Z</time>
      </trkpt>
      <trkpt lat="45.42524" lon="6.21289">
        <ele>2036.21</ele>
        <time>2020-09-07T10:44:55Z</time>
      </trkpt>
      <trkpt lat="45.42535" lon="6.21284">
        <ele>2033.33</ele>
        <time>2020-09-07T10:45:18Z</time>
      </trkpt>
      <trkpt lat="45.42537" lon="6.2128">
        <ele>2032.36</ele>
        <time>2020-09-07T10:45:22Z</time>
      </trkpt>
      <trkpt lat="45.42538" lon="6.21279">
        <ele>2032.36</ele>
        <time>2020-09-07T10:45:23Z</time>
      </trkpt>
      <trkpt lat="45.42539" lon="6.21279">
        <ele>2031.88</ele>
        <time>2020-09-07T10:45:24Z</time>
      </trkpt>
      <trkpt lat="45.4254" lon="6.21278">
        <ele>2031.4</ele>
        <time>2020-09-07T10:45:25Z</time>
      </trkpt>
      <trkpt lat="45.42545" lon="6.21279">
        <ele>2030.92</ele>
        <time>2020-09-07T10:45:30Z</time>
      </trkpt>
      <trkpt lat="45.42546" lon="6.21278">
        <ele>2030.92</ele>
        <time>2020-09-07T10:45:31Z</time>
      </trkpt>
      <trkpt lat="45.42547" lon="6.21278">
        <ele>2030.92</ele>
        <time>2020-09-07T10:45:32Z</time>
      </trkpt>
      <trkpt lat="45.42555" lon="6.21271">
        <ele>2029</ele>
        <time>2020-09-07T10:45:45Z</time>
      </trkpt>
      <trkpt lat="45.4256" lon="6.21262">
        <ele>2027.08</ele>
        <time>2020-09-07T10:45:55Z</time>
      </trkpt>
      <trkpt lat="45.42569" lon="6.21253">
        <ele>2024.19</ele>
        <time>2020-09-07T10:46:12Z</time>
      </trkpt>
      <trkpt lat="45.42579" lon="6.21243">
        <ele>2021.31</ele>
        <time>2020-09-07T10:46:28Z</time>
      </trkpt>
      <trkpt lat="45.42583" lon="6.2124">
        <ele>2020.35</ele>
        <time>2020-09-07T10:46:33Z</time>
      </trkpt>
      <trkpt lat="45.4259" lon="6.2123">
        <ele>2016.98</ele>
        <time>2020-09-07T10:46:47Z</time>
      </trkpt>
      <trkpt lat="45.42596" lon="6.21218">
        <ele>2014.58</ele>
        <time>2020-09-07T10:47:04Z</time>
      </trkpt>
      <trkpt lat="45.42597" lon="6.21212">
        <ele>2011.22</ele>
        <time>2020-09-07T10:47:17Z</time>
      </trkpt>
      <trkpt lat="45.42601" lon="6.21203">
        <ele>2007.85</ele>
        <time>2020-09-07T10:47:30Z</time>
      </trkpt>
      <trkpt lat="45.42606" lon="6.21193">
        <ele>2004.97</ele>
        <time>2020-09-07T10:47:43Z</time>
      </trkpt>
      <trkpt lat="45.42611" lon="6.21187">
        <ele>2001.6</ele>
        <time>2020-09-07T10:47:54Z</time>
      </trkpt>
      <trkpt lat="45.42616" lon="6.21175">
        <ele>1998.72</ele>
        <time>2020-09-07T10:48:08Z</time>
      </trkpt>
      <trkpt lat="45.42622" lon="6.21168">
        <ele>1995.83</ele>
        <time>2020-09-07T10:48:19Z</time>
      </trkpt>
      <trkpt lat="45.42625" lon="6.21166">
        <ele>1994.39</ele>
        <time>2020-09-07T10:48:31Z</time>
      </trkpt>
      <trkpt lat="45.4263" lon="6.21165">
        <ele>1991.99</ele>
        <time>2020-09-07T10:48:42Z</time>
      </trkpt>
      <trkpt lat="45.42635" lon="6.2116">
        <ele>1989.59</ele>
        <time>2020-09-07T10:48:53Z</time>
      </trkpt>
      <trkpt lat="45.42638" lon="6.21155">
        <ele>1986.7</ele>
        <time>2020-09-07T10:49:10Z</time>
      </trkpt>
      <trkpt lat="45.4264" lon="6.21148">
        <ele>1984.78</ele>
        <time>2020-09-07T10:49:21Z</time>
      </trkpt>
      <trkpt lat="45.42642" lon="6.21142">
        <ele>1982.86</ele>
        <time>2020-09-07T10:49:34Z</time>
      </trkpt>
      <trkpt lat="45.42649" lon="6.21139">
        <ele>1980.93</ele>
        <time>2020-09-07T10:49:47Z</time>
      </trkpt>
      <trkpt lat="45.42655" lon="6.21141">
        <ele>1977.57</ele>
        <time>2020-09-07T10:50:00Z</time>
      </trkpt>
      <trkpt lat="45.42661" lon="6.21139">
        <ele>1974.69</ele>
        <time>2020-09-07T10:50:14Z</time>
      </trkpt>
      <trkpt lat="45.42665" lon="6.21135">
        <ele>1971.32</ele>
        <time>2020-09-07T10:50:26Z</time>
      </trkpt>
      <trkpt lat="45.42671" lon="6.21131">
        <ele>1968.44</ele>
        <time>2020-09-07T10:50:40Z</time>
      </trkpt>
      <trkpt lat="45.42679" lon="6.2113">
        <ele>1965.07</ele>
        <time>2020-09-07T10:50:55Z</time>
      </trkpt>
      <trkpt lat="45.42685" lon="6.2113">
        <ele>1962.19</ele>
        <time>2020-09-07T10:51:07Z</time>
      </trkpt>
      <trkpt lat="45.42693" lon="6.21126">
        <ele>1958.82</ele>
        <time>2020-09-07T10:51:17Z</time>
      </trkpt>
      <trkpt lat="45.42706" lon="6.21136">
        <ele>1958.82</ele>
        <time>2020-09-07T10:51:38Z</time>
      </trkpt>
      <trkpt lat="45.42713" lon="6.2113">
        <ele>1957.86</ele>
        <time>2020-09-07T10:51:51Z</time>
      </trkpt>
      <trkpt lat="45.42717" lon="6.21127">
        <ele>1957.86</ele>
        <time>2020-09-07T10:51:56Z</time>
      </trkpt>
      <trkpt lat="45.42726" lon="6.21125">
        <ele>1958.82</ele>
        <time>2020-09-07T10:52:12Z</time>
      </trkpt>
      <trkpt lat="45.42731" lon="6.21126">
        <ele>1959.3</ele>
        <time>2020-09-07T10:52:18Z</time>
      </trkpt>
      <trkpt lat="45.42746" lon="6.21126">
        <ele>1958.82</ele>
        <time>2020-09-07T10:52:33Z</time>
      </trkpt>
      <trkpt lat="45.42758" lon="6.2113">
        <ele>1956.9</ele>
        <time>2020-09-07T10:52:46Z</time>
      </trkpt>
      <trkpt lat="45.42769" lon="6.21136">
        <ele>1954.5</ele>
        <time>2020-09-07T10:53:02Z</time>
      </trkpt>
      <trkpt lat="45.42771" lon="6.21136">
        <ele>1954.02</ele>
        <time>2020-09-07T10:53:05Z</time>
      </trkpt>
      <trkpt lat="45.42778" lon="6.21133">
        <ele>1953.54</ele>
        <time>2020-09-07T10:53:17Z</time>
      </trkpt>
      <trkpt lat="45.4278" lon="6.21133">
        <ele>1952.57</ele>
        <time>2020-09-07T10:53:20Z</time>
      </trkpt>
      <trkpt lat="45.42796" lon="6.21141">
        <ele>1951.61</ele>
        <time>2020-09-07T10:53:35Z</time>
      </trkpt>
      <trkpt lat="45.42797" lon="6.21141">
        <ele>1951.61</ele>
        <time>2020-09-07T10:53:36Z</time>
      </trkpt>
      <trkpt lat="45.42798" lon="6.21141">
        <ele>1951.61</ele>
        <time>2020-09-07T10:53:37Z</time>
      </trkpt>
      <trkpt lat="45.42799" lon="6.2114">
        <ele>1951.61</ele>
        <time>2020-09-07T10:53:38Z</time>
      </trkpt>
      <trkpt lat="45.42808" lon="6.21137">
        <ele>1951.61</ele>
        <time>2020-09-07T10:53:50Z</time>
      </trkpt>
      <trkpt lat="45.42808" lon="6.21138">
        <ele>1952.09</ele>
        <time>2020-09-07T10:53:51Z</time>
      </trkpt>
      <trkpt lat="45.42807" lon="6.21144">
        <ele>1952.09</ele>
        <time>2020-09-07T10:53:57Z</time>
      </trkpt>
      <trkpt lat="45.42805" lon="6.2114">
        <ele>1952.09</ele>
        <time>2020-09-07T10:54:08Z</time>
      </trkpt>
      <trkpt lat="45.42806" lon="6.2114">
        <ele>1951.61</ele>
        <time>2020-09-07T10:54:26Z</time>
      </trkpt>
      <trkpt lat="45.42807" lon="6.21141">
        <ele>1950.17</ele>
        <time>2020-09-07T10:54:51Z</time>
      </trkpt>
      <trkpt lat="45.42805" lon="6.21145">
        <ele>1949.69</ele>
        <time>2020-09-07T10:55:38Z</time>
      </trkpt>
      <trkpt lat="45.42806" lon="6.21144">
        <ele>1949.21</ele>
        <time>2020-09-07T10:55:49Z</time>
      </trkpt>
      <trkpt lat="45.42796" lon="6.2114">
        <ele>1949.69</ele>
        <time>2020-09-07T10:56:30Z</time>
      </trkpt>
      <trkpt lat="45.428" lon="6.21141">
        <ele>1950.17</ele>
        <time>2020-09-07T10:57:07Z</time>
      </trkpt>
      <trkpt lat="45.42799" lon="6.21137">
        <ele>1949.69</ele>
        <time>2020-09-07T10:57:46Z</time>
      </trkpt>
      <trkpt lat="45.42801" lon="6.21142">
        <ele>1949.69</ele>
        <time>2020-09-07T10:58:34Z</time>
      </trkpt>
      <trkpt lat="45.42799" lon="6.21146">
        <ele>1946.33</ele>
        <time>2020-09-07T10:58:53Z</time>
      </trkpt>
      <trkpt lat="45.42798" lon="6.21146">
        <ele>1949.69</ele>
        <time>2020-09-07T10:58:59Z</time>
      </trkpt>
      <trkpt lat="45.42801" lon="6.21144">
        <ele>1949.69</ele>
        <time>2020-09-07T10:59:13Z</time>
      </trkpt>
      <trkpt lat="45.42801" lon="6.21144">
        <ele>1946.81</ele>
        <time>2020-09-07T10:59:19Z</time>
      </trkpt>
      <trkpt lat="45.42801" lon="6.21144">
        <ele>1946.33</ele>
        <time>2020-09-07T10:59:20Z</time>
      </trkpt>
      <trkpt lat="45.42801" lon="6.21145">
        <ele>1949.69</ele>
        <time>2020-09-07T10:59:25Z</time>
      </trkpt>
      <trkpt lat="45.42801" lon="6.21145">
        <ele>1951.13</ele>
        <time>2020-09-07T10:59:27Z</time>
      </trkpt>
      <trkpt lat="45.428" lon="6.21143">
        <ele>1949.69</ele>
        <time>2020-09-07T11:00:06Z</time>
      </trkpt>
      <trkpt lat="45.42798" lon="6.21144">
        <ele>1949.69</ele>
        <time>2020-09-07T11:00:45Z</time>
      </trkpt>
      <trkpt lat="45.42801" lon="6.21143">
        <ele>1949.69</ele>
        <time>2020-09-07T11:01:26Z</time>
      </trkpt>
      <trkpt lat="45.428" lon="6.21144">
        <ele>1949.21</ele>
        <time>2020-09-07T11:02:07Z</time>
      </trkpt>
      <trkpt lat="45.42802" lon="6.2114">
        <ele>1947.77</ele>
        <time>2020-09-07T11:02:49Z</time>
      </trkpt>
      <trkpt lat="45.42803" lon="6.2114">
        <ele>1946.33</ele>
        <time>2020-09-07T11:02:52Z</time>
      </trkpt>
      <trkpt lat="45.42805" lon="6.2114">
        <ele>1948.25</ele>
        <time>2020-09-07T11:03:27Z</time>
      </trkpt>
      <trkpt lat="45.42804" lon="6.2114">
        <ele>1947.77</ele>
        <time>2020-09-07T11:04:03Z</time>
      </trkpt>
      <trkpt lat="45.42803" lon="6.21139">
        <ele>1947.77</ele>
        <time>2020-09-07T11:04:46Z</time>
      </trkpt>
      <trkpt lat="45.42804" lon="6.2114">
        <ele>1947.77</ele>
        <time>2020-09-07T11:05:41Z</time>
      </trkpt>
      <trkpt lat="45.42804" lon="6.2114">
        <ele>1947.77</ele>
        <time>2020-09-07T11:06:31Z</time>
      </trkpt>
      <trkpt lat="45.42804" lon="6.21141">
        <ele>1947.77</ele>
        <time>2020-09-07T11:07:21Z</time>
      </trkpt>
      <trkpt lat="45.42803" lon="6.21139">
        <ele>1947.77</ele>
        <time>2020-09-07T11:08:13Z</time>
      </trkpt>
      <trkpt lat="45.42803" lon="6.21139">
        <ele>1947.77</ele>
        <time>2020-09-07T11:09:00Z</time>
      </trkpt>
      <trkpt lat="45.42803" lon="6.2114">
        <ele>1947.77</ele>
        <time>2020-09-07T11:09:44Z</time>
      </trkpt>
      <trkpt lat="45.42805" lon="6.21141">
        <ele>1947.77</ele>
        <time>2020-09-07T11:10:18Z</time>
      </trkpt>
      <trkpt lat="45.42799" lon="6.21143">
        <ele>1948.73</ele>
        <time>2020-09-07T11:11:03Z</time>
      </trkpt>
      <trkpt lat="45.42791" lon="6.21145">
        <ele>1948.25</ele>
        <time>2020-09-07T11:11:52Z</time>
      </trkpt>
      <trkpt lat="45.42796" lon="6.21145">
        <ele>1948.25</ele>
        <time>2020-09-07T11:12:40Z</time>
      </trkpt>
      <trkpt lat="45.42793" lon="6.21138">
        <ele>1948.25</ele>
        <time>2020-09-07T11:13:23Z</time>
      </trkpt>
      <trkpt lat="45.42795" lon="6.21142">
        <ele>1948.25</ele>
        <time>2020-09-07T11:14:03Z</time>
      </trkpt>
      <trkpt lat="45.42793" lon="6.21142">
        <ele>1948.25</ele>
        <time>2020-09-07T11:14:49Z</time>
      </trkpt>
      <trkpt lat="45.42797" lon="6.21139">
        <ele>1946.81</ele>
        <time>2020-09-07T11:15:26Z</time>
      </trkpt>
      <trkpt lat="45.42796" lon="6.21141">
        <ele>1945.85</ele>
        <time>2020-09-07T11:16:10Z</time>
      </trkpt>
      <trkpt lat="45.42802" lon="6.21138">
        <ele>1945.85</ele>
        <time>2020-09-07T11:16:51Z</time>
      </trkpt>
      <trkpt lat="45.42807" lon="6.21142">
        <ele>1945.36</ele>
        <time>2020-09-07T11:17:35Z</time>
      </trkpt>
      <trkpt lat="45.42807" lon="6.21139">
        <ele>1945.36</ele>
        <time>2020-09-07T11:18:18Z</time>
      </trkpt>
      <trkpt lat="45.42808" lon="6.21144">
        <ele>1945.36</ele>
        <time>2020-09-07T11:18:55Z</time>
      </trkpt>
      <trkpt lat="45.428" lon="6.2114">
        <ele>1945.36</ele>
        <time>2020-09-07T11:19:08Z</time>
      </trkpt>
      <trkpt lat="45.428" lon="6.21142">
        <ele>1942.96</ele>
        <time>2020-09-07T11:19:31Z</time>
      </trkpt>
      <trkpt lat="45.42798" lon="6.21143">
        <ele>1942</ele>
        <time>2020-09-07T11:19:35Z</time>
      </trkpt>
      <trkpt lat="45.428" lon="6.21142">
        <ele>1945.36</ele>
        <time>2020-09-07T11:19:44Z</time>
      </trkpt>
      <trkpt lat="45.42803" lon="6.21142">
        <ele>1945.36</ele>
        <time>2020-09-07T11:19:56Z</time>
      </trkpt>
      <trkpt lat="45.42804" lon="6.2114">
        <ele>1945.36</ele>
        <time>2020-09-07T11:19:59Z</time>
      </trkpt>
      <trkpt lat="45.42803" lon="6.21141">
        <ele>1950.17</ele>
        <time>2020-09-07T11:20:07Z</time>
      </trkpt>
      <trkpt lat="45.42802" lon="6.21141">
        <ele>1952.57</ele>
        <time>2020-09-07T11:20:10Z</time>
      </trkpt>
      <trkpt lat="45.42802" lon="6.21141">
        <ele>1949.21</ele>
        <time>2020-09-07T11:20:17Z</time>
      </trkpt>
      <trkpt lat="45.42802" lon="6.2114">
        <ele>1945.85</ele>
        <time>2020-09-07T11:20:30Z</time>
      </trkpt>
      <trkpt lat="45.42803" lon="6.21143">
        <ele>1944.88</ele>
        <time>2020-09-07T11:21:09Z</time>
      </trkpt>
      <trkpt lat="45.428" lon="6.21143">
        <ele>1943.92</ele>
        <time>2020-09-07T11:21:52Z</time>
      </trkpt>
      <trkpt lat="45.42799" lon="6.21144">
        <ele>1937.19</ele>
        <time>2020-09-07T11:22:21Z</time>
      </trkpt>
      <trkpt lat="45.42799" lon="6.21144">
        <ele>1933.35</ele>
        <time>2020-09-07T11:22:22Z</time>
      </trkpt>
      <trkpt lat="45.42799" lon="6.21143">
        <ele>1937.19</ele>
        <time>2020-09-07T11:22:27Z</time>
      </trkpt>
      <trkpt lat="45.428" lon="6.21143">
        <ele>1942.48</ele>
        <time>2020-09-07T11:22:28Z</time>
      </trkpt>
      <trkpt lat="45.428" lon="6.21143">
        <ele>1946.33</ele>
        <time>2020-09-07T11:22:29Z</time>
      </trkpt>
      <trkpt lat="45.428" lon="6.21144">
        <ele>1949.69</ele>
        <time>2020-09-07T11:22:31Z</time>
      </trkpt>
      <trkpt lat="45.428" lon="6.21144">
        <ele>1949.69</ele>
        <time>2020-09-07T11:22:32Z</time>
      </trkpt>
      <trkpt lat="45.428" lon="6.21144">
        <ele>1944.88</ele>
        <time>2020-09-07T11:22:34Z</time>
      </trkpt>
      <trkpt lat="45.428" lon="6.21144">
        <ele>1941.52</ele>
        <time>2020-09-07T11:22:36Z</time>
      </trkpt>
      <trkpt lat="45.42802" lon="6.21143">
        <ele>1944.88</ele>
        <time>2020-09-07T11:22:48Z</time>
      </trkpt>
      <trkpt lat="45.42802" lon="6.21143">
        <ele>1941.52</ele>
        <time>2020-09-07T11:22:55Z</time>
      </trkpt>
      <trkpt lat="45.42801" lon="6.21142">
        <ele>1947.77</ele>
        <time>2020-09-07T11:23:18Z</time>
      </trkpt>
      <trkpt lat="45.42801" lon="6.21142">
        <ele>1951.61</ele>
        <time>2020-09-07T11:23:20Z</time>
      </trkpt>
      <trkpt lat="45.42802" lon="6.21142">
        <ele>1949.21</ele>
        <time>2020-09-07T11:23:25Z</time>
      </trkpt>
      <trkpt lat="45.42802" lon="6.21145">
        <ele>1946.33</ele>
        <time>2020-09-07T11:23:38Z</time>
      </trkpt>
      <trkpt lat="45.42802" lon="6.21142">
        <ele>1944.88</ele>
        <time>2020-09-07T11:24:24Z</time>
      </trkpt>
      <trkpt lat="45.42802" lon="6.21141">
        <ele>1939.6</ele>
        <time>2020-09-07T11:24:58Z</time>
      </trkpt>
      <trkpt lat="45.42803" lon="6.21141">
        <ele>1935.75</ele>
        <time>2020-09-07T11:25:01Z</time>
      </trkpt>
      <trkpt lat="45.42802" lon="6.21141">
        <ele>1941.04</ele>
        <time>2020-09-07T11:25:05Z</time>
      </trkpt>
      <trkpt lat="45.42802" lon="6.21141">
        <ele>1945.85</ele>
        <time>2020-09-07T11:25:06Z</time>
      </trkpt>
      <trkpt lat="45.42805" lon="6.21145">
        <ele>1945.36</ele>
        <time>2020-09-07T11:25:49Z</time>
      </trkpt>
      <trkpt lat="45.42802" lon="6.21143">
        <ele>1945.36</ele>
        <time>2020-09-07T11:26:43Z</time>
      </trkpt>
      <trkpt lat="45.42801" lon="6.21141">
        <ele>1945.36</ele>
        <time>2020-09-07T11:27:34Z</time>
      </trkpt>
      <trkpt lat="45.42803" lon="6.2114">
        <ele>1945.36</ele>
        <time>2020-09-07T11:28:13Z</time>
      </trkpt>
      <trkpt lat="45.42799" lon="6.21142">
        <ele>1945.36</ele>
        <time>2020-09-07T11:28:49Z</time>
      </trkpt>
      <trkpt lat="45.42799" lon="6.21142">
        <ele>1945.36</ele>
        <time>2020-09-07T11:29:29Z</time>
      </trkpt>
      <trkpt lat="45.42798" lon="6.21142">
        <ele>1945.36</ele>
        <time>2020-09-07T11:30:07Z</time>
      </trkpt>
      <trkpt lat="45.42799" lon="6.21143">
        <ele>1945.36</ele>
        <time>2020-09-07T11:30:15Z</time>
      </trkpt>
      <trkpt lat="45.42798" lon="6.21141">
        <ele>1945.36</ele>
        <time>2020-09-07T11:31:01Z</time>
      </trkpt>
      <trkpt lat="45.42802" lon="6.21141">
        <ele>1945.36</ele>
        <time>2020-09-07T11:31:43Z</time>
      </trkpt>
      <trkpt lat="45.42802" lon="6.21141">
        <ele>1945.36</ele>
        <time>2020-09-07T11:32:11Z</time>
      </trkpt>
      <trkpt lat="45.42802" lon="6.2114">
        <ele>1945.36</ele>
        <time>2020-09-07T11:32:45Z</time>
      </trkpt>
      <trkpt lat="45.42799" lon="6.21139">
        <ele>1945.36</ele>
        <time>2020-09-07T11:33:26Z</time>
      </trkpt>
      <trkpt lat="45.42803" lon="6.2114">
        <ele>1945.36</ele>
        <time>2020-09-07T11:34:04Z</time>
      </trkpt>
      <trkpt lat="45.42802" lon="6.21141">
        <ele>1945.36</ele>
        <time>2020-09-07T11:34:50Z</time>
      </trkpt>
      <trkpt lat="45.42802" lon="6.2114">
        <ele>1945.36</ele>
        <time>2020-09-07T11:35:34Z</time>
      </trkpt>
      <trkpt lat="45.428" lon="6.2114">
        <ele>1945.36</ele>
        <time>2020-09-07T11:36:24Z</time>
      </trkpt>
      <trkpt lat="45.42803" lon="6.21142">
        <ele>1945.36</ele>
        <time>2020-09-07T11:37:05Z</time>
      </trkpt>
      <trkpt lat="45.42807" lon="6.2114">
        <ele>1945.36</ele>
        <time>2020-09-07T11:37:44Z</time>
      </trkpt>
      <trkpt lat="45.42805" lon="6.21142">
        <ele>1945.36</ele>
        <time>2020-09-07T11:38:17Z</time>
      </trkpt>
      <trkpt lat="45.42809" lon="6.2114">
        <ele>1945.36</ele>
        <time>2020-09-07T11:39:09Z</time>
      </trkpt>
      <trkpt lat="45.42806" lon="6.21141">
        <ele>1945.36</ele>
        <time>2020-09-07T11:39:53Z</time>
      </trkpt>
      <trkpt lat="45.42804" lon="6.21143">
        <ele>1947.29</ele>
        <time>2020-09-07T11:40:10Z</time>
      </trkpt>
      <trkpt lat="45.42806" lon="6.21142">
        <ele>1945.85</ele>
        <time>2020-09-07T11:40:56Z</time>
      </trkpt>
      <trkpt lat="45.42807" lon="6.2114">
        <ele>1945.85</ele>
        <time>2020-09-07T11:41:39Z</time>
      </trkpt>
      <trkpt lat="45.42804" lon="6.2114">
        <ele>1945.85</ele>
        <time>2020-09-07T11:42:24Z</time>
      </trkpt>
      <trkpt lat="45.42803" lon="6.21141">
        <ele>1945.85</ele>
        <time>2020-09-07T11:43:14Z</time>
      </trkpt>
      <trkpt lat="45.42803" lon="6.21141">
        <ele>1945.85</ele>
        <time>2020-09-07T11:43:47Z</time>
      </trkpt>
      <trkpt lat="45.42805" lon="6.21139">
        <ele>1945.85</ele>
        <time>2020-09-07T11:44:26Z</time>
      </trkpt>
      <trkpt lat="45.42804" lon="6.21141">
        <ele>1945.85</ele>
        <time>2020-09-07T11:44:50Z</time>
      </trkpt>
      <trkpt lat="45.42803" lon="6.2114">
        <ele>1945.85</ele>
        <time>2020-09-07T11:45:27Z</time>
      </trkpt>
      <trkpt lat="45.42804" lon="6.21139">
        <ele>1945.85</ele>
        <time>2020-09-07T11:45:53Z</time>
      </trkpt>
      <trkpt lat="45.42803" lon="6.2114">
        <ele>1945.85</ele>
        <time>2020-09-07T11:46:22Z</time>
      </trkpt>
      <trkpt lat="45.42803" lon="6.2114">
        <ele>1948.73</ele>
        <time>2020-09-07T11:46:24Z</time>
      </trkpt>
      <trkpt lat="45.42807" lon="6.21134">
        <ele>1949.21</ele>
        <time>2020-09-07T11:46:39Z</time>
      </trkpt>
      <trkpt lat="45.4281" lon="6.21129">
        <ele>1949.69</ele>
        <time>2020-09-07T11:46:51Z</time>
      </trkpt>
      <trkpt lat="45.42814" lon="6.2112">
        <ele>1953.06</ele>
        <time>2020-09-07T11:47:07Z</time>
      </trkpt>
      <trkpt lat="45.4282" lon="6.21113">
        <ele>1955.94</ele>
        <time>2020-09-07T11:47:22Z</time>
      </trkpt>
      <trkpt lat="45.42827" lon="6.2111">
        <ele>1958.82</ele>
        <time>2020-09-07T11:47:37Z</time>
      </trkpt>
      <trkpt lat="45.42835" lon="6.21107">
        <ele>1961.71</ele>
        <time>2020-09-07T11:47:55Z</time>
      </trkpt>
      <trkpt lat="45.42841" lon="6.21102">
        <ele>1963.15</ele>
        <time>2020-09-07T11:48:09Z</time>
      </trkpt>
      <trkpt lat="45.42845" lon="6.21096">
        <ele>1965.55</ele>
        <time>2020-09-07T11:48:23Z</time>
      </trkpt>
      <trkpt lat="45.42848" lon="6.21093">
        <ele>1967.48</ele>
        <time>2020-09-07T11:48:37Z</time>
      </trkpt>
      <trkpt lat="45.42849" lon="6.21093">
        <ele>1967.96</ele>
        <time>2020-09-07T11:48:39Z</time>
      </trkpt>
      <trkpt lat="45.42854" lon="6.21087">
        <ele>1970.36</ele>
        <time>2020-09-07T11:48:57Z</time>
      </trkpt>
      <trkpt lat="45.42857" lon="6.21083">
        <ele>1972.76</ele>
        <time>2020-09-07T11:49:11Z</time>
      </trkpt>
      <trkpt lat="45.42861" lon="6.21079">
        <ele>1974.69</ele>
        <time>2020-09-07T11:49:24Z</time>
      </trkpt>
      <trkpt lat="45.42868" lon="6.21076">
        <ele>1977.09</ele>
        <time>2020-09-07T11:49:39Z</time>
      </trkpt>
      <trkpt lat="45.42879" lon="6.21071">
        <ele>1979.49</ele>
        <time>2020-09-07T11:49:58Z</time>
      </trkpt>
      <trkpt lat="45.4288" lon="6.2107">
        <ele>1979.97</ele>
        <time>2020-09-07T11:50:00Z</time>
      </trkpt>
      <trkpt lat="45.42892" lon="6.21063">
        <ele>1982.38</ele>
        <time>2020-09-07T11:50:20Z</time>
      </trkpt>
      <trkpt lat="45.42899" lon="6.21059">
        <ele>1985.26</ele>
        <time>2020-09-07T11:50:37Z</time>
      </trkpt>
      <trkpt lat="45.42906" lon="6.21057">
        <ele>1988.14</ele>
        <time>2020-09-07T11:50:54Z</time>
      </trkpt>
      <trkpt lat="45.42911" lon="6.21054">
        <ele>1990.55</ele>
        <time>2020-09-07T11:51:08Z</time>
      </trkpt>
      <trkpt lat="45.42917" lon="6.2105">
        <ele>1993.43</ele>
        <time>2020-09-07T11:51:25Z</time>
      </trkpt>
      <trkpt lat="45.42924" lon="6.21044">
        <ele>1996.8</ele>
        <time>2020-09-07T11:51:42Z</time>
      </trkpt>
      <trkpt lat="45.42929" lon="6.21039">
        <ele>1999.68</ele>
        <time>2020-09-07T11:51:57Z</time>
      </trkpt>
      <trkpt lat="45.42935" lon="6.21033">
        <ele>2002.56</ele>
        <time>2020-09-07T11:52:09Z</time>
      </trkpt>
      <trkpt lat="45.42943" lon="6.21025">
        <ele>2004.97</ele>
        <time>2020-09-07T11:52:24Z</time>
      </trkpt>
      <trkpt lat="45.42954" lon="6.21017">
        <ele>2007.85</ele>
        <time>2020-09-07T11:52:41Z</time>
      </trkpt>
      <trkpt lat="45.42962" lon="6.21011">
        <ele>2010.25</ele>
        <time>2020-09-07T11:52:55Z</time>
      </trkpt>
      <trkpt lat="45.4297" lon="6.21004">
        <ele>2013.14</ele>
        <time>2020-09-07T11:53:12Z</time>
      </trkpt>
      <trkpt lat="45.42979" lon="6.20995">
        <ele>2015.54</ele>
        <time>2020-09-07T11:53:27Z</time>
      </trkpt>
      <trkpt lat="45.42989" lon="6.20987">
        <ele>2017.94</ele>
        <time>2020-09-07T11:53:42Z</time>
      </trkpt>
      <trkpt lat="45.42998" lon="6.20978">
        <ele>2019.87</ele>
        <time>2020-09-07T11:53:57Z</time>
      </trkpt>
      <trkpt lat="45.43009" lon="6.20964">
        <ele>2019.87</ele>
        <time>2020-09-07T11:54:13Z</time>
      </trkpt>
      <trkpt lat="45.43017" lon="6.20951">
        <ele>2021.31</ele>
        <time>2020-09-07T11:54:30Z</time>
      </trkpt>
      <trkpt lat="45.43025" lon="6.20938">
        <ele>2022.27</ele>
        <time>2020-09-07T11:54:46Z</time>
      </trkpt>
      <trkpt lat="45.43032" lon="6.20919">
        <ele>2025.15</ele>
        <time>2020-09-07T11:55:05Z</time>
      </trkpt>
      <trkpt lat="45.43038" lon="6.20899">
        <ele>2027.08</ele>
        <time>2020-09-07T11:55:23Z</time>
      </trkpt>
      <trkpt lat="45.43046" lon="6.20889">
        <ele>2029</ele>
        <time>2020-09-07T11:55:39Z</time>
      </trkpt>
      <trkpt lat="45.43053" lon="6.20877">
        <ele>2032.36</ele>
        <time>2020-09-07T11:55:57Z</time>
      </trkpt>
      <trkpt lat="45.43053" lon="6.20878">
        <ele>2033.81</ele>
        <time>2020-09-07T11:56:19Z</time>
      </trkpt>
      <trkpt lat="45.43053" lon="6.20879">
        <ele>2033.81</ele>
        <time>2020-09-07T11:56:38Z</time>
      </trkpt>
      <trkpt lat="45.43053" lon="6.20879">
        <ele>2033.33</ele>
        <time>2020-09-07T11:57:19Z</time>
      </trkpt>
      <trkpt lat="45.43053" lon="6.20879">
        <ele>2033.33</ele>
        <time>2020-09-07T11:57:50Z</time>
      </trkpt>
      <trkpt lat="45.43053" lon="6.20878">
        <ele>2033.33</ele>
        <time>2020-09-07T11:58:25Z</time>
      </trkpt>
      <trkpt lat="45.43053" lon="6.20877">
        <ele>2033.33</ele>
        <time>2020-09-07T11:58:45Z</time>
      </trkpt>
      <trkpt lat="45.43055" lon="6.20871">
        <ele>2033.33</ele>
        <time>2020-09-07T11:59:24Z</time>
      </trkpt>
      <trkpt lat="45.43063" lon="6.2086">
        <ele>2033.33</ele>
        <time>2020-09-07T11:59:41Z</time>
      </trkpt>
      <trkpt lat="45.43066" lon="6.20858">
        <ele>2033.33</ele>
        <time>2020-09-07T11:59:45Z</time>
      </trkpt>
      <trkpt lat="45.43067" lon="6.20858">
        <ele>2033.33</ele>
        <time>2020-09-07T11:59:46Z</time>
      </trkpt>
      <trkpt lat="45.4308" lon="6.20847">
        <ele>2034.77</ele>
        <time>2020-09-07T12:00:02Z</time>
      </trkpt>
      <trkpt lat="45.43094" lon="6.20832">
        <ele>2036.21</ele>
        <time>2020-09-07T12:00:19Z</time>
      </trkpt>
      <trkpt lat="45.43096" lon="6.2083">
        <ele>2036.69</ele>
        <time>2020-09-07T12:00:22Z</time>
      </trkpt>
      <trkpt lat="45.43109" lon="6.20815">
        <ele>2037.65</ele>
        <time>2020-09-07T12:00:38Z</time>
      </trkpt>
      <trkpt lat="45.43124" lon="6.20803">
        <ele>2038.13</ele>
        <time>2020-09-07T12:00:55Z</time>
      </trkpt>
      <trkpt lat="45.43135" lon="6.20794">
        <ele>2038.13</ele>
        <time>2020-09-07T12:01:13Z</time>
      </trkpt>
      <trkpt lat="45.43136" lon="6.20795">
        <ele>2038.61</ele>
        <time>2020-09-07T12:01:39Z</time>
      </trkpt>
      <trkpt lat="45.43139" lon="6.20794">
        <ele>2038.13</ele>
        <time>2020-09-07T12:02:18Z</time>
      </trkpt>
      <trkpt lat="45.43135" lon="6.20795">
        <ele>2038.13</ele>
        <time>2020-09-07T12:02:57Z</time>
      </trkpt>
      <trkpt lat="45.43138" lon="6.20789">
        <ele>2038.13</ele>
        <time>2020-09-07T12:03:26Z</time>
      </trkpt>
      <trkpt lat="45.43144" lon="6.20777">
        <ele>2037.17</ele>
        <time>2020-09-07T12:03:43Z</time>
      </trkpt>
      <trkpt lat="45.43149" lon="6.20756">
        <ele>2034.29</ele>
        <time>2020-09-07T12:04:02Z</time>
      </trkpt>
      <trkpt lat="45.43155" lon="6.20737">
        <ele>2030.44</ele>
        <time>2020-09-07T12:04:19Z</time>
      </trkpt>
      <trkpt lat="45.43156" lon="6.20734">
        <ele>2027.56</ele>
        <time>2020-09-07T12:04:22Z</time>
      </trkpt>
      <trkpt lat="45.43156" lon="6.20734">
        <ele>2027.08</ele>
        <time>2020-09-07T12:04:23Z</time>
      </trkpt>
      <trkpt lat="45.43157" lon="6.20731">
        <ele>2031.4</ele>
        <time>2020-09-07T12:04:26Z</time>
      </trkpt>
      <trkpt lat="45.43159" lon="6.20729">
        <ele>2032.36</ele>
        <time>2020-09-07T12:04:28Z</time>
      </trkpt>
      <trkpt lat="45.43167" lon="6.20722">
        <ele>2029</ele>
        <time>2020-09-07T12:04:43Z</time>
      </trkpt>
      <trkpt lat="45.43171" lon="6.2072">
        <ele>2027.56</ele>
        <time>2020-09-07T12:04:49Z</time>
      </trkpt>
      <trkpt lat="45.43178" lon="6.20712">
        <ele>2024.19</ele>
        <time>2020-09-07T12:05:01Z</time>
      </trkpt>
      <trkpt lat="45.43182" lon="6.20707">
        <ele>2022.27</ele>
        <time>2020-09-07T12:05:08Z</time>
      </trkpt>
      <trkpt lat="45.43187" lon="6.20699">
        <ele>2019.39</ele>
        <time>2020-09-07T12:05:16Z</time>
      </trkpt>
      <trkpt lat="45.43191" lon="6.2069">
        <ele>2016.02</ele>
        <time>2020-09-07T12:05:27Z</time>
      </trkpt>
      <trkpt lat="45.43198" lon="6.20681">
        <ele>2012.66</ele>
        <time>2020-09-07T12:05:39Z</time>
      </trkpt>
      <trkpt lat="45.43203" lon="6.20674">
        <ele>2009.77</ele>
        <time>2020-09-07T12:05:50Z</time>
      </trkpt>
      <trkpt lat="45.43208" lon="6.20665">
        <ele>2006.89</ele>
        <time>2020-09-07T12:06:04Z</time>
      </trkpt>
      <trkpt lat="45.43215" lon="6.20658">
        <ele>2004.01</ele>
        <time>2020-09-07T12:06:15Z</time>
      </trkpt>
      <trkpt lat="45.43222" lon="6.20651">
        <ele>2000.64</ele>
        <time>2020-09-07T12:06:28Z</time>
      </trkpt>
      <trkpt lat="45.43232" lon="6.20641">
        <ele>1997.28</ele>
        <time>2020-09-07T12:06:47Z</time>
      </trkpt>
      <trkpt lat="45.43236" lon="6.20636">
        <ele>1995.35</ele>
        <time>2020-09-07T12:06:54Z</time>
      </trkpt>
      <trkpt lat="45.43244" lon="6.20621">
        <ele>1992.95</ele>
        <time>2020-09-07T12:07:08Z</time>
      </trkpt>
      <trkpt lat="45.43247" lon="6.20606">
        <ele>1990.07</ele>
        <time>2020-09-07T12:07:25Z</time>
      </trkpt>
      <trkpt lat="45.43254" lon="6.20597">
        <ele>1987.66</ele>
        <time>2020-09-07T12:07:40Z</time>
      </trkpt>
      <trkpt lat="45.43259" lon="6.20587">
        <ele>1984.3</ele>
        <time>2020-09-07T12:07:54Z</time>
      </trkpt>
      <trkpt lat="45.43264" lon="6.20577">
        <ele>1981.41</ele>
        <time>2020-09-07T12:08:07Z</time>
      </trkpt>
      <trkpt lat="45.43268" lon="6.20567">
        <ele>1978.05</ele>
        <time>2020-09-07T12:08:19Z</time>
      </trkpt>
      <trkpt lat="45.43272" lon="6.20559">
        <ele>1975.65</ele>
        <time>2020-09-07T12:08:28Z</time>
      </trkpt>
      <trkpt lat="45.43277" lon="6.20545">
        <ele>1972.28</ele>
        <time>2020-09-07T12:08:42Z</time>
      </trkpt>
      <trkpt lat="45.43281" lon="6.20531">
        <ele>1969.4</ele>
        <time>2020-09-07T12:08:55Z</time>
      </trkpt>
      <trkpt lat="45.43282" lon="6.2053">
        <ele>1968.92</ele>
        <time>2020-09-07T12:08:56Z</time>
      </trkpt>
      <trkpt lat="45.43292" lon="6.20508">
        <ele>1966.51</ele>
        <time>2020-09-07T12:09:14Z</time>
      </trkpt>
      <trkpt lat="45.43296" lon="6.20493">
        <ele>1964.59</ele>
        <time>2020-09-07T12:09:27Z</time>
      </trkpt>
      <trkpt lat="45.43297" lon="6.20483">
        <ele>1963.15</ele>
        <time>2020-09-07T12:09:35Z</time>
      </trkpt>
      <trkpt lat="45.43299" lon="6.2048">
        <ele>1962.67</ele>
        <time>2020-09-07T12:09:37Z</time>
      </trkpt>
      <trkpt lat="45.43302" lon="6.20466">
        <ele>1961.23</ele>
        <time>2020-09-07T12:09:50Z</time>
      </trkpt>
      <trkpt lat="45.43308" lon="6.20444">
        <ele>1959.3</ele>
        <time>2020-09-07T12:10:08Z</time>
      </trkpt>
      <trkpt lat="45.4331" lon="6.20438">
        <ele>1955.46</ele>
        <time>2020-09-07T12:10:14Z</time>
      </trkpt>
      <trkpt lat="45.43311" lon="6.20436">
        <ele>1952.57</ele>
        <time>2020-09-07T12:10:17Z</time>
      </trkpt>
      <trkpt lat="45.43311" lon="6.20433">
        <ele>1956.42</ele>
        <time>2020-09-07T12:10:20Z</time>
      </trkpt>
      <trkpt lat="45.43312" lon="6.20429">
        <ele>1958.34</ele>
        <time>2020-09-07T12:10:24Z</time>
      </trkpt>
      <trkpt lat="45.43316" lon="6.20412">
        <ele>1956.42</ele>
        <time>2020-09-07T12:10:39Z</time>
      </trkpt>
      <trkpt lat="45.43316" lon="6.2041">
        <ele>1956.42</ele>
        <time>2020-09-07T12:10:40Z</time>
      </trkpt>
      <trkpt lat="45.43317" lon="6.20409">
        <ele>1955.94</ele>
        <time>2020-09-07T12:10:41Z</time>
      </trkpt>
      <trkpt lat="45.43324" lon="6.20394">
        <ele>1955.46</ele>
        <time>2020-09-07T12:10:57Z</time>
      </trkpt>
      <trkpt lat="45.43327" lon="6.2039">
        <ele>1955.46</ele>
        <time>2020-09-07T12:11:01Z</time>
      </trkpt>
      <trkpt lat="45.4334" lon="6.20372">
        <ele>1954.98</ele>
        <time>2020-09-07T12:11:19Z</time>
      </trkpt>
      <trkpt lat="45.43343" lon="6.20368">
        <ele>1954.5</ele>
        <time>2020-09-07T12:11:24Z</time>
      </trkpt>
      <trkpt lat="45.43349" lon="6.20364">
        <ele>1954.02</ele>
        <time>2020-09-07T12:11:31Z</time>
      </trkpt>
      <trkpt lat="45.4336" lon="6.20345">
        <ele>1951.61</ele>
        <time>2020-09-07T12:11:48Z</time>
      </trkpt>
      <trkpt lat="45.43361" lon="6.20342">
        <ele>1951.61</ele>
        <time>2020-09-07T12:11:51Z</time>
      </trkpt>
      <trkpt lat="45.43362" lon="6.20341">
        <ele>1951.61</ele>
        <time>2020-09-07T12:11:52Z</time>
      </trkpt>
      <trkpt lat="45.43363" lon="6.20341">
        <ele>1951.61</ele>
        <time>2020-09-07T12:11:53Z</time>
      </trkpt>
      <trkpt lat="45.43366" lon="6.20337">
        <ele>1949.21</ele>
        <time>2020-09-07T12:12:07Z</time>
      </trkpt>
      <trkpt lat="45.43368" lon="6.20338">
        <ele>1993.43</ele>
        <time>2020-09-07T12:13:34Z</time>
      </trkpt>
      <trkpt lat="45.43369" lon="6.20337">
        <ele>1948.25</ele>
        <time>2020-09-07T12:13:35Z</time>
      </trkpt>
      <trkpt lat="45.43372" lon="6.20335">
        <ele>1948.25</ele>
        <time>2020-09-07T12:13:38Z</time>
      </trkpt>
      <trkpt lat="45.43373" lon="6.20334">
        <ele>1947.77</ele>
        <time>2020-09-07T12:13:39Z</time>
      </trkpt>
      <trkpt lat="45.43385" lon="6.20322">
        <ele>1948.25</ele>
        <time>2020-09-07T12:13:52Z</time>
      </trkpt>
      <trkpt lat="45.43393" lon="6.20309">
        <ele>1948.73</ele>
        <time>2020-09-07T12:14:06Z</time>
      </trkpt>
      <trkpt lat="45.43401" lon="6.20303">
        <ele>1948.25</ele>
        <time>2020-09-07T12:14:17Z</time>
      </trkpt>
      <trkpt lat="45.43402" lon="6.20302">
        <ele>1948.25</ele>
        <time>2020-09-07T12:14:18Z</time>
      </trkpt>
      <trkpt lat="45.43415" lon="6.20291">
        <ele>1947.29</ele>
        <time>2020-09-07T12:14:34Z</time>
      </trkpt>
      <trkpt lat="45.43415" lon="6.20289">
        <ele>1947.29</ele>
        <time>2020-09-07T12:14:35Z</time>
      </trkpt>
      <trkpt lat="45.43425" lon="6.20273">
        <ele>1946.81</ele>
        <time>2020-09-07T12:14:51Z</time>
      </trkpt>
      <trkpt lat="45.43435" lon="6.20263">
        <ele>1945.36</ele>
        <time>2020-09-07T12:15:04Z</time>
      </trkpt>
      <trkpt lat="45.43445" lon="6.20253">
        <ele>1942.48</ele>
        <time>2020-09-07T12:15:20Z</time>
      </trkpt>
      <trkpt lat="45.43456" lon="6.20247">
        <ele>1940.08</ele>
        <time>2020-09-07T12:15:36Z</time>
      </trkpt>
      <trkpt lat="45.43468" lon="6.20241">
        <ele>1937.19</ele>
        <time>2020-09-07T12:15:50Z</time>
      </trkpt>
      <trkpt lat="45.43481" lon="6.20236">
        <ele>1934.31</ele>
        <time>2020-09-07T12:16:06Z</time>
      </trkpt>
      <trkpt lat="45.43486" lon="6.2023">
        <ele>1931.43</ele>
        <time>2020-09-07T12:16:18Z</time>
      </trkpt>
      <trkpt lat="45.43491" lon="6.20219">
        <ele>1928.54</ele>
        <time>2020-09-07T12:16:31Z</time>
      </trkpt>
      <trkpt lat="45.43497" lon="6.2021">
        <ele>1925.18</ele>
        <time>2020-09-07T12:16:44Z</time>
      </trkpt>
      <trkpt lat="45.43497" lon="6.20208">
        <ele>1924.7</ele>
        <time>2020-09-07T12:16:48Z</time>
      </trkpt>
      <trkpt lat="45.43498" lon="6.20207">
        <ele>1924.7</ele>
        <time>2020-09-07T12:16:49Z</time>
      </trkpt>
      <trkpt lat="45.43498" lon="6.20205">
        <ele>1924.22</ele>
        <time>2020-09-07T12:16:50Z</time>
      </trkpt>
      <trkpt lat="45.43498" lon="6.20203">
        <ele>1924.22</ele>
        <time>2020-09-07T12:16:51Z</time>
      </trkpt>
      <trkpt lat="45.43499" lon="6.20202">
        <ele>1924.22</ele>
        <time>2020-09-07T12:16:52Z</time>
      </trkpt>
      <trkpt lat="45.43502" lon="6.20195">
        <ele>1923.25</ele>
        <time>2020-09-07T12:16:57Z</time>
      </trkpt>
      <trkpt lat="45.43503" lon="6.20195">
        <ele>1922.77</ele>
        <time>2020-09-07T12:16:58Z</time>
      </trkpt>
      <trkpt lat="45.43503" lon="6.20193">
        <ele>1922.77</ele>
        <time>2020-09-07T12:16:59Z</time>
      </trkpt>
      <trkpt lat="45.43504" lon="6.20192">
        <ele>1922.77</ele>
        <time>2020-09-07T12:17:00Z</time>
      </trkpt>
      <trkpt lat="45.43505" lon="6.20191">
        <ele>1922.77</ele>
        <time>2020-09-07T12:17:01Z</time>
      </trkpt>
      <trkpt lat="45.43517" lon="6.20173">
        <ele>1919.89</ele>
        <time>2020-09-07T12:17:16Z</time>
      </trkpt>
      <trkpt lat="45.43529" lon="6.20156">
        <ele>1917.01</ele>
        <time>2020-09-07T12:17:32Z</time>
      </trkpt>
      <trkpt lat="45.43535" lon="6.20137">
        <ele>1914.12</ele>
        <time>2020-09-07T12:17:48Z</time>
      </trkpt>
      <trkpt lat="45.4354" lon="6.20124">
        <ele>1911.24</ele>
        <time>2020-09-07T12:18:00Z</time>
      </trkpt>
      <trkpt lat="45.43542" lon="6.20118">
        <ele>1909.8</ele>
        <time>2020-09-07T12:18:05Z</time>
      </trkpt>
      <trkpt lat="45.43543" lon="6.20117">
        <ele>1909.8</ele>
        <time>2020-09-07T12:18:06Z</time>
      </trkpt>
      <trkpt lat="45.43543" lon="6.20115">
        <ele>1909.32</ele>
        <time>2020-09-07T12:18:07Z</time>
      </trkpt>
      <trkpt lat="45.43544" lon="6.20114">
        <ele>1909.32</ele>
        <time>2020-09-07T12:18:08Z</time>
      </trkpt>
      <trkpt lat="45.43545" lon="6.20113">
        <ele>1908.83</ele>
        <time>2020-09-07T12:18:09Z</time>
      </trkpt>
      <trkpt lat="45.43551" lon="6.201">
        <ele>1905.95</ele>
        <time>2020-09-07T12:18:24Z</time>
      </trkpt>
      <trkpt lat="45.43557" lon="6.20092">
        <ele>1902.59</ele>
        <time>2020-09-07T12:18:38Z</time>
      </trkpt>
      <trkpt lat="45.43559" lon="6.2009">
        <ele>1901.14</ele>
        <time>2020-09-07T12:18:41Z</time>
      </trkpt>
      <trkpt lat="45.43565" lon="6.20083">
        <ele>1898.26</ele>
        <time>2020-09-07T12:18:53Z</time>
      </trkpt>
      <trkpt lat="45.43565" lon="6.20081">
        <ele>1898.26</ele>
        <time>2020-09-07T12:18:54Z</time>
      </trkpt>
      <trkpt lat="45.43566" lon="6.20076">
        <ele>1897.3</ele>
        <time>2020-09-07T12:18:58Z</time>
      </trkpt>
      <trkpt lat="45.43565" lon="6.20059">
        <ele>1893.93</ele>
        <time>2020-09-07T12:19:10Z</time>
      </trkpt>
      <trkpt lat="45.43565" lon="6.20055">
        <ele>1892.49</ele>
        <time>2020-09-07T12:19:13Z</time>
      </trkpt>
      <trkpt lat="45.43566" lon="6.20035">
        <ele>1892.01</ele>
        <time>2020-09-07T12:19:28Z</time>
      </trkpt>
      <trkpt lat="45.43568" lon="6.20027">
        <ele>1889.61</ele>
        <time>2020-09-07T12:19:34Z</time>
      </trkpt>
      <trkpt lat="45.43573" lon="6.20011">
        <ele>1886.24</ele>
        <time>2020-09-07T12:19:48Z</time>
      </trkpt>
      <trkpt lat="45.43572" lon="6.19999">
        <ele>1883.84</ele>
        <time>2020-09-07T12:19:59Z</time>
      </trkpt>
      <trkpt lat="45.43576" lon="6.1999">
        <ele>1880.96</ele>
        <time>2020-09-07T12:20:10Z</time>
      </trkpt>
      <trkpt lat="45.43574" lon="6.19981">
        <ele>1877.59</ele>
        <time>2020-09-07T12:20:19Z</time>
      </trkpt>
      <trkpt lat="45.43575" lon="6.19971">
        <ele>1874.71</ele>
        <time>2020-09-07T12:20:30Z</time>
      </trkpt>
      <trkpt lat="45.43584" lon="6.19964">
        <ele>1871.34</ele>
        <time>2020-09-07T12:20:44Z</time>
      </trkpt>
      <trkpt lat="45.43584" lon="6.19963">
        <ele>1868.94</ele>
        <time>2020-09-07T12:21:08Z</time>
      </trkpt>
      <trkpt lat="45.43587" lon="6.19958">
        <ele>1868.46</ele>
        <time>2020-09-07T12:21:39Z</time>
      </trkpt>
      <trkpt lat="45.43592" lon="6.1995">
        <ele>1866.06</ele>
        <time>2020-09-07T12:21:54Z</time>
      </trkpt>
      <trkpt lat="45.43591" lon="6.19935">
        <ele>1863.17</ele>
        <time>2020-09-07T12:22:08Z</time>
      </trkpt>
      <trkpt lat="45.43593" lon="6.19924">
        <ele>1860.29</ele>
        <time>2020-09-07T12:22:18Z</time>
      </trkpt>
      <trkpt lat="45.43598" lon="6.1991">
        <ele>1857.4</ele>
        <time>2020-09-07T12:22:30Z</time>
      </trkpt>
      <trkpt lat="45.43599" lon="6.19901">
        <ele>1855</ele>
        <time>2020-09-07T12:22:41Z</time>
      </trkpt>
      <trkpt lat="45.43606" lon="6.19891">
        <ele>1851.64</ele>
        <time>2020-09-07T12:22:55Z</time>
      </trkpt>
      <trkpt lat="45.43613" lon="6.19882">
        <ele>1848.75</ele>
        <time>2020-09-07T12:23:07Z</time>
      </trkpt>
      <trkpt lat="45.4362" lon="6.19874">
        <ele>1845.39</ele>
        <time>2020-09-07T12:23:19Z</time>
      </trkpt>
      <trkpt lat="45.43622" lon="6.19872">
        <ele>1844.91</ele>
        <time>2020-09-07T12:23:21Z</time>
      </trkpt>
      <trkpt lat="45.43626" lon="6.19859">
        <ele>1842.02</ele>
        <time>2020-09-07T12:23:34Z</time>
      </trkpt>
      <trkpt lat="45.43627" lon="6.19855">
        <ele>1841.06</ele>
        <time>2020-09-07T12:23:37Z</time>
      </trkpt>
      <trkpt lat="45.43633" lon="6.19843">
        <ele>1838.18</ele>
        <time>2020-09-07T12:23:48Z</time>
      </trkpt>
      <trkpt lat="45.43635" lon="6.1983">
        <ele>1834.81</ele>
        <time>2020-09-07T12:24:01Z</time>
      </trkpt>
      <trkpt lat="45.43638" lon="6.19821">
        <ele>1831.45</ele>
        <time>2020-09-07T12:24:12Z</time>
      </trkpt>
      <trkpt lat="45.43638" lon="6.19813">
        <ele>1829.05</ele>
        <time>2020-09-07T12:24:20Z</time>
      </trkpt>
      <trkpt lat="45.43639" lon="6.1981">
        <ele>1828.56</ele>
        <time>2020-09-07T12:24:22Z</time>
      </trkpt>
      <trkpt lat="45.4364" lon="6.19809">
        <ele>1828.08</ele>
        <time>2020-09-07T12:24:23Z</time>
      </trkpt>
      <trkpt lat="45.4364" lon="6.19808">
        <ele>1827.6</ele>
        <time>2020-09-07T12:24:24Z</time>
      </trkpt>
      <trkpt lat="45.43646" lon="6.19799">
        <ele>1824.72</ele>
        <time>2020-09-07T12:24:34Z</time>
      </trkpt>
      <trkpt lat="45.43651" lon="6.19793">
        <ele>1822.32</ele>
        <time>2020-09-07T12:24:47Z</time>
      </trkpt>
      <trkpt lat="45.43652" lon="6.19792">
        <ele>1821.35</ele>
        <time>2020-09-07T12:25:03Z</time>
      </trkpt>
      <trkpt lat="45.43651" lon="6.19792">
        <ele>1821.35</ele>
        <time>2020-09-07T12:25:21Z</time>
      </trkpt>
      <trkpt lat="45.4365" lon="6.19788">
        <ele>1820.39</ele>
        <time>2020-09-07T12:25:44Z</time>
      </trkpt>
      <trkpt lat="45.43646" lon="6.19775">
        <ele>1818.95</ele>
        <time>2020-09-07T12:25:58Z</time>
      </trkpt>
      <trkpt lat="45.43645" lon="6.19772">
        <ele>1818.47</ele>
        <time>2020-09-07T12:26:00Z</time>
      </trkpt>
      <trkpt lat="45.43645" lon="6.19771">
        <ele>1818.47</ele>
        <time>2020-09-07T12:26:01Z</time>
      </trkpt>
      <trkpt lat="45.43645" lon="6.19761">
        <ele>1816.07</ele>
        <time>2020-09-07T12:26:15Z</time>
      </trkpt>
      <trkpt lat="45.43649" lon="6.19745">
        <ele>1813.18</ele>
        <time>2020-09-07T12:26:29Z</time>
      </trkpt>
      <trkpt lat="45.4365" lon="6.19743">
        <ele>1812.22</ele>
        <time>2020-09-07T12:26:31Z</time>
      </trkpt>
      <trkpt lat="45.43656" lon="6.1973">
        <ele>1810.78</ele>
        <time>2020-09-07T12:26:43Z</time>
      </trkpt>
      <trkpt lat="45.4366" lon="6.19713">
        <ele>1807.9</ele>
        <time>2020-09-07T12:26:56Z</time>
      </trkpt>
      <trkpt lat="45.43667" lon="6.19691">
        <ele>1804.53</ele>
        <time>2020-09-07T12:27:13Z</time>
      </trkpt>
      <trkpt lat="45.43667" lon="6.19679">
        <ele>1802.61</ele>
        <time>2020-09-07T12:27:22Z</time>
      </trkpt>
      <trkpt lat="45.43666" lon="6.19678">
        <ele>1802.61</ele>
        <time>2020-09-07T12:27:23Z</time>
      </trkpt>
      <trkpt lat="45.43666" lon="6.19676">
        <ele>1802.61</ele>
        <time>2020-09-07T12:27:24Z</time>
      </trkpt>
      <trkpt lat="45.43665" lon="6.19675">
        <ele>1802.13</ele>
        <time>2020-09-07T12:27:25Z</time>
      </trkpt>
      <trkpt lat="45.43664" lon="6.19674">
        <ele>1802.13</ele>
        <time>2020-09-07T12:27:26Z</time>
      </trkpt>
      <trkpt lat="45.43664" lon="6.19672">
        <ele>1801.65</ele>
        <time>2020-09-07T12:27:27Z</time>
      </trkpt>
      <trkpt lat="45.43664" lon="6.19656">
        <ele>1799.24</ele>
        <time>2020-09-07T12:27:40Z</time>
      </trkpt>
      <trkpt lat="45.43664" lon="6.19655">
        <ele>1799.24</ele>
        <time>2020-09-07T12:27:41Z</time>
      </trkpt>
      <trkpt lat="45.43669" lon="6.19641">
        <ele>1795.88</ele>
        <time>2020-09-07T12:27:53Z</time>
      </trkpt>
      <trkpt lat="45.43673" lon="6.19627">
        <ele>1793</ele>
        <time>2020-09-07T12:28:06Z</time>
      </trkpt>
      <trkpt lat="45.43675" lon="6.19624">
        <ele>1792.03</ele>
        <time>2020-09-07T12:28:09Z</time>
      </trkpt>
      <trkpt lat="45.43676" lon="6.19623">
        <ele>1792.03</ele>
        <time>2020-09-07T12:28:10Z</time>
      </trkpt>
      <trkpt lat="45.43681" lon="6.19607">
        <ele>1788.67</ele>
        <time>2020-09-07T12:28:23Z</time>
      </trkpt>
      <trkpt lat="45.43687" lon="6.1959">
        <ele>1785.79</ele>
        <time>2020-09-07T12:28:37Z</time>
      </trkpt>
      <trkpt lat="45.4369" lon="6.19573">
        <ele>1782.42</ele>
        <time>2020-09-07T12:28:51Z</time>
      </trkpt>
      <trkpt lat="45.43692" lon="6.19556">
        <ele>1779.54</ele>
        <time>2020-09-07T12:29:05Z</time>
      </trkpt>
      <trkpt lat="45.43695" lon="6.19543">
        <ele>1777.13</ele>
        <time>2020-09-07T12:29:16Z</time>
      </trkpt>
      <trkpt lat="45.43698" lon="6.19528">
        <ele>1774.25</ele>
        <time>2020-09-07T12:29:28Z</time>
      </trkpt>
      <trkpt lat="45.437" lon="6.19509">
        <ele>1771.37</ele>
        <time>2020-09-07T12:29:42Z</time>
      </trkpt>
      <trkpt lat="45.43704" lon="6.19487">
        <ele>1768</ele>
        <time>2020-09-07T12:29:58Z</time>
      </trkpt>
      <trkpt lat="45.43707" lon="6.19471">
        <ele>1765.6</ele>
        <time>2020-09-07T12:30:15Z</time>
      </trkpt>
      <trkpt lat="45.43709" lon="6.19458">
        <ele>1762.23</ele>
        <time>2020-09-07T12:30:26Z</time>
      </trkpt>
      <trkpt lat="45.4371" lon="6.19454">
        <ele>1758.87</ele>
        <time>2020-09-07T12:30:29Z</time>
      </trkpt>
      <trkpt lat="45.43711" lon="6.1945">
        <ele>1762.23</ele>
        <time>2020-09-07T12:30:32Z</time>
      </trkpt>
      <trkpt lat="45.43714" lon="6.19441">
        <ele>1761.75</ele>
        <time>2020-09-07T12:30:47Z</time>
      </trkpt>
      <trkpt lat="45.43717" lon="6.19433">
        <ele>1760.79</ele>
        <time>2020-09-07T12:30:54Z</time>
      </trkpt>
      <trkpt lat="45.43723" lon="6.19415">
        <ele>1759.83</ele>
        <time>2020-09-07T12:31:10Z</time>
      </trkpt>
      <trkpt lat="45.43739" lon="6.19396">
        <ele>1757.43</ele>
        <time>2020-09-07T12:31:29Z</time>
      </trkpt>
      <trkpt lat="45.43746" lon="6.19383">
        <ele>1755.99</ele>
        <time>2020-09-07T12:31:45Z</time>
      </trkpt>
      <trkpt lat="45.43763" lon="6.19365">
        <ele>1753.58</ele>
        <time>2020-09-07T12:32:07Z</time>
      </trkpt>
      <trkpt lat="45.43782" lon="6.19365">
        <ele>1751.18</ele>
        <time>2020-09-07T12:32:26Z</time>
      </trkpt>
      <trkpt lat="45.43799" lon="6.19379">
        <ele>1749.26</ele>
        <time>2020-09-07T12:32:46Z</time>
      </trkpt>
      <trkpt lat="45.43799" lon="6.1938">
        <ele>1749.26</ele>
        <time>2020-09-07T12:32:47Z</time>
      </trkpt>
      <trkpt lat="45.43816" lon="6.19398">
        <ele>1746.85</ele>
        <time>2020-09-07T12:33:05Z</time>
      </trkpt>
      <trkpt lat="45.43832" lon="6.1939">
        <ele>1744.45</ele>
        <time>2020-09-07T12:33:22Z</time>
      </trkpt>
      <trkpt lat="45.43844" lon="6.19385">
        <ele>1741.57</ele>
        <time>2020-09-07T12:33:35Z</time>
      </trkpt>
      <trkpt lat="45.43861" lon="6.1938">
        <ele>1738.2</ele>
        <time>2020-09-07T12:33:52Z</time>
      </trkpt>
      <trkpt lat="45.43875" lon="6.19375">
        <ele>1735.8</ele>
        <time>2020-09-07T12:34:06Z</time>
      </trkpt>
      <trkpt lat="45.43876" lon="6.19374">
        <ele>1735.8</ele>
        <time>2020-09-07T12:34:07Z</time>
      </trkpt>
      <trkpt lat="45.43877" lon="6.19372">
        <ele>1735.8</ele>
        <time>2020-09-07T12:34:08Z</time>
      </trkpt>
      <trkpt lat="45.43882" lon="6.19367">
        <ele>1733.39</ele>
        <time>2020-09-07T12:34:13Z</time>
      </trkpt>
      <trkpt lat="45.43886" lon="6.19339">
        <ele>1730.03</ele>
        <time>2020-09-07T12:34:32Z</time>
      </trkpt>
      <trkpt lat="45.43886" lon="6.19327">
        <ele>1727.63</ele>
        <time>2020-09-07T12:34:41Z</time>
      </trkpt>
      <trkpt lat="45.43887" lon="6.19317">
        <ele>1724.26</ele>
        <time>2020-09-07T12:34:49Z</time>
      </trkpt>
      <trkpt lat="45.43887" lon="6.19314">
        <ele>1720.9</ele>
        <time>2020-09-07T12:34:52Z</time>
      </trkpt>
      <trkpt lat="45.43888" lon="6.19307">
        <ele>1724.74</ele>
        <time>2020-09-07T12:34:57Z</time>
      </trkpt>
      <trkpt lat="45.4389" lon="6.19282">
        <ele>1722.34</ele>
        <time>2020-09-07T12:35:15Z</time>
      </trkpt>
      <trkpt lat="45.43892" lon="6.19252">
        <ele>1719.46</ele>
        <time>2020-09-07T12:35:34Z</time>
      </trkpt>
      <trkpt lat="45.43895" lon="6.19223">
        <ele>1718.01</ele>
        <time>2020-09-07T12:35:53Z</time>
      </trkpt>
      <trkpt lat="45.43894" lon="6.19193">
        <ele>1716.09</ele>
        <time>2020-09-07T12:36:13Z</time>
      </trkpt>
      <trkpt lat="45.43887" lon="6.19167">
        <ele>1713.21</ele>
        <time>2020-09-07T12:36:33Z</time>
      </trkpt>
      <trkpt lat="45.43885" lon="6.19162">
        <ele>1711.76</ele>
        <time>2020-09-07T12:36:48Z</time>
      </trkpt>
      <trkpt lat="45.43882" lon="6.19158">
        <ele>1711.28</ele>
        <time>2020-09-07T12:36:55Z</time>
      </trkpt>
      <trkpt lat="45.43881" lon="6.19153">
        <ele>1710.8</ele>
        <time>2020-09-07T12:36:59Z</time>
      </trkpt>
      <trkpt lat="45.43874" lon="6.1913">
        <ele>1708.88</ele>
        <time>2020-09-07T12:37:17Z</time>
      </trkpt>
      <trkpt lat="45.43872" lon="6.19104">
        <ele>1706</ele>
        <time>2020-09-07T12:37:36Z</time>
      </trkpt>
      <trkpt lat="45.4387" lon="6.19082">
        <ele>1702.63</ele>
        <time>2020-09-07T12:37:53Z</time>
      </trkpt>
      <trkpt lat="45.43872" lon="6.19058">
        <ele>1699.75</ele>
        <time>2020-09-07T12:38:11Z</time>
      </trkpt>
      <trkpt lat="45.43878" lon="6.19036">
        <ele>1696.38</ele>
        <time>2020-09-07T12:38:28Z</time>
      </trkpt>
      <trkpt lat="45.43885" lon="6.19018">
        <ele>1693.98</ele>
        <time>2020-09-07T12:38:44Z</time>
      </trkpt>
      <trkpt lat="45.43893" lon="6.18998">
        <ele>1691.1</ele>
        <time>2020-09-07T12:39:00Z</time>
      </trkpt>
      <trkpt lat="45.439" lon="6.18981">
        <ele>1688.69</ele>
        <time>2020-09-07T12:39:14Z</time>
      </trkpt>
      <trkpt lat="45.43912" lon="6.1896">
        <ele>1685.81</ele>
        <time>2020-09-07T12:39:33Z</time>
      </trkpt>
      <trkpt lat="45.43918" lon="6.18934">
        <ele>1682.44</ele>
        <time>2020-09-07T12:39:52Z</time>
      </trkpt>
      <trkpt lat="45.43921" lon="6.18923">
        <ele>1681</ele>
        <time>2020-09-07T12:40:00Z</time>
      </trkpt>
      <trkpt lat="45.43933" lon="6.18906">
        <ele>1678.12</ele>
        <time>2020-09-07T12:40:17Z</time>
      </trkpt>
      <trkpt lat="45.43947" lon="6.18894">
        <ele>1674.75</ele>
        <time>2020-09-07T12:40:32Z</time>
      </trkpt>
      <trkpt lat="45.43956" lon="6.18878">
        <ele>1671.87</ele>
        <time>2020-09-07T12:40:47Z</time>
      </trkpt>
      <trkpt lat="45.43965" lon="6.18855">
        <ele>1668.99</ele>
        <time>2020-09-07T12:41:05Z</time>
      </trkpt>
      <trkpt lat="45.43969" lon="6.18839">
        <ele>1666.58</ele>
        <time>2020-09-07T12:41:16Z</time>
      </trkpt>
      <trkpt lat="45.4397" lon="6.18837">
        <ele>1666.58</ele>
        <time>2020-09-07T12:41:18Z</time>
      </trkpt>
      <trkpt lat="45.43978" lon="6.18814">
        <ele>1663.22</ele>
        <time>2020-09-07T12:41:35Z</time>
      </trkpt>
      <trkpt lat="45.43989" lon="6.18796">
        <ele>1660.33</ele>
        <time>2020-09-07T12:41:51Z</time>
      </trkpt>
      <trkpt lat="45.43999" lon="6.18777">
        <ele>1656.97</ele>
        <time>2020-09-07T12:42:08Z</time>
      </trkpt>
      <trkpt lat="45.44009" lon="6.1876">
        <ele>1654.09</ele>
        <time>2020-09-07T12:42:23Z</time>
      </trkpt>
      <trkpt lat="45.44009" lon="6.18758">
        <ele>1654.09</ele>
        <time>2020-09-07T12:42:24Z</time>
      </trkpt>
      <trkpt lat="45.4401" lon="6.18757">
        <ele>1653.6</ele>
        <time>2020-09-07T12:42:25Z</time>
      </trkpt>
      <trkpt lat="45.44023" lon="6.18734">
        <ele>1650.72</ele>
        <time>2020-09-07T12:42:45Z</time>
      </trkpt>
      <trkpt lat="45.44027" lon="6.18723">
        <ele>1649.28</ele>
        <time>2020-09-07T12:42:54Z</time>
      </trkpt>
      <trkpt lat="45.44028" lon="6.18722">
        <ele>1648.8</ele>
        <time>2020-09-07T12:42:55Z</time>
      </trkpt>
      <trkpt lat="45.44029" lon="6.18721">
        <ele>1648.8</ele>
        <time>2020-09-07T12:42:56Z</time>
      </trkpt>
      <trkpt lat="45.4404" lon="6.18708">
        <ele>1646.4</ele>
        <time>2020-09-07T12:43:11Z</time>
      </trkpt>
      <trkpt lat="45.44056" lon="6.18691">
        <ele>1643.99</ele>
        <time>2020-09-07T12:43:29Z</time>
      </trkpt>
      <trkpt lat="45.44062" lon="6.18674">
        <ele>1641.11</ele>
        <time>2020-09-07T12:43:43Z</time>
      </trkpt>
      <trkpt lat="45.44065" lon="6.1867">
        <ele>1640.63</ele>
        <time>2020-09-07T12:43:46Z</time>
      </trkpt>
      <trkpt lat="45.44066" lon="6.18669">
        <ele>1640.15</ele>
        <time>2020-09-07T12:43:47Z</time>
      </trkpt>
      <trkpt lat="45.44067" lon="6.18661">
        <ele>1638.22</ele>
        <time>2020-09-07T12:44:00Z</time>
      </trkpt>
      <trkpt lat="45.44068" lon="6.1866">
        <ele>1637.26</ele>
        <time>2020-09-07T12:44:13Z</time>
      </trkpt>
      <trkpt lat="45.4407" lon="6.18659">
        <ele>1636.78</ele>
        <time>2020-09-07T12:44:43Z</time>
      </trkpt>
      <trkpt lat="45.44069" lon="6.18661">
        <ele>1636.3</ele>
        <time>2020-09-07T12:45:07Z</time>
      </trkpt>
      <trkpt lat="45.44068" lon="6.18661">
        <ele>1633.42</ele>
        <time>2020-09-07T12:45:15Z</time>
      </trkpt>
      <trkpt lat="45.44068" lon="6.18661">
        <ele>1636.78</ele>
        <time>2020-09-07T12:45:23Z</time>
      </trkpt>
      <trkpt lat="45.44069" lon="6.18661">
        <ele>1638.22</ele>
        <time>2020-09-07T12:45:26Z</time>
      </trkpt>
      <trkpt lat="45.44069" lon="6.1866">
        <ele>1636.78</ele>
        <time>2020-09-07T12:45:57Z</time>
      </trkpt>
      <trkpt lat="45.44072" lon="6.18654">
        <ele>1636.78</ele>
        <time>2020-09-07T12:46:19Z</time>
      </trkpt>
      <trkpt lat="45.44077" lon="6.18643">
        <ele>1636.78</ele>
        <time>2020-09-07T12:46:33Z</time>
      </trkpt>
      <trkpt lat="45.44088" lon="6.18629">
        <ele>1634.86</ele>
        <time>2020-09-07T12:46:51Z</time>
      </trkpt>
      <trkpt lat="45.4409" lon="6.18628">
        <ele>1633.42</ele>
        <time>2020-09-07T12:46:54Z</time>
      </trkpt>
      <trkpt lat="45.44108" lon="6.18617">
        <ele>1631.98</ele>
        <time>2020-09-07T12:47:15Z</time>
      </trkpt>
      <trkpt lat="45.44119" lon="6.18607">
        <ele>1631.01</ele>
        <time>2020-09-07T12:47:35Z</time>
      </trkpt>
      <trkpt lat="45.44124" lon="6.18606">
        <ele>1630.53</ele>
        <time>2020-09-07T12:47:38Z</time>
      </trkpt>
      <trkpt lat="45.44137" lon="6.18594">
        <ele>1630.05</ele>
        <time>2020-09-07T12:47:52Z</time>
      </trkpt>
      <trkpt lat="45.44141" lon="6.18589">
        <ele>1629.57</ele>
        <time>2020-09-07T12:47:56Z</time>
      </trkpt>
      <trkpt lat="45.44142" lon="6.18587">
        <ele>1629.57</ele>
        <time>2020-09-07T12:47:57Z</time>
      </trkpt>
      <trkpt lat="45.44142" lon="6.18586">
        <ele>1629.57</ele>
        <time>2020-09-07T12:47:58Z</time>
      </trkpt>
      <trkpt lat="45.44155" lon="6.18571">
        <ele>1628.61</ele>
        <time>2020-09-07T12:48:14Z</time>
      </trkpt>
      <trkpt lat="45.44168" lon="6.18549">
        <ele>1627.65</ele>
        <time>2020-09-07T12:48:36Z</time>
      </trkpt>
      <trkpt lat="45.44177" lon="6.18532">
        <ele>1628.13</ele>
        <time>2020-09-07T12:48:50Z</time>
      </trkpt>
      <trkpt lat="45.44179" lon="6.18527">
        <ele>1628.61</ele>
        <time>2020-09-07T12:48:54Z</time>
      </trkpt>
      <trkpt lat="45.44184" lon="6.18504">
        <ele>1628.61</ele>
        <time>2020-09-07T12:49:12Z</time>
      </trkpt>
      <trkpt lat="45.44185" lon="6.18482">
        <ele>1628.61</ele>
        <time>2020-09-07T12:49:27Z</time>
      </trkpt>
      <trkpt lat="45.44189" lon="6.18456">
        <ele>1627.17</ele>
        <time>2020-09-07T12:49:45Z</time>
      </trkpt>
      <trkpt lat="45.44191" lon="6.1843">
        <ele>1626.21</ele>
        <time>2020-09-07T12:50:04Z</time>
      </trkpt>
      <trkpt lat="45.44192" lon="6.18413">
        <ele>1623.32</ele>
        <time>2020-09-07T12:50:18Z</time>
      </trkpt>
      <trkpt lat="45.44193" lon="6.18412">
        <ele>1621.4</ele>
        <time>2020-09-07T12:50:44Z</time>
      </trkpt>
      <trkpt lat="45.44188" lon="6.1841">
        <ele>1620.44</ele>
        <time>2020-09-07T12:51:05Z</time>
      </trkpt>
      <trkpt lat="45.44184" lon="6.1841">
        <ele>1620.44</ele>
        <time>2020-09-07T12:51:58Z</time>
      </trkpt>
      <trkpt lat="45.44187" lon="6.1841">
        <ele>1620.92</ele>
        <time>2020-09-07T12:52:29Z</time>
      </trkpt>
      <trkpt lat="45.44188" lon="6.18408">
        <ele>1620.44</ele>
        <time>2020-09-07T12:53:02Z</time>
      </trkpt>
      <trkpt lat="45.44189" lon="6.18401">
        <ele>1620.92</ele>
        <time>2020-09-07T12:53:36Z</time>
      </trkpt>
      <trkpt lat="45.44196" lon="6.18384">
        <ele>1620.92</ele>
        <time>2020-09-07T12:53:57Z</time>
      </trkpt>
      <trkpt lat="45.44197" lon="6.18378">
        <ele>1618.04</ele>
        <time>2020-09-07T12:54:03Z</time>
      </trkpt>
      <trkpt lat="45.44197" lon="6.18376">
        <ele>1617.07</ele>
        <time>2020-09-07T12:54:05Z</time>
      </trkpt>
      <trkpt lat="45.44199" lon="6.18363">
        <ele>1614.19</ele>
        <time>2020-09-07T12:54:18Z</time>
      </trkpt>
      <trkpt lat="45.44203" lon="6.18348">
        <ele>1610.83</ele>
        <time>2020-09-07T12:54:33Z</time>
      </trkpt>
      <trkpt lat="45.44207" lon="6.18329">
        <ele>1607.94</ele>
        <time>2020-09-07T12:54:50Z</time>
      </trkpt>
      <trkpt lat="45.4421" lon="6.18312">
        <ele>1604.58</ele>
        <time>2020-09-07T12:55:04Z</time>
      </trkpt>
      <trkpt lat="45.44214" lon="6.18297">
        <ele>1601.69</ele>
        <time>2020-09-07T12:55:17Z</time>
      </trkpt>
      <trkpt lat="45.44214" lon="6.18288">
        <ele>1598.81</ele>
        <time>2020-09-07T12:55:25Z</time>
      </trkpt>
      <trkpt lat="45.44215" lon="6.18268">
        <ele>1595.93</ele>
        <time>2020-09-07T12:55:43Z</time>
      </trkpt>
      <trkpt lat="45.44216" lon="6.18256">
        <ele>1592.08</ele>
        <time>2020-09-07T12:55:54Z</time>
      </trkpt>
      <trkpt lat="45.44218" lon="6.18249">
        <ele>1591.6</ele>
        <time>2020-09-07T12:55:58Z</time>
      </trkpt>
      <trkpt lat="45.44218" lon="6.18247">
        <ele>1591.12</ele>
        <time>2020-09-07T12:55:59Z</time>
      </trkpt>
      <trkpt lat="45.44218" lon="6.18246">
        <ele>1590.64</ele>
        <time>2020-09-07T12:56:00Z</time>
      </trkpt>
      <trkpt lat="45.44223" lon="6.18222">
        <ele>1587.75</ele>
        <time>2020-09-07T12:56:17Z</time>
      </trkpt>
      <trkpt lat="45.44226" lon="6.18217">
        <ele>1585.83</ele>
        <time>2020-09-07T12:56:40Z</time>
      </trkpt>
      <trkpt lat="45.44228" lon="6.18198">
        <ele>1582.95</ele>
        <time>2020-09-07T12:57:04Z</time>
      </trkpt>
      <trkpt lat="45.44228" lon="6.1818">
        <ele>1580.54</ele>
        <time>2020-09-07T12:57:15Z</time>
      </trkpt>
      <trkpt lat="45.44231" lon="6.1816">
        <ele>1577.18</ele>
        <time>2020-09-07T12:57:31Z</time>
      </trkpt>
      <trkpt lat="45.44232" lon="6.18138">
        <ele>1574.3</ele>
        <time>2020-09-07T12:57:48Z</time>
      </trkpt>
      <trkpt lat="45.44232" lon="6.18117">
        <ele>1571.89</ele>
        <time>2020-09-07T12:58:08Z</time>
      </trkpt>
      <trkpt lat="45.44235" lon="6.18099">
        <ele>1569.01</ele>
        <time>2020-09-07T12:58:25Z</time>
      </trkpt>
      <trkpt lat="45.44235" lon="6.18095">
        <ele>1567.57</ele>
        <time>2020-09-07T12:58:28Z</time>
      </trkpt>
      <trkpt lat="45.44234" lon="6.18076">
        <ele>1564.2</ele>
        <time>2020-09-07T12:58:45Z</time>
      </trkpt>
      <trkpt lat="45.44235" lon="6.18073">
        <ele>1563.24</ele>
        <time>2020-09-07T12:58:47Z</time>
      </trkpt>
      <trkpt lat="45.44237" lon="6.18059">
        <ele>1561.8</ele>
        <time>2020-09-07T12:58:58Z</time>
      </trkpt>
      <trkpt lat="45.44246" lon="6.18046">
        <ele>1561.8</ele>
        <time>2020-09-07T12:59:14Z</time>
      </trkpt>
      <trkpt lat="45.44255" lon="6.18039">
        <ele>1558.43</ele>
        <time>2020-09-07T12:59:26Z</time>
      </trkpt>
      <trkpt lat="45.44264" lon="6.18038">
        <ele>1556.99</ele>
        <time>2020-09-07T12:59:42Z</time>
      </trkpt>
      <trkpt lat="45.44284" lon="6.18037">
        <ele>1555.55</ele>
        <time>2020-09-07T13:00:03Z</time>
      </trkpt>
      <trkpt lat="45.44303" lon="6.18039">
        <ele>1552.19</ele>
        <time>2020-09-07T13:00:24Z</time>
      </trkpt>
      <trkpt lat="45.44325" lon="6.18047">
        <ele>1549.3</ele>
        <time>2020-09-07T13:00:46Z</time>
      </trkpt>
      <trkpt lat="45.44332" lon="6.18053">
        <ele>1548.82</ele>
        <time>2020-09-07T13:00:53Z</time>
      </trkpt>
      <trkpt lat="45.44337" lon="6.18058">
        <ele>1548.34</ele>
        <time>2020-09-07T13:00:59Z</time>
      </trkpt>
      <trkpt lat="45.44342" lon="6.18054">
        <ele>1547.86</ele>
        <time>2020-09-07T13:01:04Z</time>
      </trkpt>
      <trkpt lat="45.44343" lon="6.18053">
        <ele>1547.38</ele>
        <time>2020-09-07T13:01:05Z</time>
      </trkpt>
      <trkpt lat="45.44343" lon="6.18051">
        <ele>1547.38</ele>
        <time>2020-09-07T13:01:06Z</time>
      </trkpt>
      <trkpt lat="45.44336" lon="6.18039">
        <ele>1545.94</ele>
        <time>2020-09-07T13:01:22Z</time>
      </trkpt>
      <trkpt lat="45.44326" lon="6.18028">
        <ele>1544.01</ele>
        <time>2020-09-07T13:01:43Z</time>
      </trkpt>
      <trkpt lat="45.44322" lon="6.18022">
        <ele>1543.53</ele>
        <time>2020-09-07T13:01:48Z</time>
      </trkpt>
      <trkpt lat="45.44311" lon="6.18006">
        <ele>1541.13</ele>
        <time>2020-09-07T13:02:03Z</time>
      </trkpt>
      <trkpt lat="45.44296" lon="6.17988">
        <ele>1537.77</ele>
        <time>2020-09-07T13:02:20Z</time>
      </trkpt>
      <trkpt lat="45.44285" lon="6.17975">
        <ele>1535.84</ele>
        <time>2020-09-07T13:02:33Z</time>
      </trkpt>
      <trkpt lat="45.44273" lon="6.17964">
        <ele>1532.96</ele>
        <time>2020-09-07T13:02:45Z</time>
      </trkpt>
      <trkpt lat="45.44268" lon="6.1796">
        <ele>1529.59</ele>
        <time>2020-09-07T13:02:50Z</time>
      </trkpt>
      <trkpt lat="45.44255" lon="6.17948">
        <ele>1528.63</ele>
        <time>2020-09-07T13:03:08Z</time>
      </trkpt>
      <trkpt lat="45.44241" lon="6.17937">
        <ele>1529.59</ele>
        <time>2020-09-07T13:03:27Z</time>
      </trkpt>
      <trkpt lat="45.44235" lon="6.1793">
        <ele>1526.23</ele>
        <time>2020-09-07T13:03:38Z</time>
      </trkpt>
      <trkpt lat="45.44221" lon="6.17922">
        <ele>1524.79</ele>
        <time>2020-09-07T13:03:55Z</time>
      </trkpt>
      <trkpt lat="45.44207" lon="6.17915">
        <ele>1522.39</ele>
        <time>2020-09-07T13:04:15Z</time>
      </trkpt>
      <trkpt lat="45.44205" lon="6.17914">
        <ele>1519.02</ele>
        <time>2020-09-07T13:04:26Z</time>
      </trkpt>
      <trkpt lat="45.44205" lon="6.17903">
        <ele>1514.69</ele>
        <time>2020-09-07T13:04:34Z</time>
      </trkpt>
      <trkpt lat="45.44205" lon="6.17897">
        <ele>1513.73</ele>
        <time>2020-09-07T13:04:37Z</time>
      </trkpt>
      <trkpt lat="45.44211" lon="6.17873">
        <ele>1514.69</ele>
        <time>2020-09-07T13:04:55Z</time>
      </trkpt>
      <trkpt lat="45.44213" lon="6.17864">
        <ele>1511.81</ele>
        <time>2020-09-07T13:05:03Z</time>
      </trkpt>
      <trkpt lat="45.44215" lon="6.17855">
        <ele>1514.69</ele>
        <time>2020-09-07T13:05:11Z</time>
      </trkpt>
      <trkpt lat="45.44218" lon="6.17846">
        <ele>1511.33</ele>
        <time>2020-09-07T13:05:19Z</time>
      </trkpt>
      <trkpt lat="45.44221" lon="6.17829">
        <ele>1507.97</ele>
        <time>2020-09-07T13:05:34Z</time>
      </trkpt>
      <trkpt lat="45.44221" lon="6.1782">
        <ele>1504.6</ele>
        <time>2020-09-07T13:05:43Z</time>
      </trkpt>
      <trkpt lat="45.44219" lon="6.17807">
        <ele>1501.72</ele>
        <time>2020-09-07T13:05:54Z</time>
      </trkpt>
      <trkpt lat="45.44221" lon="6.17796">
        <ele>1498.35</ele>
        <time>2020-09-07T13:06:04Z</time>
      </trkpt>
      <trkpt lat="45.44223" lon="6.17789">
        <ele>1494.99</ele>
        <time>2020-09-07T13:06:13Z</time>
      </trkpt>
      <trkpt lat="45.44224" lon="6.17778">
        <ele>1492.1</ele>
        <time>2020-09-07T13:06:24Z</time>
      </trkpt>
      <trkpt lat="45.44226" lon="6.17762">
        <ele>1488.74</ele>
        <time>2020-09-07T13:06:34Z</time>
      </trkpt>
      <trkpt lat="45.44229" lon="6.17744">
        <ele>1485.37</ele>
        <time>2020-09-07T13:06:43Z</time>
      </trkpt>
      <trkpt lat="45.44229" lon="6.17731">
        <ele>1482.49</ele>
        <time>2020-09-07T13:06:53Z</time>
      </trkpt>
      <trkpt lat="45.44227" lon="6.1772">
        <ele>1479.13</ele>
        <time>2020-09-07T13:07:03Z</time>
      </trkpt>
      <trkpt lat="45.44224" lon="6.17709">
        <ele>1475.76</ele>
        <time>2020-09-07T13:07:14Z</time>
      </trkpt>
      <trkpt lat="45.44221" lon="6.17705">
        <ele>1473.84</ele>
        <time>2020-09-07T13:07:29Z</time>
      </trkpt>
      <trkpt lat="45.44224" lon="6.17691">
        <ele>1472.4</ele>
        <time>2020-09-07T13:07:50Z</time>
      </trkpt>
      <trkpt lat="45.4423" lon="6.17683">
        <ele>1470.95</ele>
        <time>2020-09-07T13:08:06Z</time>
      </trkpt>
      <trkpt lat="45.44237" lon="6.17663">
        <ele>1468.07</ele>
        <time>2020-09-07T13:08:22Z</time>
      </trkpt>
      <trkpt lat="45.4424" lon="6.17652">
        <ele>1465.67</ele>
        <time>2020-09-07T13:08:35Z</time>
      </trkpt>
      <trkpt lat="45.44246" lon="6.17635">
        <ele>1462.78</ele>
        <time>2020-09-07T13:08:52Z</time>
      </trkpt>
      <trkpt lat="45.44248" lon="6.17627">
        <ele>1461.34</ele>
        <time>2020-09-07T13:08:59Z</time>
      </trkpt>
      <trkpt lat="45.44252" lon="6.17615">
        <ele>1459.42</ele>
        <time>2020-09-07T13:09:09Z</time>
      </trkpt>
      <trkpt lat="45.44254" lon="6.17596">
        <ele>1456.05</ele>
        <time>2020-09-07T13:09:23Z</time>
      </trkpt>
      <trkpt lat="45.44258" lon="6.17583">
        <ele>1453.17</ele>
        <time>2020-09-07T13:09:34Z</time>
      </trkpt>
      <trkpt lat="45.4426" lon="6.17574">
        <ele>1450.29</ele>
        <time>2020-09-07T13:09:41Z</time>
      </trkpt>
      <trkpt lat="45.44264" lon="6.17562">
        <ele>1448.84</ele>
        <time>2020-09-07T13:09:55Z</time>
      </trkpt>
      <trkpt lat="45.44264" lon="6.17561">
        <ele>1447.4</ele>
        <time>2020-09-07T13:10:10Z</time>
      </trkpt>
      <trkpt lat="45.44259" lon="6.17565">
        <ele>1447.4</ele>
        <time>2020-09-07T13:10:26Z</time>
      </trkpt>
      <trkpt lat="45.44256" lon="6.17567">
        <ele>1448.84</ele>
        <time>2020-09-07T13:10:47Z</time>
      </trkpt>
      <trkpt lat="45.44262" lon="6.17571">
        <ele>1447.88</ele>
        <time>2020-09-07T13:11:03Z</time>
      </trkpt>
      <trkpt lat="45.44265" lon="6.17568">
        <ele>1447.88</ele>
        <time>2020-09-07T13:11:26Z</time>
      </trkpt>
      <trkpt lat="45.44266" lon="6.17562">
        <ele>1447.88</ele>
        <time>2020-09-07T13:11:44Z</time>
      </trkpt>
      <trkpt lat="45.44269" lon="6.17549">
        <ele>1444.52</ele>
        <time>2020-09-07T13:12:02Z</time>
      </trkpt>
      <trkpt lat="45.44269" lon="6.17548">
        <ele>1444.52</ele>
        <time>2020-09-07T13:12:03Z</time>
      </trkpt>
      <trkpt lat="45.4427" lon="6.17532">
        <ele>1441.15</ele>
        <time>2020-09-07T13:12:18Z</time>
      </trkpt>
      <trkpt lat="45.44264" lon="6.17516">
        <ele>1437.79</ele>
        <time>2020-09-07T13:12:31Z</time>
      </trkpt>
      <trkpt lat="45.44263" lon="6.17503">
        <ele>1433.94</ele>
        <time>2020-09-07T13:12:42Z</time>
      </trkpt>
      <trkpt lat="45.44262" lon="6.17499">
        <ele>1432.98</ele>
        <time>2020-09-07T13:12:43Z</time>
      </trkpt>
      <trkpt lat="45.44262" lon="6.17488">
        <ele>1430.58</ele>
        <time>2020-09-07T13:12:51Z</time>
      </trkpt>
      <trkpt lat="45.4427" lon="6.17464">
        <ele>1427.21</ele>
        <time>2020-09-07T13:13:12Z</time>
      </trkpt>
      <trkpt lat="45.44277" lon="6.17452">
        <ele>1423.85</ele>
        <time>2020-09-07T13:13:24Z</time>
      </trkpt>
      <trkpt lat="45.44278" lon="6.17448">
        <ele>1423.37</ele>
        <time>2020-09-07T13:13:27Z</time>
      </trkpt>
      <trkpt lat="45.44279" lon="6.17446">
        <ele>1423.37</ele>
        <time>2020-09-07T13:13:28Z</time>
      </trkpt>
      <trkpt lat="45.44284" lon="6.17424">
        <ele>1420</ele>
        <time>2020-09-07T13:13:45Z</time>
      </trkpt>
      <trkpt lat="45.44287" lon="6.17416">
        <ele>1419.52</ele>
        <time>2020-09-07T13:13:51Z</time>
      </trkpt>
      <trkpt lat="45.44292" lon="6.17399">
        <ele>1416.16</ele>
        <time>2020-09-07T13:14:04Z</time>
      </trkpt>
      <trkpt lat="45.44296" lon="6.1738">
        <ele>1413.28</ele>
        <time>2020-09-07T13:14:16Z</time>
      </trkpt>
      <trkpt lat="45.443" lon="6.17361">
        <ele>1409.91</ele>
        <time>2020-09-07T13:14:30Z</time>
      </trkpt>
      <trkpt lat="45.443" lon="6.17355">
        <ele>1408.47</ele>
        <time>2020-09-07T13:14:35Z</time>
      </trkpt>
      <trkpt lat="45.44305" lon="6.17343">
        <ele>1405.58</ele>
        <time>2020-09-07T13:14:46Z</time>
      </trkpt>
      <trkpt lat="45.44307" lon="6.17331">
        <ele>1402.22</ele>
        <time>2020-09-07T13:14:55Z</time>
      </trkpt>
      <trkpt lat="45.44306" lon="6.17318">
        <ele>1399.34</ele>
        <time>2020-09-07T13:15:06Z</time>
      </trkpt>
      <trkpt lat="45.44307" lon="6.17302">
        <ele>1395.97</ele>
        <time>2020-09-07T13:15:17Z</time>
      </trkpt>
      <trkpt lat="45.44309" lon="6.1729">
        <ele>1392.61</ele>
        <time>2020-09-07T13:15:27Z</time>
      </trkpt>
      <trkpt lat="45.4431" lon="6.17278">
        <ele>1389.72</ele>
        <time>2020-09-07T13:15:37Z</time>
      </trkpt>
      <trkpt lat="45.44316" lon="6.17259">
        <ele>1386.84</ele>
        <time>2020-09-07T13:15:48Z</time>
      </trkpt>
      <trkpt lat="45.44319" lon="6.17245">
        <ele>1384.92</ele>
        <time>2020-09-07T13:15:56Z</time>
      </trkpt>
      <trkpt lat="45.4432" lon="6.17243">
        <ele>1384.44</ele>
        <time>2020-09-07T13:15:57Z</time>
      </trkpt>
      <trkpt lat="45.4432" lon="6.17242">
        <ele>1384.44</ele>
        <time>2020-09-07T13:15:58Z</time>
      </trkpt>
      <trkpt lat="45.44321" lon="6.1724">
        <ele>1383.96</ele>
        <time>2020-09-07T13:15:59Z</time>
      </trkpt>
      <trkpt lat="45.44321" lon="6.17239">
        <ele>1383.96</ele>
        <time>2020-09-07T13:16:00Z</time>
      </trkpt>
      <trkpt lat="45.44326" lon="6.17222">
        <ele>1380.59</ele>
        <time>2020-09-07T13:16:10Z</time>
      </trkpt>
      <trkpt lat="45.44327" lon="6.17221">
        <ele>1380.11</ele>
        <time>2020-09-07T13:16:11Z</time>
      </trkpt>
      <trkpt lat="45.44332" lon="6.17209">
        <ele>1376.75</ele>
        <time>2020-09-07T13:16:18Z</time>
      </trkpt>
      <trkpt lat="45.44343" lon="6.1719">
        <ele>1374.34</ele>
        <time>2020-09-07T13:16:33Z</time>
      </trkpt>
      <trkpt lat="45.44357" lon="6.17174">
        <ele>1374.34</ele>
        <time>2020-09-07T13:16:52Z</time>
      </trkpt>
      <trkpt lat="45.44369" lon="6.17159">
        <ele>1370.98</ele>
        <time>2020-09-07T13:17:09Z</time>
      </trkpt>
      <trkpt lat="45.44379" lon="6.17148">
        <ele>1367.61</ele>
        <time>2020-09-07T13:17:23Z</time>
      </trkpt>
      <trkpt lat="45.44385" lon="6.17135">
        <ele>1364.73</ele>
        <time>2020-09-07T13:17:34Z</time>
      </trkpt>
      <trkpt lat="45.44391" lon="6.17125">
        <ele>1361.36</ele>
        <time>2020-09-07T13:17:45Z</time>
      </trkpt>
      <trkpt lat="45.44394" lon="6.17117">
        <ele>1358.48</ele>
        <time>2020-09-07T13:17:57Z</time>
      </trkpt>
      <trkpt lat="45.44396" lon="6.17107">
        <ele>1355.6</ele>
        <time>2020-09-07T13:18:08Z</time>
      </trkpt>
      <trkpt lat="45.44402" lon="6.17095">
        <ele>1352.23</ele>
        <time>2020-09-07T13:18:17Z</time>
      </trkpt>
      <trkpt lat="45.44403" lon="6.17086">
        <ele>1349.35</ele>
        <time>2020-09-07T13:18:27Z</time>
      </trkpt>
      <trkpt lat="45.44408" lon="6.17074">
        <ele>1345.98</ele>
        <time>2020-09-07T13:18:39Z</time>
      </trkpt>
      <trkpt lat="45.44415" lon="6.17067">
        <ele>1343.1</ele>
        <time>2020-09-07T13:18:51Z</time>
      </trkpt>
      <trkpt lat="45.44421" lon="6.17061">
        <ele>1339.25</ele>
        <time>2020-09-07T13:19:03Z</time>
      </trkpt>
      <trkpt lat="45.44422" lon="6.1706">
        <ele>1338.29</ele>
        <time>2020-09-07T13:19:05Z</time>
      </trkpt>
      <trkpt lat="45.44431" lon="6.17052">
        <ele>1337.33</ele>
        <time>2020-09-07T13:19:21Z</time>
      </trkpt>
      <trkpt lat="45.44435" lon="6.17054">
        <ele>1333.97</ele>
        <time>2020-09-07T13:19:31Z</time>
      </trkpt>
      <trkpt lat="45.44435" lon="6.17052">
        <ele>1333.49</ele>
        <time>2020-09-07T13:20:00Z</time>
      </trkpt>
      <trkpt lat="45.44442" lon="6.17043">
        <ele>1331.56</ele>
        <time>2020-09-07T13:20:14Z</time>
      </trkpt>
      <trkpt lat="45.44449" lon="6.17037">
        <ele>1328.68</ele>
        <time>2020-09-07T13:20:28Z</time>
      </trkpt>
      <trkpt lat="45.4445" lon="6.17035">
        <ele>1327.24</ele>
        <time>2020-09-07T13:20:44Z</time>
      </trkpt>
      <trkpt lat="45.4445" lon="6.17034">
        <ele>1323.87</ele>
        <time>2020-09-07T13:20:54Z</time>
      </trkpt>
      <trkpt lat="45.4445" lon="6.17034">
        <ele>1323.39</ele>
        <time>2020-09-07T13:20:57Z</time>
      </trkpt>
    </trkseg>
  </trk>
</gpx>